<?xml version="1.0" encoding="UTF-8" standalone="no" ?>
<gpx xmlns="http://www.topografix.com/GPX/1/1" xmlns:xsi="http://www.w3.org/2001/XMLSchema-instance" xsi:schemaLocation="http://www.topografix.com/GPX/1/1 http://www.topografix.com/GPX/1/1/gpx.xsd" version="1.1" creator="VisuGPX - https://www.visugpx.com">
  <metadata>
    <name>rdo_2023_etape1</name>
  </metadata>
  <trk>
    <name><![CDATA[RDO2023 - Etape1-16601706]]></name>
    <extensions>
      <line xmlns="http://www.topografix.com/GPX/gpx_style/0/2">
        <color>0000FF</color>
        <width>4</width>
      </line>
    </extensions>
    <trkseg>
      <trkpt lat="49.42976" lon="2.0827">
        <ele>67</ele>
        <time>2023-05-24T22:08:16Z</time>
      </trkpt>
      <trkpt lat="49.42946" lon="2.08365">
        <ele>68</ele>
        <time>2023-05-24T22:08:28Z</time>
      </trkpt>
      <trkpt lat="49.4308" lon="2.08462">
        <ele>70</ele>
        <time>2023-05-24T22:08:55Z</time>
      </trkpt>
      <trkpt lat="49.43087" lon="2.08464">
        <ele>70</ele>
        <time>2023-05-24T22:08:56Z</time>
      </trkpt>
      <trkpt lat="49.43025" lon="2.08655">
        <ele>67</ele>
        <time>2023-05-24T22:09:21Z</time>
      </trkpt>
      <trkpt lat="49.42919" lon="2.08968">
        <ele>66</ele>
        <time>2023-05-24T22:10:01Z</time>
      </trkpt>
      <trkpt lat="49.42914" lon="2.08982">
        <ele>66</ele>
        <time>2023-05-24T22:10:03Z</time>
      </trkpt>
      <trkpt lat="49.42982" lon="2.09052">
        <ele>64</ele>
        <time>2023-05-24T22:10:18Z</time>
      </trkpt>
      <trkpt lat="49.43012" lon="2.09086">
        <ele>64</ele>
        <time>2023-05-24T22:10:24Z</time>
      </trkpt>
      <trkpt lat="49.43031" lon="2.09103">
        <ele>64</ele>
        <time>2023-05-24T22:10:28Z</time>
      </trkpt>
      <trkpt lat="49.43045" lon="2.09113">
        <ele>64</ele>
        <time>2023-05-24T22:10:31Z</time>
      </trkpt>
      <trkpt lat="49.43056" lon="2.09117">
        <ele>64</ele>
        <time>2023-05-24T22:10:33Z</time>
      </trkpt>
      <trkpt lat="49.43066" lon="2.09114">
        <ele>65</ele>
        <time>2023-05-24T22:10:35Z</time>
      </trkpt>
      <trkpt lat="49.43074" lon="2.09104">
        <ele>65</ele>
        <time>2023-05-24T22:10:37Z</time>
      </trkpt>
      <trkpt lat="49.43093" lon="2.09074">
        <ele>66</ele>
        <time>2023-05-24T22:10:42Z</time>
      </trkpt>
      <trkpt lat="49.43101" lon="2.09064">
        <ele>66</ele>
        <time>2023-05-24T22:10:43Z</time>
      </trkpt>
      <trkpt lat="49.4316" lon="2.09">
        <ele>66</ele>
        <time>2023-05-24T22:10:56Z</time>
      </trkpt>
      <trkpt lat="49.43171" lon="2.08994">
        <ele>66</ele>
        <time>2023-05-24T22:10:58Z</time>
      </trkpt>
      <trkpt lat="49.43178" lon="2.08993">
        <ele>66</ele>
        <time>2023-05-24T22:11:00Z</time>
      </trkpt>
      <trkpt lat="49.43187" lon="2.08993">
        <ele>66</ele>
        <time>2023-05-24T22:11:01Z</time>
      </trkpt>
      <trkpt lat="49.43259" lon="2.09012">
        <ele>67</ele>
        <time>2023-05-24T22:11:14Z</time>
      </trkpt>
      <trkpt lat="49.43383" lon="2.09043">
        <ele>69</ele>
        <time>2023-05-24T22:11:37Z</time>
      </trkpt>
      <trkpt lat="49.4338" lon="2.09061">
        <ele>69</ele>
        <time>2023-05-24T22:11:39Z</time>
      </trkpt>
      <trkpt lat="49.43367" lon="2.09233">
        <ele>69</ele>
        <time>2023-05-24T22:11:59Z</time>
      </trkpt>
      <trkpt lat="49.43361" lon="2.0934">
        <ele>68</ele>
        <time>2023-05-24T22:12:11Z</time>
      </trkpt>
      <trkpt lat="49.43368" lon="2.09409">
        <ele>71</ele>
        <time>2023-05-24T22:12:19Z</time>
      </trkpt>
      <trkpt lat="49.43369" lon="2.09447">
        <ele>73</ele>
        <time>2023-05-24T22:12:24Z</time>
      </trkpt>
      <trkpt lat="49.43367" lon="2.09467">
        <ele>73</ele>
        <time>2023-05-24T22:12:26Z</time>
      </trkpt>
      <trkpt lat="49.43363" lon="2.09491">
        <ele>74</ele>
        <time>2023-05-24T22:12:29Z</time>
      </trkpt>
      <trkpt lat="49.43346" lon="2.09553">
        <ele>75</ele>
        <time>2023-05-24T22:12:37Z</time>
      </trkpt>
      <trkpt lat="49.4332" lon="2.09637">
        <ele>77</ele>
        <time>2023-05-24T22:12:47Z</time>
      </trkpt>
      <trkpt lat="49.43234" lon="2.09759">
        <ele>72</ele>
        <time>2023-05-24T22:13:08Z</time>
      </trkpt>
      <trkpt lat="49.43225" lon="2.09776">
        <ele>72</ele>
        <time>2023-05-24T22:13:11Z</time>
      </trkpt>
      <trkpt lat="49.43215" lon="2.09805">
        <ele>73</ele>
        <time>2023-05-24T22:13:15Z</time>
      </trkpt>
      <trkpt lat="49.43184" lon="2.0989">
        <ele>73</ele>
        <time>2023-05-24T22:13:26Z</time>
      </trkpt>
      <trkpt lat="49.43154" lon="2.09988">
        <ele>72</ele>
        <time>2023-05-24T22:13:38Z</time>
      </trkpt>
      <trkpt lat="49.43106" lon="2.10176">
        <ele>72</ele>
        <time>2023-05-24T22:14:02Z</time>
      </trkpt>
      <trkpt lat="49.43053" lon="2.10361">
        <ele>69</ele>
        <time>2023-05-24T22:14:25Z</time>
      </trkpt>
      <trkpt lat="49.4298" lon="2.10579">
        <ele>67</ele>
        <time>2023-05-24T22:14:54Z</time>
      </trkpt>
      <trkpt lat="49.42956" lon="2.10644">
        <ele>70</ele>
        <time>2023-05-24T22:15:02Z</time>
      </trkpt>
      <trkpt lat="49.42907" lon="2.10783">
        <ele>77</ele>
        <time>2023-05-24T22:15:20Z</time>
      </trkpt>
      <trkpt lat="49.42886" lon="2.10855">
        <ele>78</ele>
        <time>2023-05-24T22:15:30Z</time>
      </trkpt>
      <trkpt lat="49.42869" lon="2.10901">
        <ele>78</ele>
        <time>2023-05-24T22:15:36Z</time>
      </trkpt>
      <trkpt lat="49.42763" lon="2.11114">
        <ele>76</ele>
        <time>2023-05-24T22:16:07Z</time>
      </trkpt>
      <trkpt lat="49.42729" lon="2.11214">
        <ele>74</ele>
        <time>2023-05-24T22:16:20Z</time>
      </trkpt>
      <trkpt lat="49.42679" lon="2.11378">
        <ele>72</ele>
        <time>2023-05-24T22:16:41Z</time>
      </trkpt>
      <trkpt lat="49.42663" lon="2.11441">
        <ele>71</ele>
        <time>2023-05-24T22:16:49Z</time>
      </trkpt>
      <trkpt lat="49.42655" lon="2.11486">
        <ele>71</ele>
        <time>2023-05-24T22:16:54Z</time>
      </trkpt>
      <trkpt lat="49.42653" lon="2.11491">
        <ele>71</ele>
        <time>2023-05-24T22:16:55Z</time>
      </trkpt>
      <trkpt lat="49.42647" lon="2.11498">
        <ele>71</ele>
        <time>2023-05-24T22:16:56Z</time>
      </trkpt>
      <trkpt lat="49.42641" lon="2.115">
        <ele>70</ele>
        <time>2023-05-24T22:16:57Z</time>
      </trkpt>
      <trkpt lat="49.42635" lon="2.11499">
        <ele>70</ele>
        <time>2023-05-24T22:16:58Z</time>
      </trkpt>
      <trkpt lat="49.42564" lon="2.11464">
        <ele>63</ele>
        <time>2023-05-24T22:17:11Z</time>
      </trkpt>
      <trkpt lat="49.42541" lon="2.11545">
        <ele>62</ele>
        <time>2023-05-24T22:17:22Z</time>
      </trkpt>
      <trkpt lat="49.42528" lon="2.11599">
        <ele>61</ele>
        <time>2023-05-24T22:17:28Z</time>
      </trkpt>
      <trkpt lat="49.42527" lon="2.11618">
        <ele>61</ele>
        <time>2023-05-24T22:17:31Z</time>
      </trkpt>
      <trkpt lat="49.42536" lon="2.1168">
        <ele>62</ele>
        <time>2023-05-24T22:17:38Z</time>
      </trkpt>
      <trkpt lat="49.42534" lon="2.11699">
        <ele>62</ele>
        <time>2023-05-24T22:17:40Z</time>
      </trkpt>
      <trkpt lat="49.42517" lon="2.11854">
        <ele>61</ele>
        <time>2023-05-24T22:17:58Z</time>
      </trkpt>
      <trkpt lat="49.42514" lon="2.1192">
        <ele>62</ele>
        <time>2023-05-24T22:18:06Z</time>
      </trkpt>
      <trkpt lat="49.42606" lon="2.11953">
        <ele>72</ele>
        <time>2023-05-24T22:18:23Z</time>
      </trkpt>
      <trkpt lat="49.42608" lon="2.11971">
        <ele>73</ele>
        <time>2023-05-24T22:18:25Z</time>
      </trkpt>
      <trkpt lat="49.42603" lon="2.12061">
        <ele>77</ele>
        <time>2023-05-24T22:18:35Z</time>
      </trkpt>
      <trkpt lat="49.42601" lon="2.12204">
        <ele>79</ele>
        <time>2023-05-24T22:18:52Z</time>
      </trkpt>
      <trkpt lat="49.42579" lon="2.12489">
        <ele>79</ele>
        <time>2023-05-24T22:19:25Z</time>
      </trkpt>
      <trkpt lat="49.42568" lon="2.12652">
        <ele>76</ele>
        <time>2023-05-24T22:19:44Z</time>
      </trkpt>
      <trkpt lat="49.42561" lon="2.12714">
        <ele>75</ele>
        <time>2023-05-24T22:19:51Z</time>
      </trkpt>
      <trkpt lat="49.42549" lon="2.12777">
        <ele>75</ele>
        <time>2023-05-24T22:19:59Z</time>
      </trkpt>
      <trkpt lat="49.42548" lon="2.12796">
        <ele>75</ele>
        <time>2023-05-24T22:20:01Z</time>
      </trkpt>
      <trkpt lat="49.42549" lon="2.12802">
        <ele>75</ele>
        <time>2023-05-24T22:20:02Z</time>
      </trkpt>
      <trkpt lat="49.42556" lon="2.12809">
        <ele>76</ele>
        <time>2023-05-24T22:20:03Z</time>
      </trkpt>
      <trkpt lat="49.42578" lon="2.12822">
        <ele>77</ele>
        <time>2023-05-24T22:20:08Z</time>
      </trkpt>
      <trkpt lat="49.42609" lon="2.1283">
        <ele>78</ele>
        <time>2023-05-24T22:20:13Z</time>
      </trkpt>
      <trkpt lat="49.42659" lon="2.12853">
        <ele>79</ele>
        <time>2023-05-24T22:20:22Z</time>
      </trkpt>
      <trkpt lat="49.42666" lon="2.12862">
        <ele>79</ele>
        <time>2023-05-24T22:20:24Z</time>
      </trkpt>
      <trkpt lat="49.42668" lon="2.12871">
        <ele>79</ele>
        <time>2023-05-24T22:20:25Z</time>
      </trkpt>
      <trkpt lat="49.42665" lon="2.12884">
        <ele>79</ele>
        <time>2023-05-24T22:20:27Z</time>
      </trkpt>
      <trkpt lat="49.42638" lon="2.12964">
        <ele>77</ele>
        <time>2023-05-24T22:20:37Z</time>
      </trkpt>
      <trkpt lat="49.42613" lon="2.13073">
        <ele>77</ele>
        <time>2023-05-24T22:20:51Z</time>
      </trkpt>
      <trkpt lat="49.42595" lon="2.13154">
        <ele>78</ele>
        <time>2023-05-24T22:21:00Z</time>
      </trkpt>
      <trkpt lat="49.42597" lon="2.13175">
        <ele>78</ele>
        <time>2023-05-24T22:21:03Z</time>
      </trkpt>
      <trkpt lat="49.42592" lon="2.13181">
        <ele>78</ele>
        <time>2023-05-24T22:21:04Z</time>
      </trkpt>
      <trkpt lat="49.42589" lon="2.13188">
        <ele>78</ele>
        <time>2023-05-24T22:21:05Z</time>
      </trkpt>
      <trkpt lat="49.42588" lon="2.13196">
        <ele>77</ele>
        <time>2023-05-24T22:21:06Z</time>
      </trkpt>
      <trkpt lat="49.42591" lon="2.13207">
        <ele>77</ele>
        <time>2023-05-24T22:21:07Z</time>
      </trkpt>
      <trkpt lat="49.42582" lon="2.13216">
        <ele>77</ele>
        <time>2023-05-24T22:21:09Z</time>
      </trkpt>
      <trkpt lat="49.42579" lon="2.13222">
        <ele>76</ele>
        <time>2023-05-24T22:21:10Z</time>
      </trkpt>
      <trkpt lat="49.42581" lon="2.13225">
        <ele>76</ele>
        <time>2023-05-24T22:21:11Z</time>
      </trkpt>
      <trkpt lat="49.42569" lon="2.13262">
        <ele>75</ele>
        <time>2023-05-24T22:21:15Z</time>
      </trkpt>
      <trkpt lat="49.42554" lon="2.1332">
        <ele>72</ele>
        <time>2023-05-24T22:21:23Z</time>
      </trkpt>
      <trkpt lat="49.4252" lon="2.13478">
        <ele>68</ele>
        <time>2023-05-24T22:21:42Z</time>
      </trkpt>
      <trkpt lat="49.42487" lon="2.13582">
        <ele>68</ele>
        <time>2023-05-24T22:21:55Z</time>
      </trkpt>
      <trkpt lat="49.42255" lon="2.1436">
        <ele>71</ele>
        <time>2023-05-24T22:23:34Z</time>
      </trkpt>
      <trkpt lat="49.42142" lon="2.14729">
        <ele>64</ele>
        <time>2023-05-24T22:24:22Z</time>
      </trkpt>
      <trkpt lat="49.42072" lon="2.1499">
        <ele>62</ele>
        <time>2023-05-24T22:24:54Z</time>
      </trkpt>
      <trkpt lat="49.42068" lon="2.14994">
        <ele>62</ele>
        <time>2023-05-24T22:24:55Z</time>
      </trkpt>
      <trkpt lat="49.42058" lon="2.15034">
        <ele>61</ele>
        <time>2023-05-24T22:25:00Z</time>
      </trkpt>
      <trkpt lat="49.41939" lon="2.15555">
        <ele>66</ele>
        <time>2023-05-24T22:26:04Z</time>
      </trkpt>
      <trkpt lat="49.41927" lon="2.15629">
        <ele>66</ele>
        <time>2023-05-24T22:26:13Z</time>
      </trkpt>
      <trkpt lat="49.41907" lon="2.1572">
        <ele>68</ele>
        <time>2023-05-24T22:26:24Z</time>
      </trkpt>
      <trkpt lat="49.41894" lon="2.15771">
        <ele>69</ele>
        <time>2023-05-24T22:26:30Z</time>
      </trkpt>
      <trkpt lat="49.41862" lon="2.15872">
        <ele>69</ele>
        <time>2023-05-24T22:26:43Z</time>
      </trkpt>
      <trkpt lat="49.41838" lon="2.16184">
        <ele>69</ele>
        <time>2023-05-24T22:27:20Z</time>
      </trkpt>
      <trkpt lat="49.41844" lon="2.16187">
        <ele>69</ele>
        <time>2023-05-24T22:27:21Z</time>
      </trkpt>
      <trkpt lat="49.41844" lon="2.16199">
        <ele>69</ele>
        <time>2023-05-24T22:27:22Z</time>
      </trkpt>
      <trkpt lat="49.41852" lon="2.16217">
        <ele>69</ele>
        <time>2023-05-24T22:27:25Z</time>
      </trkpt>
      <trkpt lat="49.4186" lon="2.16228">
        <ele>68</ele>
        <time>2023-05-24T22:27:27Z</time>
      </trkpt>
      <trkpt lat="49.41866" lon="2.16231">
        <ele>69</ele>
        <time>2023-05-24T22:27:28Z</time>
      </trkpt>
      <trkpt lat="49.41864" lon="2.1625">
        <ele>68</ele>
        <time>2023-05-24T22:27:30Z</time>
      </trkpt>
      <trkpt lat="49.41977" lon="2.16283">
        <ele>70</ele>
        <time>2023-05-24T22:27:50Z</time>
      </trkpt>
      <trkpt lat="49.41988" lon="2.16291">
        <ele>70</ele>
        <time>2023-05-24T22:27:53Z</time>
      </trkpt>
      <trkpt lat="49.41994" lon="2.1631">
        <ele>71</ele>
        <time>2023-05-24T22:27:55Z</time>
      </trkpt>
      <trkpt lat="49.41992" lon="2.16329">
        <ele>71</ele>
        <time>2023-05-24T22:27:57Z</time>
      </trkpt>
      <trkpt lat="49.41967" lon="2.16386">
        <ele>71</ele>
        <time>2023-05-24T22:28:05Z</time>
      </trkpt>
      <trkpt lat="49.41909" lon="2.16529">
        <ele>69</ele>
        <time>2023-05-24T22:28:25Z</time>
      </trkpt>
      <trkpt lat="49.41886" lon="2.16596">
        <ele>68</ele>
        <time>2023-05-24T22:28:33Z</time>
      </trkpt>
      <trkpt lat="49.41858" lon="2.16701">
        <ele>69</ele>
        <time>2023-05-24T22:28:47Z</time>
      </trkpt>
      <trkpt lat="49.41812" lon="2.16919">
        <ele>72</ele>
        <time>2023-05-24T22:29:13Z</time>
      </trkpt>
      <trkpt lat="49.41759" lon="2.1718">
        <ele>74</ele>
        <time>2023-05-24T22:29:45Z</time>
      </trkpt>
      <trkpt lat="49.41748" lon="2.17275">
        <ele>73</ele>
        <time>2023-05-24T22:29:56Z</time>
      </trkpt>
      <trkpt lat="49.41737" lon="2.17457">
        <ele>70</ele>
        <time>2023-05-24T22:30:17Z</time>
      </trkpt>
      <trkpt lat="49.41578" lon="2.19674">
        <ele>63</ele>
        <time>2023-05-24T22:34:35Z</time>
      </trkpt>
      <trkpt lat="49.41573" lon="2.19686">
        <ele>63</ele>
        <time>2023-05-24T22:34:37Z</time>
      </trkpt>
      <trkpt lat="49.41554" lon="2.19725">
        <ele>63</ele>
        <time>2023-05-24T22:34:43Z</time>
      </trkpt>
      <trkpt lat="49.41553" lon="2.1974">
        <ele>63</ele>
        <time>2023-05-24T22:34:44Z</time>
      </trkpt>
      <trkpt lat="49.41556" lon="2.19754">
        <ele>64</ele>
        <time>2023-05-24T22:34:46Z</time>
      </trkpt>
      <trkpt lat="49.4157" lon="2.19754">
        <ele>64</ele>
        <time>2023-05-24T22:34:48Z</time>
      </trkpt>
      <trkpt lat="49.41569" lon="2.19774">
        <ele>65</ele>
        <time>2023-05-24T22:34:51Z</time>
      </trkpt>
      <trkpt lat="49.41377" lon="2.21522">
        <ele>65</ele>
        <time>2023-05-24T22:38:16Z</time>
      </trkpt>
      <trkpt lat="49.41373" lon="2.2156">
        <ele>65</ele>
        <time>2023-05-24T22:38:20Z</time>
      </trkpt>
      <trkpt lat="49.41378" lon="2.21565">
        <ele>65</ele>
        <time>2023-05-24T22:38:22Z</time>
      </trkpt>
      <trkpt lat="49.41369" lon="2.21617">
        <ele>65</ele>
        <time>2023-05-24T22:38:28Z</time>
      </trkpt>
      <trkpt lat="49.41363" lon="2.21635">
        <ele>64</ele>
        <time>2023-05-24T22:38:30Z</time>
      </trkpt>
      <trkpt lat="49.4135" lon="2.21663">
        <ele>64</ele>
        <time>2023-05-24T22:38:34Z</time>
      </trkpt>
      <trkpt lat="49.41338" lon="2.21677">
        <ele>64</ele>
        <time>2023-05-24T22:38:37Z</time>
      </trkpt>
      <trkpt lat="49.41307" lon="2.21704">
        <ele>64</ele>
        <time>2023-05-24T22:38:43Z</time>
      </trkpt>
      <trkpt lat="49.41269" lon="2.2173">
        <ele>65</ele>
        <time>2023-05-24T22:38:50Z</time>
      </trkpt>
      <trkpt lat="49.41245" lon="2.21747">
        <ele>67</ele>
        <time>2023-05-24T22:38:55Z</time>
      </trkpt>
      <trkpt lat="49.41237" lon="2.21755">
        <ele>68</ele>
        <time>2023-05-24T22:38:57Z</time>
      </trkpt>
      <trkpt lat="49.4123" lon="2.21752">
        <ele>69</ele>
        <time>2023-05-24T22:38:58Z</time>
      </trkpt>
      <trkpt lat="49.41212" lon="2.2178">
        <ele>71</ele>
        <time>2023-05-24T22:39:03Z</time>
      </trkpt>
      <trkpt lat="49.41202" lon="2.21807">
        <ele>73</ele>
        <time>2023-05-24T22:39:06Z</time>
      </trkpt>
      <trkpt lat="49.41194" lon="2.21847">
        <ele>74</ele>
        <time>2023-05-24T22:39:11Z</time>
      </trkpt>
      <trkpt lat="49.41193" lon="2.21881">
        <ele>74</ele>
        <time>2023-05-24T22:39:15Z</time>
      </trkpt>
      <trkpt lat="49.41196" lon="2.21914">
        <ele>73</ele>
        <time>2023-05-24T22:39:19Z</time>
      </trkpt>
      <trkpt lat="49.41227" lon="2.2202">
        <ele>65</ele>
        <time>2023-05-24T22:39:32Z</time>
      </trkpt>
      <trkpt lat="49.41271" lon="2.22154">
        <ele>62</ele>
        <time>2023-05-24T22:39:50Z</time>
      </trkpt>
      <trkpt lat="49.41286" lon="2.2222">
        <ele>62</ele>
        <time>2023-05-24T22:39:58Z</time>
      </trkpt>
      <trkpt lat="49.4129" lon="2.22274">
        <ele>62</ele>
        <time>2023-05-24T22:40:04Z</time>
      </trkpt>
      <trkpt lat="49.41289" lon="2.22324">
        <ele>62</ele>
        <time>2023-05-24T22:40:10Z</time>
      </trkpt>
      <trkpt lat="49.4127" lon="2.22507">
        <ele>60</ele>
        <time>2023-05-24T22:40:31Z</time>
      </trkpt>
      <trkpt lat="49.41265" lon="2.22529">
        <ele>60</ele>
        <time>2023-05-24T22:40:34Z</time>
      </trkpt>
      <trkpt lat="49.4126" lon="2.22541">
        <ele>60</ele>
        <time>2023-05-24T22:40:36Z</time>
      </trkpt>
      <trkpt lat="49.41233" lon="2.22562">
        <ele>60</ele>
        <time>2023-05-24T22:40:41Z</time>
      </trkpt>
      <trkpt lat="49.41229" lon="2.22569">
        <ele>60</ele>
        <time>2023-05-24T22:40:42Z</time>
      </trkpt>
      <trkpt lat="49.41228" lon="2.22604">
        <ele>60</ele>
        <time>2023-05-24T22:40:46Z</time>
      </trkpt>
      <trkpt lat="49.41232" lon="2.22615">
        <ele>60</ele>
        <time>2023-05-24T22:40:48Z</time>
      </trkpt>
      <trkpt lat="49.41252" lon="2.22649">
        <ele>60</ele>
        <time>2023-05-24T22:40:53Z</time>
      </trkpt>
      <trkpt lat="49.41249" lon="2.22708">
        <ele>61</ele>
        <time>2023-05-24T22:41:00Z</time>
      </trkpt>
      <trkpt lat="49.41223" lon="2.22912">
        <ele>62</ele>
        <time>2023-05-24T22:41:24Z</time>
      </trkpt>
      <trkpt lat="49.41224" lon="2.22926">
        <ele>62</ele>
        <time>2023-05-24T22:41:26Z</time>
      </trkpt>
      <trkpt lat="49.41228" lon="2.22939">
        <ele>62</ele>
        <time>2023-05-24T22:41:27Z</time>
      </trkpt>
      <trkpt lat="49.41233" lon="2.22941">
        <ele>62</ele>
        <time>2023-05-24T22:41:28Z</time>
      </trkpt>
      <trkpt lat="49.41229" lon="2.22959">
        <ele>62</ele>
        <time>2023-05-24T22:41:30Z</time>
      </trkpt>
      <trkpt lat="49.41225" lon="2.22969">
        <ele>62</ele>
        <time>2023-05-24T22:41:32Z</time>
      </trkpt>
      <trkpt lat="49.41228" lon="2.22992">
        <ele>62</ele>
        <time>2023-05-24T22:41:34Z</time>
      </trkpt>
      <trkpt lat="49.41221" lon="2.23022">
        <ele>62</ele>
        <time>2023-05-24T22:41:38Z</time>
      </trkpt>
      <trkpt lat="49.41199" lon="2.23219">
        <ele>61</ele>
        <time>2023-05-24T22:42:01Z</time>
      </trkpt>
      <trkpt lat="49.41051" lon="2.24562">
        <ele>61</ele>
        <time>2023-05-24T22:44:39Z</time>
      </trkpt>
      <trkpt lat="49.41051" lon="2.24602">
        <ele>61</ele>
        <time>2023-05-24T22:44:44Z</time>
      </trkpt>
      <trkpt lat="49.41091" lon="2.24892">
        <ele>62</ele>
        <time>2023-05-24T22:45:18Z</time>
      </trkpt>
      <trkpt lat="49.41136" lon="2.25113">
        <ele>61</ele>
        <time>2023-05-24T22:45:45Z</time>
      </trkpt>
      <trkpt lat="49.41163" lon="2.25261">
        <ele>63</ele>
        <time>2023-05-24T22:46:03Z</time>
      </trkpt>
      <trkpt lat="49.41081" lon="2.25312">
        <ele>64</ele>
        <time>2023-05-24T22:46:18Z</time>
      </trkpt>
      <trkpt lat="49.4103" lon="2.25348">
        <ele>65</ele>
        <time>2023-05-24T22:46:28Z</time>
      </trkpt>
      <trkpt lat="49.41021" lon="2.25359">
        <ele>65</ele>
        <time>2023-05-24T22:46:30Z</time>
      </trkpt>
      <trkpt lat="49.41015" lon="2.25371">
        <ele>64</ele>
        <time>2023-05-24T22:46:32Z</time>
      </trkpt>
      <trkpt lat="49.41012" lon="2.25381">
        <ele>64</ele>
        <time>2023-05-24T22:46:33Z</time>
      </trkpt>
      <trkpt lat="49.41112" lon="2.25684">
        <ele>61</ele>
        <time>2023-05-24T22:47:13Z</time>
      </trkpt>
      <trkpt lat="49.41168" lon="2.25841">
        <ele>60</ele>
        <time>2023-05-24T22:47:33Z</time>
      </trkpt>
      <trkpt lat="49.4119" lon="2.25915">
        <ele>57</ele>
        <time>2023-05-24T22:47:43Z</time>
      </trkpt>
      <trkpt lat="49.41197" lon="2.25964">
        <ele>56</ele>
        <time>2023-05-24T22:47:49Z</time>
      </trkpt>
      <trkpt lat="49.41198" lon="2.26023">
        <ele>57</ele>
        <time>2023-05-24T22:47:55Z</time>
      </trkpt>
      <trkpt lat="49.41171" lon="2.2674">
        <ele>57</ele>
        <time>2023-05-24T22:49:19Z</time>
      </trkpt>
      <trkpt lat="49.41167" lon="2.26878">
        <ele>62</ele>
        <time>2023-05-24T22:49:35Z</time>
      </trkpt>
      <trkpt lat="49.41123" lon="2.27925">
        <ele>62</ele>
        <time>2023-05-24T22:51:36Z</time>
      </trkpt>
      <trkpt lat="49.4109" lon="2.28616">
        <ele>62</ele>
        <time>2023-05-24T22:52:56Z</time>
      </trkpt>
      <trkpt lat="49.41074" lon="2.28993">
        <ele>62</ele>
        <time>2023-05-24T22:53:40Z</time>
      </trkpt>
      <trkpt lat="49.41021" lon="2.30234">
        <ele>64</ele>
        <time>2023-05-24T22:56:04Z</time>
      </trkpt>
      <trkpt lat="49.41016" lon="2.30304">
        <ele>64</ele>
        <time>2023-05-24T22:56:12Z</time>
      </trkpt>
      <trkpt lat="49.40917" lon="2.30776">
        <ele>62</ele>
        <time>2023-05-24T22:57:10Z</time>
      </trkpt>
      <trkpt lat="49.40766" lon="2.31515">
        <ele>64</ele>
        <time>2023-05-24T22:58:39Z</time>
      </trkpt>
      <trkpt lat="49.40706" lon="2.31792">
        <ele>62</ele>
        <time>2023-05-24T22:59:13Z</time>
      </trkpt>
      <trkpt lat="49.40699" lon="2.31816">
        <ele>62</ele>
        <time>2023-05-24T22:59:16Z</time>
      </trkpt>
      <trkpt lat="49.4062" lon="2.31983">
        <ele>61</ele>
        <time>2023-05-24T22:59:40Z</time>
      </trkpt>
      <trkpt lat="49.406" lon="2.32023">
        <ele>61</ele>
        <time>2023-05-24T22:59:46Z</time>
      </trkpt>
      <trkpt lat="49.40591" lon="2.32037">
        <ele>61</ele>
        <time>2023-05-24T22:59:48Z</time>
      </trkpt>
      <trkpt lat="49.40574" lon="2.32054">
        <ele>61</ele>
        <time>2023-05-24T22:59:52Z</time>
      </trkpt>
      <trkpt lat="49.40515" lon="2.32111">
        <ele>61</ele>
        <time>2023-05-24T23:00:04Z</time>
      </trkpt>
      <trkpt lat="49.40486" lon="2.32152">
        <ele>61</ele>
        <time>2023-05-24T23:00:11Z</time>
      </trkpt>
      <trkpt lat="49.40466" lon="2.32187">
        <ele>62</ele>
        <time>2023-05-24T23:00:16Z</time>
      </trkpt>
      <trkpt lat="49.4045" lon="2.32224">
        <ele>62</ele>
        <time>2023-05-24T23:00:22Z</time>
      </trkpt>
      <trkpt lat="49.40408" lon="2.32301">
        <ele>62</ele>
        <time>2023-05-24T23:00:33Z</time>
      </trkpt>
      <trkpt lat="49.40386" lon="2.32353">
        <ele>62</ele>
        <time>2023-05-24T23:00:40Z</time>
      </trkpt>
      <trkpt lat="49.4037" lon="2.32394">
        <ele>63</ele>
        <time>2023-05-24T23:00:46Z</time>
      </trkpt>
      <trkpt lat="49.40339" lon="2.325">
        <ele>64</ele>
        <time>2023-05-24T23:00:59Z</time>
      </trkpt>
      <trkpt lat="49.40263" lon="2.32457">
        <ele>64</ele>
        <time>2023-05-24T23:01:14Z</time>
      </trkpt>
      <trkpt lat="49.40242" lon="2.32439">
        <ele>65</ele>
        <time>2023-05-24T23:01:18Z</time>
      </trkpt>
      <trkpt lat="49.40231" lon="2.32425">
        <ele>66</ele>
        <time>2023-05-24T23:01:21Z</time>
      </trkpt>
      <trkpt lat="49.40226" lon="2.32415">
        <ele>66</ele>
        <time>2023-05-24T23:01:22Z</time>
      </trkpt>
      <trkpt lat="49.40223" lon="2.32395">
        <ele>67</ele>
        <time>2023-05-24T23:01:24Z</time>
      </trkpt>
      <trkpt lat="49.40221" lon="2.32376">
        <ele>69</ele>
        <time>2023-05-24T23:01:27Z</time>
      </trkpt>
      <trkpt lat="49.40221" lon="2.32326">
        <ele>72</ele>
        <time>2023-05-24T23:01:33Z</time>
      </trkpt>
      <trkpt lat="49.40219" lon="2.32298">
        <ele>73</ele>
        <time>2023-05-24T23:01:36Z</time>
      </trkpt>
      <trkpt lat="49.40213" lon="2.32265">
        <ele>76</ele>
        <time>2023-05-24T23:01:40Z</time>
      </trkpt>
      <trkpt lat="49.40205" lon="2.32246">
        <ele>79</ele>
        <time>2023-05-24T23:01:42Z</time>
      </trkpt>
      <trkpt lat="49.40185" lon="2.32205">
        <ele>85</ele>
        <time>2023-05-24T23:01:48Z</time>
      </trkpt>
      <trkpt lat="49.4018" lon="2.32198">
        <ele>86</ele>
        <time>2023-05-24T23:01:49Z</time>
      </trkpt>
      <trkpt lat="49.40134" lon="2.32182">
        <ele>89</ele>
        <time>2023-05-24T23:01:58Z</time>
      </trkpt>
      <trkpt lat="49.39985" lon="2.32169">
        <ele>99</ele>
        <time>2023-05-24T23:02:24Z</time>
      </trkpt>
      <trkpt lat="49.39862" lon="2.32187">
        <ele>105</ele>
        <time>2023-05-24T23:02:46Z</time>
      </trkpt>
      <trkpt lat="49.39804" lon="2.32151">
        <ele>108</ele>
        <time>2023-05-24T23:02:58Z</time>
      </trkpt>
      <trkpt lat="49.39731" lon="2.32096">
        <ele>111</ele>
        <time>2023-05-24T23:03:12Z</time>
      </trkpt>
      <trkpt lat="49.39551" lon="2.31987">
        <ele>114</ele>
        <time>2023-05-24T23:03:46Z</time>
      </trkpt>
      <trkpt lat="49.39438" lon="2.31923">
        <ele>111</ele>
        <time>2023-05-24T23:04:08Z</time>
      </trkpt>
      <trkpt lat="49.39396" lon="2.31924">
        <ele>110</ele>
        <time>2023-05-24T23:04:15Z</time>
      </trkpt>
      <trkpt lat="49.39354" lon="2.31946">
        <ele>109</ele>
        <time>2023-05-24T23:04:23Z</time>
      </trkpt>
      <trkpt lat="49.39328" lon="2.31994">
        <ele>111</ele>
        <time>2023-05-24T23:04:30Z</time>
      </trkpt>
      <trkpt lat="49.39281" lon="2.32093">
        <ele>118</ele>
        <time>2023-05-24T23:04:45Z</time>
      </trkpt>
      <trkpt lat="49.39249" lon="2.32137">
        <ele>118</ele>
        <time>2023-05-24T23:04:52Z</time>
      </trkpt>
      <trkpt lat="49.3913" lon="2.3219">
        <ele>114</ele>
        <time>2023-05-24T23:05:14Z</time>
      </trkpt>
      <trkpt lat="49.3909" lon="2.32206">
        <ele>113</ele>
        <time>2023-05-24T23:05:22Z</time>
      </trkpt>
      <trkpt lat="49.39052" lon="2.3221">
        <ele>113</ele>
        <time>2023-05-24T23:05:28Z</time>
      </trkpt>
      <trkpt lat="49.39025" lon="2.32199">
        <ele>113</ele>
        <time>2023-05-24T23:05:33Z</time>
      </trkpt>
      <trkpt lat="49.38996" lon="2.32177">
        <ele>113</ele>
        <time>2023-05-24T23:05:39Z</time>
      </trkpt>
      <trkpt lat="49.38868" lon="2.32061">
        <ele>124</ele>
        <time>2023-05-24T23:06:06Z</time>
      </trkpt>
      <trkpt lat="49.38799" lon="2.32065">
        <ele>128</ele>
        <time>2023-05-24T23:06:18Z</time>
      </trkpt>
      <trkpt lat="49.3876" lon="2.32113">
        <ele>135</ele>
        <time>2023-05-24T23:06:27Z</time>
      </trkpt>
      <trkpt lat="49.38746" lon="2.32121">
        <ele>138</ele>
        <time>2023-05-24T23:06:29Z</time>
      </trkpt>
      <trkpt lat="49.38723" lon="2.32105">
        <ele>139</ele>
        <time>2023-05-24T23:06:34Z</time>
      </trkpt>
      <trkpt lat="49.38671" lon="2.32023">
        <ele>144</ele>
        <time>2023-05-24T23:06:47Z</time>
      </trkpt>
      <trkpt lat="49.38658" lon="2.32017">
        <ele>146</ele>
        <time>2023-05-24T23:06:50Z</time>
      </trkpt>
      <trkpt lat="49.38653" lon="2.32029">
        <ele>147</ele>
        <time>2023-05-24T23:06:51Z</time>
      </trkpt>
      <trkpt lat="49.38657" lon="2.3206">
        <ele>146</ele>
        <time>2023-05-24T23:06:55Z</time>
      </trkpt>
      <trkpt lat="49.38698" lon="2.32135">
        <ele>144</ele>
        <time>2023-05-24T23:07:06Z</time>
      </trkpt>
      <trkpt lat="49.38709" lon="2.32198">
        <ele>148</ele>
        <time>2023-05-24T23:07:14Z</time>
      </trkpt>
      <trkpt lat="49.3871" lon="2.32218">
        <ele>150</ele>
        <time>2023-05-24T23:07:16Z</time>
      </trkpt>
      <trkpt lat="49.38709" lon="2.32235">
        <ele>152</ele>
        <time>2023-05-24T23:07:18Z</time>
      </trkpt>
      <trkpt lat="49.38705" lon="2.32245">
        <ele>153</ele>
        <time>2023-05-24T23:07:20Z</time>
      </trkpt>
      <trkpt lat="49.38697" lon="2.3225">
        <ele>154</ele>
        <time>2023-05-24T23:07:21Z</time>
      </trkpt>
      <trkpt lat="49.3869" lon="2.3225">
        <ele>154</ele>
        <time>2023-05-24T23:07:22Z</time>
      </trkpt>
      <trkpt lat="49.38683" lon="2.32245">
        <ele>154</ele>
        <time>2023-05-24T23:07:24Z</time>
      </trkpt>
      <trkpt lat="49.38617" lon="2.32142">
        <ele>154</ele>
        <time>2023-05-24T23:07:40Z</time>
      </trkpt>
      <trkpt lat="49.3861" lon="2.32134">
        <ele>155</ele>
        <time>2023-05-24T23:07:42Z</time>
      </trkpt>
      <trkpt lat="49.38595" lon="2.32122">
        <ele>157</ele>
        <time>2023-05-24T23:07:45Z</time>
      </trkpt>
      <trkpt lat="49.38582" lon="2.32119">
        <ele>158</ele>
        <time>2023-05-24T23:07:47Z</time>
      </trkpt>
      <trkpt lat="49.37748" lon="2.32325">
        <ele>152</ele>
        <time>2023-05-24T23:10:18Z</time>
      </trkpt>
      <trkpt lat="49.37325" lon="2.32423">
        <ele>155</ele>
        <time>2023-05-24T23:11:34Z</time>
      </trkpt>
      <trkpt lat="49.37308" lon="2.32432">
        <ele>155</ele>
        <time>2023-05-24T23:11:37Z</time>
      </trkpt>
      <trkpt lat="49.37265" lon="2.32445">
        <ele>155</ele>
        <time>2023-05-24T23:11:45Z</time>
      </trkpt>
      <trkpt lat="49.37243" lon="2.3246">
        <ele>155</ele>
        <time>2023-05-24T23:11:49Z</time>
      </trkpt>
      <trkpt lat="49.37175" lon="2.32525">
        <ele>153</ele>
        <time>2023-05-24T23:12:03Z</time>
      </trkpt>
      <trkpt lat="49.3702" lon="2.32608">
        <ele>144</ele>
        <time>2023-05-24T23:12:32Z</time>
      </trkpt>
      <trkpt lat="49.36994" lon="2.32629">
        <ele>142</ele>
        <time>2023-05-24T23:12:38Z</time>
      </trkpt>
      <trkpt lat="49.36973" lon="2.32656">
        <ele>140</ele>
        <time>2023-05-24T23:12:43Z</time>
      </trkpt>
      <trkpt lat="49.36962" lon="2.32676">
        <ele>139</ele>
        <time>2023-05-24T23:12:46Z</time>
      </trkpt>
      <trkpt lat="49.36956" lon="2.32682">
        <ele>138</ele>
        <time>2023-05-24T23:12:47Z</time>
      </trkpt>
      <trkpt lat="49.36944" lon="2.32686">
        <ele>137</ele>
        <time>2023-05-24T23:12:49Z</time>
      </trkpt>
      <trkpt lat="49.36928" lon="2.32687">
        <ele>135</ele>
        <time>2023-05-24T23:12:52Z</time>
      </trkpt>
      <trkpt lat="49.36913" lon="2.32676">
        <ele>135</ele>
        <time>2023-05-24T23:12:55Z</time>
      </trkpt>
      <trkpt lat="49.36723" lon="2.32406">
        <ele>118</ele>
        <time>2023-05-24T23:13:41Z</time>
      </trkpt>
      <trkpt lat="49.36661" lon="2.32368">
        <ele>114</ele>
        <time>2023-05-24T23:13:53Z</time>
      </trkpt>
      <trkpt lat="49.36471" lon="2.32343">
        <ele>107</ele>
        <time>2023-05-24T23:14:27Z</time>
      </trkpt>
      <trkpt lat="49.36428" lon="2.32323">
        <ele>104</ele>
        <time>2023-05-24T23:14:35Z</time>
      </trkpt>
      <trkpt lat="49.36394" lon="2.32291">
        <ele>101</ele>
        <time>2023-05-24T23:14:42Z</time>
      </trkpt>
      <trkpt lat="49.36362" lon="2.32247">
        <ele>95</ele>
        <time>2023-05-24T23:14:49Z</time>
      </trkpt>
      <trkpt lat="49.36332" lon="2.32198">
        <ele>90</ele>
        <time>2023-05-24T23:14:57Z</time>
      </trkpt>
      <trkpt lat="49.36224" lon="2.32009">
        <ele>91</ele>
        <time>2023-05-24T23:15:26Z</time>
      </trkpt>
      <trkpt lat="49.36118" lon="2.31813">
        <ele>93</ele>
        <time>2023-05-24T23:15:56Z</time>
      </trkpt>
      <trkpt lat="49.36072" lon="2.31751">
        <ele>93</ele>
        <time>2023-05-24T23:16:07Z</time>
      </trkpt>
      <trkpt lat="49.36033" lon="2.31711">
        <ele>90</ele>
        <time>2023-05-24T23:16:15Z</time>
      </trkpt>
      <trkpt lat="49.35894" lon="2.31598">
        <ele>81</ele>
        <time>2023-05-24T23:16:43Z</time>
      </trkpt>
      <trkpt lat="49.35801" lon="2.3157">
        <ele>80</ele>
        <time>2023-05-24T23:17:00Z</time>
      </trkpt>
      <trkpt lat="49.35782" lon="2.31567">
        <ele>80</ele>
        <time>2023-05-24T23:17:03Z</time>
      </trkpt>
      <trkpt lat="49.35719" lon="2.31588">
        <ele>78</ele>
        <time>2023-05-24T23:17:15Z</time>
      </trkpt>
      <trkpt lat="49.35657" lon="2.3158">
        <ele>75</ele>
        <time>2023-05-24T23:17:26Z</time>
      </trkpt>
      <trkpt lat="49.35578" lon="2.31551">
        <ele>68</ele>
        <time>2023-05-24T23:17:40Z</time>
      </trkpt>
      <trkpt lat="49.35569" lon="2.3155">
        <ele>68</ele>
        <time>2023-05-24T23:17:42Z</time>
      </trkpt>
      <trkpt lat="49.35561" lon="2.31554">
        <ele>67</ele>
        <time>2023-05-24T23:17:44Z</time>
      </trkpt>
      <trkpt lat="49.3556" lon="2.31549">
        <ele>67</ele>
        <time>2023-05-24T23:17:44Z</time>
      </trkpt>
      <trkpt lat="49.35557" lon="2.31546">
        <ele>67</ele>
        <time>2023-05-24T23:17:45Z</time>
      </trkpt>
      <trkpt lat="49.35552" lon="2.31547">
        <ele>66</ele>
        <time>2023-05-24T23:17:46Z</time>
      </trkpt>
      <trkpt lat="49.3555" lon="2.31554">
        <ele>66</ele>
        <time>2023-05-24T23:17:47Z</time>
      </trkpt>
      <trkpt lat="49.35553" lon="2.31561">
        <ele>67</ele>
        <time>2023-05-24T23:17:48Z</time>
      </trkpt>
      <trkpt lat="49.35532" lon="2.3163">
        <ele>65</ele>
        <time>2023-05-24T23:17:56Z</time>
      </trkpt>
      <trkpt lat="49.35502" lon="2.31732">
        <ele>65</ele>
        <time>2023-05-24T23:18:09Z</time>
      </trkpt>
      <trkpt lat="49.35461" lon="2.32007">
        <ele>66</ele>
        <time>2023-05-24T23:18:42Z</time>
      </trkpt>
      <trkpt lat="49.35461" lon="2.32042">
        <ele>66</ele>
        <time>2023-05-24T23:18:46Z</time>
      </trkpt>
      <trkpt lat="49.35463" lon="2.32087">
        <ele>67</ele>
        <time>2023-05-24T23:18:51Z</time>
      </trkpt>
      <trkpt lat="49.35472" lon="2.32143">
        <ele>66</ele>
        <time>2023-05-24T23:18:58Z</time>
      </trkpt>
      <trkpt lat="49.35479" lon="2.32168">
        <ele>66</ele>
        <time>2023-05-24T23:19:01Z</time>
      </trkpt>
      <trkpt lat="49.35494" lon="2.32206">
        <ele>66</ele>
        <time>2023-05-24T23:19:06Z</time>
      </trkpt>
      <trkpt lat="49.35547" lon="2.32287">
        <ele>68</ele>
        <time>2023-05-24T23:19:20Z</time>
      </trkpt>
      <trkpt lat="49.35572" lon="2.32338">
        <ele>69</ele>
        <time>2023-05-24T23:19:27Z</time>
      </trkpt>
      <trkpt lat="49.35597" lon="2.32395">
        <ele>70</ele>
        <time>2023-05-24T23:19:35Z</time>
      </trkpt>
      <trkpt lat="49.35623" lon="2.32496">
        <ele>72</ele>
        <time>2023-05-24T23:19:48Z</time>
      </trkpt>
      <trkpt lat="49.35631" lon="2.32517">
        <ele>73</ele>
        <time>2023-05-24T23:19:50Z</time>
      </trkpt>
      <trkpt lat="49.35647" lon="2.32528">
        <ele>74</ele>
        <time>2023-05-24T23:19:53Z</time>
      </trkpt>
      <trkpt lat="49.35673" lon="2.32537">
        <ele>75</ele>
        <time>2023-05-24T23:19:58Z</time>
      </trkpt>
      <trkpt lat="49.35709" lon="2.32577">
        <ele>78</ele>
        <time>2023-05-24T23:20:06Z</time>
      </trkpt>
      <trkpt lat="49.35722" lon="2.32601">
        <ele>79</ele>
        <time>2023-05-24T23:20:10Z</time>
      </trkpt>
      <trkpt lat="49.3575" lon="2.32755">
        <ele>80</ele>
        <time>2023-05-24T23:20:28Z</time>
      </trkpt>
      <trkpt lat="49.35759" lon="2.32915">
        <ele>79</ele>
        <time>2023-05-24T23:20:47Z</time>
      </trkpt>
      <trkpt lat="49.35779" lon="2.33005">
        <ele>78</ele>
        <time>2023-05-24T23:20:58Z</time>
      </trkpt>
      <trkpt lat="49.35784" lon="2.33056">
        <ele>78</ele>
        <time>2023-05-24T23:21:04Z</time>
      </trkpt>
      <trkpt lat="49.35805" lon="2.33155">
        <ele>78</ele>
        <time>2023-05-24T23:21:16Z</time>
      </trkpt>
      <trkpt lat="49.35818" lon="2.33233">
        <ele>79</ele>
        <time>2023-05-24T23:21:25Z</time>
      </trkpt>
      <trkpt lat="49.35837" lon="2.33306">
        <ele>80</ele>
        <time>2023-05-24T23:21:34Z</time>
      </trkpt>
      <trkpt lat="49.35836" lon="2.3332">
        <ele>80</ele>
        <time>2023-05-24T23:21:36Z</time>
      </trkpt>
      <trkpt lat="49.35817" lon="2.33385">
        <ele>81</ele>
        <time>2023-05-24T23:21:44Z</time>
      </trkpt>
      <trkpt lat="49.35754" lon="2.33501">
        <ele>81</ele>
        <time>2023-05-24T23:22:02Z</time>
      </trkpt>
      <trkpt lat="49.35735" lon="2.33559">
        <ele>83</ele>
        <time>2023-05-24T23:22:09Z</time>
      </trkpt>
      <trkpt lat="49.35723" lon="2.33619">
        <ele>85</ele>
        <time>2023-05-24T23:22:17Z</time>
      </trkpt>
      <trkpt lat="49.35718" lon="2.33663">
        <ele>86</ele>
        <time>2023-05-24T23:22:22Z</time>
      </trkpt>
      <trkpt lat="49.35725" lon="2.33766">
        <ele>88</ele>
        <time>2023-05-24T23:22:34Z</time>
      </trkpt>
      <trkpt lat="49.35735" lon="2.33832">
        <ele>90</ele>
        <time>2023-05-24T23:22:42Z</time>
      </trkpt>
      <trkpt lat="49.35789" lon="2.33971">
        <ele>100</ele>
        <time>2023-05-24T23:23:00Z</time>
      </trkpt>
      <trkpt lat="49.35823" lon="2.34039">
        <ele>102</ele>
        <time>2023-05-24T23:23:10Z</time>
      </trkpt>
      <trkpt lat="49.35875" lon="2.34121">
        <ele>107</ele>
        <time>2023-05-24T23:23:24Z</time>
      </trkpt>
      <trkpt lat="49.35902" lon="2.34243">
        <ele>107</ele>
        <time>2023-05-24T23:23:38Z</time>
      </trkpt>
      <trkpt lat="49.35923" lon="2.3435">
        <ele>112</ele>
        <time>2023-05-24T23:23:51Z</time>
      </trkpt>
      <trkpt lat="49.35944" lon="2.34385">
        <ele>116</ele>
        <time>2023-05-24T23:23:57Z</time>
      </trkpt>
      <trkpt lat="49.35988" lon="2.34447">
        <ele>121</ele>
        <time>2023-05-24T23:24:08Z</time>
      </trkpt>
      <trkpt lat="49.36038" lon="2.34573">
        <ele>125</ele>
        <time>2023-05-24T23:24:25Z</time>
      </trkpt>
      <trkpt lat="49.36079" lon="2.34658">
        <ele>129</ele>
        <time>2023-05-24T23:24:37Z</time>
      </trkpt>
      <trkpt lat="49.36081" lon="2.34684">
        <ele>132</ele>
        <time>2023-05-24T23:24:40Z</time>
      </trkpt>
      <trkpt lat="49.36071" lon="2.34705">
        <ele>135</ele>
        <time>2023-05-24T23:24:43Z</time>
      </trkpt>
      <trkpt lat="49.36056" lon="2.34711">
        <ele>136</ele>
        <time>2023-05-24T23:24:46Z</time>
      </trkpt>
      <trkpt lat="49.36033" lon="2.34713">
        <ele>137</ele>
        <time>2023-05-24T23:24:50Z</time>
      </trkpt>
      <trkpt lat="49.36014" lon="2.34721">
        <ele>138</ele>
        <time>2023-05-24T23:24:53Z</time>
      </trkpt>
      <trkpt lat="49.35987" lon="2.34742">
        <ele>139</ele>
        <time>2023-05-24T23:24:59Z</time>
      </trkpt>
      <trkpt lat="49.35964" lon="2.34769">
        <ele>140</ele>
        <time>2023-05-24T23:25:04Z</time>
      </trkpt>
      <trkpt lat="49.35945" lon="2.34811">
        <ele>141</ele>
        <time>2023-05-24T23:25:10Z</time>
      </trkpt>
      <trkpt lat="49.35916" lon="2.34914">
        <ele>142</ele>
        <time>2023-05-24T23:25:23Z</time>
      </trkpt>
      <trkpt lat="49.35923" lon="2.35011">
        <ele>140</ele>
        <time>2023-05-24T23:25:34Z</time>
      </trkpt>
      <trkpt lat="49.35983" lon="2.35307">
        <ele>135</ele>
        <time>2023-05-24T23:26:10Z</time>
      </trkpt>
      <trkpt lat="49.36061" lon="2.35591">
        <ele>130</ele>
        <time>2023-05-24T23:26:46Z</time>
      </trkpt>
      <trkpt lat="49.36096" lon="2.35759">
        <ele>130</ele>
        <time>2023-05-24T23:27:06Z</time>
      </trkpt>
      <trkpt lat="49.36127" lon="2.35999">
        <ele>134</ele>
        <time>2023-05-24T23:27:35Z</time>
      </trkpt>
      <trkpt lat="49.36122" lon="2.36025">
        <ele>134</ele>
        <time>2023-05-24T23:27:38Z</time>
      </trkpt>
      <trkpt lat="49.36114" lon="2.36041">
        <ele>134</ele>
        <time>2023-05-24T23:27:40Z</time>
      </trkpt>
      <trkpt lat="49.3617" lon="2.36174">
        <ele>134</ele>
        <time>2023-05-24T23:27:58Z</time>
      </trkpt>
      <trkpt lat="49.36199" lon="2.36259">
        <ele>135</ele>
        <time>2023-05-24T23:28:10Z</time>
      </trkpt>
      <trkpt lat="49.36218" lon="2.36351">
        <ele>135</ele>
        <time>2023-05-24T23:28:21Z</time>
      </trkpt>
      <trkpt lat="49.36227" lon="2.36437">
        <ele>135</ele>
        <time>2023-05-24T23:28:31Z</time>
      </trkpt>
      <trkpt lat="49.36237" lon="2.36608">
        <ele>133</ele>
        <time>2023-05-24T23:28:51Z</time>
      </trkpt>
      <trkpt lat="49.36245" lon="2.36679">
        <ele>133</ele>
        <time>2023-05-24T23:28:59Z</time>
      </trkpt>
      <trkpt lat="49.36258" lon="2.36734">
        <ele>133</ele>
        <time>2023-05-24T23:29:06Z</time>
      </trkpt>
      <trkpt lat="49.3634" lon="2.36961">
        <ele>135</ele>
        <time>2023-05-24T23:29:36Z</time>
      </trkpt>
      <trkpt lat="49.3641" lon="2.37194">
        <ele>136</ele>
        <time>2023-05-24T23:30:06Z</time>
      </trkpt>
      <trkpt lat="49.3656" lon="2.3771">
        <ele>143</ele>
        <time>2023-05-24T23:31:11Z</time>
      </trkpt>
      <trkpt lat="49.36649" lon="2.37957">
        <ele>149</ele>
        <time>2023-05-24T23:31:44Z</time>
      </trkpt>
      <trkpt lat="49.36766" lon="2.38258">
        <ele>152</ele>
        <time>2023-05-24T23:32:24Z</time>
      </trkpt>
      <trkpt lat="49.36882" lon="2.38593">
        <ele>157</ele>
        <time>2023-05-24T23:33:08Z</time>
      </trkpt>
      <trkpt lat="49.36905" lon="2.38656">
        <ele>157</ele>
        <time>2023-05-24T23:33:17Z</time>
      </trkpt>
      <trkpt lat="49.36936" lon="2.38727">
        <ele>157</ele>
        <time>2023-05-24T23:33:27Z</time>
      </trkpt>
      <trkpt lat="49.37" lon="2.38861">
        <ele>159</ele>
        <time>2023-05-24T23:33:46Z</time>
      </trkpt>
      <trkpt lat="49.37019" lon="2.3891">
        <ele>158</ele>
        <time>2023-05-24T23:33:53Z</time>
      </trkpt>
      <trkpt lat="49.37039" lon="2.38975">
        <ele>157</ele>
        <time>2023-05-24T23:34:01Z</time>
      </trkpt>
      <trkpt lat="49.37057" lon="2.39056">
        <ele>156</ele>
        <time>2023-05-24T23:34:11Z</time>
      </trkpt>
      <trkpt lat="49.37065" lon="2.39117">
        <ele>155</ele>
        <time>2023-05-24T23:34:18Z</time>
      </trkpt>
      <trkpt lat="49.3707" lon="2.39173">
        <ele>154</ele>
        <time>2023-05-24T23:34:25Z</time>
      </trkpt>
      <trkpt lat="49.37071" lon="2.39229">
        <ele>153</ele>
        <time>2023-05-24T23:34:31Z</time>
      </trkpt>
      <trkpt lat="49.37069" lon="2.3929">
        <ele>151</ele>
        <time>2023-05-24T23:34:38Z</time>
      </trkpt>
      <trkpt lat="49.37065" lon="2.39342">
        <ele>150</ele>
        <time>2023-05-24T23:34:44Z</time>
      </trkpt>
      <trkpt lat="49.37053" lon="2.39437">
        <ele>147</ele>
        <time>2023-05-24T23:34:55Z</time>
      </trkpt>
      <trkpt lat="49.3705" lon="2.39501">
        <ele>146</ele>
        <time>2023-05-24T23:35:03Z</time>
      </trkpt>
      <trkpt lat="49.37052" lon="2.39542">
        <ele>144</ele>
        <time>2023-05-24T23:35:08Z</time>
      </trkpt>
      <trkpt lat="49.37056" lon="2.39576">
        <ele>143</ele>
        <time>2023-05-24T23:35:12Z</time>
      </trkpt>
      <trkpt lat="49.37064" lon="2.39617">
        <ele>142</ele>
        <time>2023-05-24T23:35:17Z</time>
      </trkpt>
      <trkpt lat="49.37072" lon="2.39647">
        <ele>142</ele>
        <time>2023-05-24T23:35:20Z</time>
      </trkpt>
      <trkpt lat="49.37042" lon="2.39654">
        <ele>145</ele>
        <time>2023-05-24T23:35:26Z</time>
      </trkpt>
      <trkpt lat="49.3701" lon="2.39659">
        <ele>148</ele>
        <time>2023-05-24T23:35:31Z</time>
      </trkpt>
      <trkpt lat="49.36989" lon="2.39654">
        <ele>148</ele>
        <time>2023-05-24T23:35:35Z</time>
      </trkpt>
      <trkpt lat="49.36922" lon="2.39618">
        <ele>148</ele>
        <time>2023-05-24T23:35:48Z</time>
      </trkpt>
      <trkpt lat="49.36856" lon="2.39587">
        <ele>149</ele>
        <time>2023-05-24T23:36:00Z</time>
      </trkpt>
      <trkpt lat="49.36711" lon="2.395">
        <ele>148</ele>
        <time>2023-05-24T23:36:28Z</time>
      </trkpt>
      <trkpt lat="49.36652" lon="2.39448">
        <ele>147</ele>
        <time>2023-05-24T23:36:40Z</time>
      </trkpt>
      <trkpt lat="49.36627" lon="2.3943">
        <ele>146</ele>
        <time>2023-05-24T23:36:45Z</time>
      </trkpt>
      <trkpt lat="49.36602" lon="2.39415">
        <ele>146</ele>
        <time>2023-05-24T23:36:50Z</time>
      </trkpt>
      <trkpt lat="49.36562" lon="2.39396">
        <ele>144</ele>
        <time>2023-05-24T23:36:57Z</time>
      </trkpt>
      <trkpt lat="49.36533" lon="2.39375">
        <ele>143</ele>
        <time>2023-05-24T23:37:03Z</time>
      </trkpt>
      <trkpt lat="49.36473" lon="2.39319">
        <ele>140</ele>
        <time>2023-05-24T23:37:15Z</time>
      </trkpt>
      <trkpt lat="49.36451" lon="2.39302">
        <ele>139</ele>
        <time>2023-05-24T23:37:20Z</time>
      </trkpt>
      <trkpt lat="49.36377" lon="2.39253">
        <ele>141</ele>
        <time>2023-05-24T23:37:34Z</time>
      </trkpt>
      <trkpt lat="49.36363" lon="2.39247">
        <ele>142</ele>
        <time>2023-05-24T23:37:37Z</time>
      </trkpt>
      <trkpt lat="49.36354" lon="2.39246">
        <ele>142</ele>
        <time>2023-05-24T23:37:38Z</time>
      </trkpt>
      <trkpt lat="49.36334" lon="2.39253">
        <ele>143</ele>
        <time>2023-05-24T23:37:42Z</time>
      </trkpt>
      <trkpt lat="49.36193" lon="2.39341">
        <ele>145</ele>
        <time>2023-05-24T23:38:09Z</time>
      </trkpt>
      <trkpt lat="49.36177" lon="2.39346">
        <ele>145</ele>
        <time>2023-05-24T23:38:12Z</time>
      </trkpt>
      <trkpt lat="49.36083" lon="2.3936">
        <ele>146</ele>
        <time>2023-05-24T23:38:29Z</time>
      </trkpt>
      <trkpt lat="49.35974" lon="2.39387">
        <ele>145</ele>
        <time>2023-05-24T23:38:48Z</time>
      </trkpt>
      <trkpt lat="49.35902" lon="2.39402">
        <ele>145</ele>
        <time>2023-05-24T23:39:01Z</time>
      </trkpt>
      <trkpt lat="49.35773" lon="2.39422">
        <ele>144</ele>
        <time>2023-05-24T23:39:24Z</time>
      </trkpt>
      <trkpt lat="49.35701" lon="2.39446">
        <ele>145</ele>
        <time>2023-05-24T23:39:37Z</time>
      </trkpt>
      <trkpt lat="49.35686" lon="2.39448">
        <ele>146</ele>
        <time>2023-05-24T23:39:40Z</time>
      </trkpt>
      <trkpt lat="49.35655" lon="2.39436">
        <ele>146</ele>
        <time>2023-05-24T23:39:46Z</time>
      </trkpt>
      <trkpt lat="49.35601" lon="2.39475">
        <ele>147</ele>
        <time>2023-05-24T23:39:56Z</time>
      </trkpt>
      <trkpt lat="49.3558" lon="2.39478">
        <ele>147</ele>
        <time>2023-05-24T23:40:00Z</time>
      </trkpt>
      <trkpt lat="49.35575" lon="2.39482">
        <ele>147</ele>
        <time>2023-05-24T23:40:01Z</time>
      </trkpt>
      <trkpt lat="49.35568" lon="2.39481">
        <ele>147</ele>
        <time>2023-05-24T23:40:02Z</time>
      </trkpt>
      <trkpt lat="49.35564" lon="2.39485">
        <ele>147</ele>
        <time>2023-05-24T23:40:03Z</time>
      </trkpt>
      <trkpt lat="49.35555" lon="2.39479">
        <ele>147</ele>
        <time>2023-05-24T23:40:05Z</time>
      </trkpt>
      <trkpt lat="49.35533" lon="2.3948">
        <ele>146</ele>
        <time>2023-05-24T23:40:09Z</time>
      </trkpt>
      <trkpt lat="49.35027" lon="2.39524">
        <ele>140</ele>
        <time>2023-05-24T23:41:39Z</time>
      </trkpt>
      <trkpt lat="49.3499" lon="2.39531">
        <ele>140</ele>
        <time>2023-05-24T23:41:46Z</time>
      </trkpt>
      <trkpt lat="49.34958" lon="2.39541">
        <ele>140</ele>
        <time>2023-05-24T23:41:51Z</time>
      </trkpt>
      <trkpt lat="49.34859" lon="2.39588">
        <ele>139</ele>
        <time>2023-05-24T23:42:10Z</time>
      </trkpt>
      <trkpt lat="49.34796" lon="2.39609">
        <ele>137</ele>
        <time>2023-05-24T23:42:21Z</time>
      </trkpt>
      <trkpt lat="49.34697" lon="2.39632">
        <ele>136</ele>
        <time>2023-05-24T23:42:39Z</time>
      </trkpt>
      <trkpt lat="49.34567" lon="2.39645">
        <ele>134</ele>
        <time>2023-05-24T23:43:02Z</time>
      </trkpt>
      <trkpt lat="49.34275" lon="2.39683">
        <ele>122</ele>
        <time>2023-05-24T23:43:55Z</time>
      </trkpt>
      <trkpt lat="49.34236" lon="2.39671">
        <ele>122</ele>
        <time>2023-05-24T23:44:02Z</time>
      </trkpt>
      <trkpt lat="49.34212" lon="2.39659">
        <ele>122</ele>
        <time>2023-05-24T23:44:06Z</time>
      </trkpt>
      <trkpt lat="49.3419" lon="2.39653">
        <ele>123</ele>
        <time>2023-05-24T23:44:10Z</time>
      </trkpt>
      <trkpt lat="49.34175" lon="2.39655">
        <ele>122</ele>
        <time>2023-05-24T23:44:13Z</time>
      </trkpt>
      <trkpt lat="49.34162" lon="2.3966">
        <ele>122</ele>
        <time>2023-05-24T23:44:15Z</time>
      </trkpt>
      <trkpt lat="49.34148" lon="2.3968">
        <ele>123</ele>
        <time>2023-05-24T23:44:19Z</time>
      </trkpt>
      <trkpt lat="49.34175" lon="2.39821">
        <ele>120</ele>
        <time>2023-05-24T23:44:36Z</time>
      </trkpt>
      <trkpt lat="49.34177" lon="2.39889">
        <ele>120</ele>
        <time>2023-05-24T23:44:43Z</time>
      </trkpt>
      <trkpt lat="49.34191" lon="2.39962">
        <ele>119</ele>
        <time>2023-05-24T23:44:52Z</time>
      </trkpt>
      <trkpt lat="49.34199" lon="2.40028">
        <ele>115</ele>
        <time>2023-05-24T23:45:00Z</time>
      </trkpt>
      <trkpt lat="49.34197" lon="2.40047">
        <ele>114</ele>
        <time>2023-05-24T23:45:02Z</time>
      </trkpt>
      <trkpt lat="49.34179" lon="2.40147">
        <ele>110</ele>
        <time>2023-05-24T23:45:14Z</time>
      </trkpt>
      <trkpt lat="49.34169" lon="2.40239">
        <ele>108</ele>
        <time>2023-05-24T23:45:25Z</time>
      </trkpt>
      <trkpt lat="49.34179" lon="2.40344">
        <ele>106</ele>
        <time>2023-05-24T23:45:37Z</time>
      </trkpt>
      <trkpt lat="49.34181" lon="2.40369">
        <ele>106</ele>
        <time>2023-05-24T23:45:40Z</time>
      </trkpt>
      <trkpt lat="49.34185" lon="2.40388">
        <ele>105</ele>
        <time>2023-05-24T23:45:43Z</time>
      </trkpt>
      <trkpt lat="49.34199" lon="2.40404">
        <ele>102</ele>
        <time>2023-05-24T23:45:46Z</time>
      </trkpt>
      <trkpt lat="49.34305" lon="2.40461">
        <ele>81</ele>
        <time>2023-05-24T23:46:06Z</time>
      </trkpt>
      <trkpt lat="49.34327" lon="2.40462">
        <ele>78</ele>
        <time>2023-05-24T23:46:10Z</time>
      </trkpt>
      <trkpt lat="49.34372" lon="2.40469">
        <ele>78</ele>
        <time>2023-05-24T23:46:18Z</time>
      </trkpt>
      <trkpt lat="49.34391" lon="2.40506">
        <ele>77</ele>
        <time>2023-05-24T23:46:23Z</time>
      </trkpt>
      <trkpt lat="49.34412" lon="2.40558">
        <ele>75</ele>
        <time>2023-05-24T23:46:30Z</time>
      </trkpt>
      <trkpt lat="49.34506" lon="2.40758">
        <ele>74</ele>
        <time>2023-05-24T23:46:59Z</time>
      </trkpt>
      <trkpt lat="49.34457" lon="2.40891">
        <ele>72</ele>
        <time>2023-05-24T23:47:17Z</time>
      </trkpt>
      <trkpt lat="49.34456" lon="2.40918">
        <ele>71</ele>
        <time>2023-05-24T23:47:20Z</time>
      </trkpt>
      <trkpt lat="49.34464" lon="2.40966">
        <ele>71</ele>
        <time>2023-05-24T23:47:25Z</time>
      </trkpt>
      <trkpt lat="49.34473" lon="2.41008">
        <ele>71</ele>
        <time>2023-05-24T23:47:31Z</time>
      </trkpt>
      <trkpt lat="49.34477" lon="2.41071">
        <ele>71</ele>
        <time>2023-05-24T23:47:38Z</time>
      </trkpt>
      <trkpt lat="49.34487" lon="2.41131">
        <ele>70</ele>
        <time>2023-05-24T23:47:45Z</time>
      </trkpt>
      <trkpt lat="49.34551" lon="2.4134">
        <ele>68</ele>
        <time>2023-05-24T23:48:12Z</time>
      </trkpt>
      <trkpt lat="49.34562" lon="2.41369">
        <ele>68</ele>
        <time>2023-05-24T23:48:16Z</time>
      </trkpt>
      <trkpt lat="49.34609" lon="2.41459">
        <ele>67</ele>
        <time>2023-05-24T23:48:29Z</time>
      </trkpt>
      <trkpt lat="49.34642" lon="2.41533">
        <ele>67</ele>
        <time>2023-05-24T23:48:40Z</time>
      </trkpt>
      <trkpt lat="49.34664" lon="2.41588">
        <ele>68</ele>
        <time>2023-05-24T23:48:47Z</time>
      </trkpt>
      <trkpt lat="49.34692" lon="2.41682">
        <ele>66</ele>
        <time>2023-05-24T23:48:59Z</time>
      </trkpt>
      <trkpt lat="49.34753" lon="2.41843">
        <ele>66</ele>
        <time>2023-05-24T23:49:21Z</time>
      </trkpt>
      <trkpt lat="49.34777" lon="2.4189">
        <ele>68</ele>
        <time>2023-05-24T23:49:27Z</time>
      </trkpt>
      <trkpt lat="49.34787" lon="2.41905">
        <ele>69</ele>
        <time>2023-05-24T23:49:30Z</time>
      </trkpt>
      <trkpt lat="49.34799" lon="2.41919">
        <ele>69</ele>
        <time>2023-05-24T23:49:33Z</time>
      </trkpt>
      <trkpt lat="49.34887" lon="2.4221">
        <ele>66</ele>
        <time>2023-05-24T23:50:10Z</time>
      </trkpt>
      <trkpt lat="49.34925" lon="2.42363">
        <ele>64</ele>
        <time>2023-05-24T23:50:29Z</time>
      </trkpt>
      <trkpt lat="49.34957" lon="2.42451">
        <ele>66</ele>
        <time>2023-05-24T23:50:41Z</time>
      </trkpt>
      <trkpt lat="49.34973" lon="2.42501">
        <ele>65</ele>
        <time>2023-05-24T23:50:47Z</time>
      </trkpt>
      <trkpt lat="49.34981" lon="2.42536">
        <ele>64</ele>
        <time>2023-05-24T23:50:51Z</time>
      </trkpt>
      <trkpt lat="49.34987" lon="2.42571">
        <ele>62</ele>
        <time>2023-05-24T23:50:55Z</time>
      </trkpt>
      <trkpt lat="49.34995" lon="2.42644">
        <ele>60</ele>
        <time>2023-05-24T23:51:04Z</time>
      </trkpt>
      <trkpt lat="49.34995" lon="2.42663">
        <ele>60</ele>
        <time>2023-05-24T23:51:06Z</time>
      </trkpt>
      <trkpt lat="49.35002" lon="2.42677">
        <ele>60</ele>
        <time>2023-05-24T23:51:08Z</time>
      </trkpt>
      <trkpt lat="49.3501" lon="2.42681">
        <ele>60</ele>
        <time>2023-05-24T23:51:10Z</time>
      </trkpt>
      <trkpt lat="49.35021" lon="2.42694">
        <ele>61</ele>
        <time>2023-05-24T23:51:12Z</time>
      </trkpt>
      <trkpt lat="49.35026" lon="2.42707">
        <ele>61</ele>
        <time>2023-05-24T23:51:14Z</time>
      </trkpt>
      <trkpt lat="49.35034" lon="2.42742">
        <ele>61</ele>
        <time>2023-05-24T23:51:18Z</time>
      </trkpt>
      <trkpt lat="49.35034" lon="2.4278">
        <ele>61</ele>
        <time>2023-05-24T23:51:23Z</time>
      </trkpt>
      <trkpt lat="49.35026" lon="2.42833">
        <ele>61</ele>
        <time>2023-05-24T23:51:29Z</time>
      </trkpt>
      <trkpt lat="49.35013" lon="2.4291">
        <ele>60</ele>
        <time>2023-05-24T23:51:38Z</time>
      </trkpt>
      <trkpt lat="49.35004" lon="2.42948">
        <ele>59</ele>
        <time>2023-05-24T23:51:43Z</time>
      </trkpt>
      <trkpt lat="49.34991" lon="2.42982">
        <ele>58</ele>
        <time>2023-05-24T23:51:47Z</time>
      </trkpt>
      <trkpt lat="49.34975" lon="2.43">
        <ele>58</ele>
        <time>2023-05-24T23:51:51Z</time>
      </trkpt>
      <trkpt lat="49.34964" lon="2.43007">
        <ele>58</ele>
        <time>2023-05-24T23:51:53Z</time>
      </trkpt>
      <trkpt lat="49.34954" lon="2.4301">
        <ele>58</ele>
        <time>2023-05-24T23:51:55Z</time>
      </trkpt>
      <trkpt lat="49.3495" lon="2.43024">
        <ele>58</ele>
        <time>2023-05-24T23:51:57Z</time>
      </trkpt>
      <trkpt lat="49.34944" lon="2.43044">
        <ele>58</ele>
        <time>2023-05-24T23:51:59Z</time>
      </trkpt>
      <trkpt lat="49.34919" lon="2.43092">
        <ele>58</ele>
        <time>2023-05-24T23:52:06Z</time>
      </trkpt>
      <trkpt lat="49.34907" lon="2.43124">
        <ele>56</ele>
        <time>2023-05-24T23:52:11Z</time>
      </trkpt>
      <trkpt lat="49.34902" lon="2.43141">
        <ele>56</ele>
        <time>2023-05-24T23:52:13Z</time>
      </trkpt>
      <trkpt lat="49.34895" lon="2.43182">
        <ele>54</ele>
        <time>2023-05-24T23:52:18Z</time>
      </trkpt>
      <trkpt lat="49.34892" lon="2.43209">
        <ele>53</ele>
        <time>2023-05-24T23:52:21Z</time>
      </trkpt>
      <trkpt lat="49.34892" lon="2.43239">
        <ele>52</ele>
        <time>2023-05-24T23:52:24Z</time>
      </trkpt>
      <trkpt lat="49.34898" lon="2.43459">
        <ele>49</ele>
        <time>2023-05-24T23:52:50Z</time>
      </trkpt>
      <trkpt lat="49.349" lon="2.43524">
        <ele>48</ele>
        <time>2023-05-24T23:52:57Z</time>
      </trkpt>
      <trkpt lat="49.34903" lon="2.43545">
        <ele>48</ele>
        <time>2023-05-24T23:53:00Z</time>
      </trkpt>
      <trkpt lat="49.34909" lon="2.43571">
        <ele>47</ele>
        <time>2023-05-24T23:53:03Z</time>
      </trkpt>
      <trkpt lat="49.34971" lon="2.43781">
        <ele>46</ele>
        <time>2023-05-24T23:53:30Z</time>
      </trkpt>
      <trkpt lat="49.34975" lon="2.43815">
        <ele>47</ele>
        <time>2023-05-24T23:53:34Z</time>
      </trkpt>
      <trkpt lat="49.34973" lon="2.43902">
        <ele>49</ele>
        <time>2023-05-24T23:53:44Z</time>
      </trkpt>
      <trkpt lat="49.34973" lon="2.44023">
        <ele>48</ele>
        <time>2023-05-24T23:53:58Z</time>
      </trkpt>
      <trkpt lat="49.34973" lon="2.44048">
        <ele>48</ele>
        <time>2023-05-24T23:54:01Z</time>
      </trkpt>
      <trkpt lat="49.34968" lon="2.44171">
        <ele>46</ele>
        <time>2023-05-24T23:54:15Z</time>
      </trkpt>
      <trkpt lat="49.34968" lon="2.44193">
        <ele>46</ele>
        <time>2023-05-24T23:54:18Z</time>
      </trkpt>
      <trkpt lat="49.34975" lon="2.44228">
        <ele>45</ele>
        <time>2023-05-24T23:54:22Z</time>
      </trkpt>
      <trkpt lat="49.34982" lon="2.44251">
        <ele>45</ele>
        <time>2023-05-24T23:54:25Z</time>
      </trkpt>
      <trkpt lat="49.35047" lon="2.4442">
        <ele>46</ele>
        <time>2023-05-24T23:54:48Z</time>
      </trkpt>
      <trkpt lat="49.3506" lon="2.4446">
        <ele>46</ele>
        <time>2023-05-24T23:54:53Z</time>
      </trkpt>
      <trkpt lat="49.3508" lon="2.44551">
        <ele>46</ele>
        <time>2023-05-24T23:55:04Z</time>
      </trkpt>
      <trkpt lat="49.35083" lon="2.44565">
        <ele>46</ele>
        <time>2023-05-24T23:55:06Z</time>
      </trkpt>
      <trkpt lat="49.351" lon="2.44618">
        <ele>47</ele>
        <time>2023-05-24T23:55:13Z</time>
      </trkpt>
      <trkpt lat="49.35119" lon="2.44663">
        <ele>49</ele>
        <time>2023-05-24T23:55:19Z</time>
      </trkpt>
      <trkpt lat="49.35131" lon="2.44708">
        <ele>51</ele>
        <time>2023-05-24T23:55:24Z</time>
      </trkpt>
      <trkpt lat="49.3509" lon="2.44723">
        <ele>52</ele>
        <time>2023-05-24T23:55:32Z</time>
      </trkpt>
      <trkpt lat="49.35044" lon="2.44745">
        <ele>53</ele>
        <time>2023-05-24T23:55:40Z</time>
      </trkpt>
      <trkpt lat="49.34986" lon="2.44761">
        <ele>53</ele>
        <time>2023-05-24T23:55:51Z</time>
      </trkpt>
      <trkpt lat="49.34972" lon="2.44762">
        <ele>53</ele>
        <time>2023-05-24T23:55:53Z</time>
      </trkpt>
      <trkpt lat="49.34929" lon="2.44758">
        <ele>53</ele>
        <time>2023-05-24T23:56:01Z</time>
      </trkpt>
      <trkpt lat="49.34874" lon="2.4475">
        <ele>50</ele>
        <time>2023-05-24T23:56:11Z</time>
      </trkpt>
      <trkpt lat="49.34859" lon="2.44751">
        <ele>49</ele>
        <time>2023-05-24T23:56:14Z</time>
      </trkpt>
      <trkpt lat="49.34839" lon="2.44756">
        <ele>49</ele>
        <time>2023-05-24T23:56:17Z</time>
      </trkpt>
      <trkpt lat="49.34822" lon="2.44764">
        <ele>50</ele>
        <time>2023-05-24T23:56:20Z</time>
      </trkpt>
      <trkpt lat="49.34802" lon="2.44777">
        <ele>51</ele>
        <time>2023-05-24T23:56:24Z</time>
      </trkpt>
      <trkpt lat="49.34726" lon="2.44841">
        <ele>52</ele>
        <time>2023-05-24T23:56:40Z</time>
      </trkpt>
      <trkpt lat="49.34665" lon="2.44897">
        <ele>50</ele>
        <time>2023-05-24T23:56:52Z</time>
      </trkpt>
      <trkpt lat="49.34646" lon="2.44925">
        <ele>49</ele>
        <time>2023-05-24T23:56:57Z</time>
      </trkpt>
      <trkpt lat="49.3463" lon="2.44958">
        <ele>50</ele>
        <time>2023-05-24T23:57:02Z</time>
      </trkpt>
      <trkpt lat="49.34623" lon="2.44981">
        <ele>50</ele>
        <time>2023-05-24T23:57:05Z</time>
      </trkpt>
      <trkpt lat="49.3462" lon="2.44997">
        <ele>50</ele>
        <time>2023-05-24T23:57:07Z</time>
      </trkpt>
      <trkpt lat="49.34619" lon="2.45019">
        <ele>50</ele>
        <time>2023-05-24T23:57:09Z</time>
      </trkpt>
      <trkpt lat="49.3462" lon="2.45067">
        <ele>51</ele>
        <time>2023-05-24T23:57:15Z</time>
      </trkpt>
      <trkpt lat="49.34615" lon="2.45107">
        <ele>52</ele>
        <time>2023-05-24T23:57:19Z</time>
      </trkpt>
      <trkpt lat="49.34601" lon="2.45171">
        <ele>52</ele>
        <time>2023-05-24T23:57:27Z</time>
      </trkpt>
      <trkpt lat="49.34584" lon="2.45222">
        <ele>50</ele>
        <time>2023-05-24T23:57:34Z</time>
      </trkpt>
      <trkpt lat="49.34566" lon="2.45259">
        <ele>51</ele>
        <time>2023-05-24T23:57:39Z</time>
      </trkpt>
      <trkpt lat="49.34551" lon="2.45286">
        <ele>51</ele>
        <time>2023-05-24T23:57:43Z</time>
      </trkpt>
      <trkpt lat="49.34524" lon="2.45323">
        <ele>50</ele>
        <time>2023-05-24T23:57:50Z</time>
      </trkpt>
      <trkpt lat="49.34499" lon="2.45349">
        <ele>49</ele>
        <time>2023-05-24T23:57:55Z</time>
      </trkpt>
      <trkpt lat="49.34478" lon="2.45368">
        <ele>50</ele>
        <time>2023-05-24T23:58:00Z</time>
      </trkpt>
      <trkpt lat="49.34422" lon="2.45404">
        <ele>50</ele>
        <time>2023-05-24T23:58:10Z</time>
      </trkpt>
      <trkpt lat="49.34132" lon="2.45553">
        <ele>47</ele>
        <time>2023-05-24T23:59:05Z</time>
      </trkpt>
      <trkpt lat="49.34152" lon="2.45628">
        <ele>49</ele>
        <time>2023-05-24T23:59:14Z</time>
      </trkpt>
      <trkpt lat="49.34186" lon="2.45756">
        <ele>50</ele>
        <time>2023-05-24T23:59:30Z</time>
      </trkpt>
      <trkpt lat="49.34238" lon="2.4593">
        <ele>49</ele>
        <time>2023-05-24T23:59:52Z</time>
      </trkpt>
      <trkpt lat="49.34269" lon="2.46015">
        <ele>50</ele>
        <time>2023-05-25T00:00:04Z</time>
      </trkpt>
      <trkpt lat="49.34275" lon="2.46014">
        <ele>50</ele>
        <time>2023-05-25T00:00:05Z</time>
      </trkpt>
      <trkpt lat="49.34315" lon="2.46107">
        <ele>51</ele>
        <time>2023-05-25T00:00:18Z</time>
      </trkpt>
      <trkpt lat="49.34331" lon="2.46139">
        <ele>51</ele>
        <time>2023-05-25T00:00:22Z</time>
      </trkpt>
      <trkpt lat="49.34342" lon="2.46154">
        <ele>51</ele>
        <time>2023-05-25T00:00:25Z</time>
      </trkpt>
      <trkpt lat="49.34372" lon="2.46181">
        <ele>51</ele>
        <time>2023-05-25T00:00:31Z</time>
      </trkpt>
      <trkpt lat="49.34386" lon="2.46198">
        <ele>51</ele>
        <time>2023-05-25T00:00:34Z</time>
      </trkpt>
      <trkpt lat="49.3444" lon="2.46289">
        <ele>51</ele>
        <time>2023-05-25T00:00:49Z</time>
      </trkpt>
      <trkpt lat="49.3446" lon="2.46314">
        <ele>50</ele>
        <time>2023-05-25T00:00:53Z</time>
      </trkpt>
      <trkpt lat="49.34515" lon="2.46376">
        <ele>50</ele>
        <time>2023-05-25T00:01:05Z</time>
      </trkpt>
      <trkpt lat="49.34539" lon="2.46408">
        <ele>50</ele>
        <time>2023-05-25T00:01:11Z</time>
      </trkpt>
      <trkpt lat="49.34556" lon="2.46442">
        <ele>51</ele>
        <time>2023-05-25T00:01:16Z</time>
      </trkpt>
      <trkpt lat="49.34605" lon="2.46577">
        <ele>52</ele>
        <time>2023-05-25T00:01:34Z</time>
      </trkpt>
      <trkpt lat="49.34622" lon="2.46614">
        <ele>53</ele>
        <time>2023-05-25T00:01:39Z</time>
      </trkpt>
      <trkpt lat="49.34645" lon="2.46646">
        <ele>54</ele>
        <time>2023-05-25T00:01:45Z</time>
      </trkpt>
      <trkpt lat="49.34681" lon="2.46678">
        <ele>55</ele>
        <time>2023-05-25T00:01:52Z</time>
      </trkpt>
      <trkpt lat="49.34689" lon="2.4669">
        <ele>56</ele>
        <time>2023-05-25T00:01:54Z</time>
      </trkpt>
      <trkpt lat="49.34692" lon="2.46705">
        <ele>56</ele>
        <time>2023-05-25T00:01:56Z</time>
      </trkpt>
      <trkpt lat="49.34693" lon="2.46716">
        <ele>57</ele>
        <time>2023-05-25T00:01:57Z</time>
      </trkpt>
      <trkpt lat="49.34687" lon="2.46762">
        <ele>58</ele>
        <time>2023-05-25T00:02:03Z</time>
      </trkpt>
      <trkpt lat="49.34686" lon="2.46794">
        <ele>59</ele>
        <time>2023-05-25T00:02:06Z</time>
      </trkpt>
      <trkpt lat="49.34691" lon="2.46812">
        <ele>60</ele>
        <time>2023-05-25T00:02:09Z</time>
      </trkpt>
      <trkpt lat="49.34697" lon="2.4682">
        <ele>61</ele>
        <time>2023-05-25T00:02:10Z</time>
      </trkpt>
      <trkpt lat="49.34727" lon="2.46847">
        <ele>62</ele>
        <time>2023-05-25T00:02:16Z</time>
      </trkpt>
      <trkpt lat="49.34737" lon="2.46859">
        <ele>63</ele>
        <time>2023-05-25T00:02:18Z</time>
      </trkpt>
      <trkpt lat="49.34741" lon="2.4687">
        <ele>64</ele>
        <time>2023-05-25T00:02:20Z</time>
      </trkpt>
      <trkpt lat="49.34746" lon="2.46888">
        <ele>65</ele>
        <time>2023-05-25T00:02:22Z</time>
      </trkpt>
      <trkpt lat="49.34748" lon="2.46908">
        <ele>66</ele>
        <time>2023-05-25T00:02:25Z</time>
      </trkpt>
      <trkpt lat="49.3475" lon="2.46963">
        <ele>67</ele>
        <time>2023-05-25T00:02:31Z</time>
      </trkpt>
      <trkpt lat="49.34758" lon="2.46997">
        <ele>67</ele>
        <time>2023-05-25T00:02:35Z</time>
      </trkpt>
      <trkpt lat="49.34781" lon="2.47055">
        <ele>70</ele>
        <time>2023-05-25T00:02:43Z</time>
      </trkpt>
      <trkpt lat="49.34799" lon="2.47135">
        <ele>72</ele>
        <time>2023-05-25T00:02:53Z</time>
      </trkpt>
      <trkpt lat="49.34816" lon="2.47218">
        <ele>74</ele>
        <time>2023-05-25T00:03:03Z</time>
      </trkpt>
      <trkpt lat="49.34842" lon="2.47252">
        <ele>74</ele>
        <time>2023-05-25T00:03:09Z</time>
      </trkpt>
      <trkpt lat="49.34845" lon="2.4726">
        <ele>75</ele>
        <time>2023-05-25T00:03:10Z</time>
      </trkpt>
      <trkpt lat="49.34855" lon="2.47302">
        <ele>76</ele>
        <time>2023-05-25T00:03:15Z</time>
      </trkpt>
      <trkpt lat="49.34856" lon="2.4731">
        <ele>76</ele>
        <time>2023-05-25T00:03:16Z</time>
      </trkpt>
      <trkpt lat="49.34855" lon="2.47318">
        <ele>76</ele>
        <time>2023-05-25T00:03:17Z</time>
      </trkpt>
      <trkpt lat="49.34851" lon="2.47323">
        <ele>76</ele>
        <time>2023-05-25T00:03:18Z</time>
      </trkpt>
      <trkpt lat="49.34826" lon="2.47339">
        <ele>75</ele>
        <time>2023-05-25T00:03:23Z</time>
      </trkpt>
      <trkpt lat="49.3482" lon="2.47346">
        <ele>75</ele>
        <time>2023-05-25T00:03:24Z</time>
      </trkpt>
      <trkpt lat="49.34817" lon="2.47354">
        <ele>74</ele>
        <time>2023-05-25T00:03:25Z</time>
      </trkpt>
      <trkpt lat="49.34816" lon="2.47441">
        <ele>74</ele>
        <time>2023-05-25T00:03:35Z</time>
      </trkpt>
      <trkpt lat="49.3482" lon="2.47504">
        <ele>74</ele>
        <time>2023-05-25T00:03:43Z</time>
      </trkpt>
      <trkpt lat="49.34812" lon="2.47548">
        <ele>75</ele>
        <time>2023-05-25T00:03:48Z</time>
      </trkpt>
      <trkpt lat="49.3481" lon="2.4764">
        <ele>77</ele>
        <time>2023-05-25T00:03:59Z</time>
      </trkpt>
      <trkpt lat="49.3482" lon="2.47713">
        <ele>78</ele>
        <time>2023-05-25T00:04:07Z</time>
      </trkpt>
      <trkpt lat="49.3484" lon="2.47798">
        <ele>79</ele>
        <time>2023-05-25T00:04:18Z</time>
      </trkpt>
      <trkpt lat="49.34858" lon="2.47908">
        <ele>80</ele>
        <time>2023-05-25T00:04:31Z</time>
      </trkpt>
      <trkpt lat="49.34873" lon="2.4796">
        <ele>80</ele>
        <time>2023-05-25T00:04:37Z</time>
      </trkpt>
      <trkpt lat="49.34902" lon="2.48052">
        <ele>84</ele>
        <time>2023-05-25T00:04:49Z</time>
      </trkpt>
      <trkpt lat="49.34918" lon="2.48109">
        <ele>85</ele>
        <time>2023-05-25T00:04:57Z</time>
      </trkpt>
      <trkpt lat="49.34934" lon="2.48173">
        <ele>86</ele>
        <time>2023-05-25T00:05:04Z</time>
      </trkpt>
      <trkpt lat="49.3495" lon="2.48214">
        <ele>87</ele>
        <time>2023-05-25T00:05:10Z</time>
      </trkpt>
      <trkpt lat="49.34952" lon="2.48224">
        <ele>88</ele>
        <time>2023-05-25T00:05:11Z</time>
      </trkpt>
      <trkpt lat="49.34952" lon="2.48233">
        <ele>88</ele>
        <time>2023-05-25T00:05:12Z</time>
      </trkpt>
      <trkpt lat="49.34948" lon="2.48246">
        <ele>88</ele>
        <time>2023-05-25T00:05:14Z</time>
      </trkpt>
      <trkpt lat="49.34941" lon="2.48261">
        <ele>88</ele>
        <time>2023-05-25T00:05:16Z</time>
      </trkpt>
      <trkpt lat="49.34932" lon="2.48273">
        <ele>89</ele>
        <time>2023-05-25T00:05:18Z</time>
      </trkpt>
      <trkpt lat="49.34919" lon="2.48288">
        <ele>89</ele>
        <time>2023-05-25T00:05:21Z</time>
      </trkpt>
      <trkpt lat="49.3487" lon="2.48326">
        <ele>92</ele>
        <time>2023-05-25T00:05:31Z</time>
      </trkpt>
      <trkpt lat="49.34851" lon="2.48349">
        <ele>93</ele>
        <time>2023-05-25T00:05:35Z</time>
      </trkpt>
      <trkpt lat="49.34826" lon="2.48386">
        <ele>92</ele>
        <time>2023-05-25T00:05:41Z</time>
      </trkpt>
      <trkpt lat="49.34797" lon="2.48424">
        <ele>93</ele>
        <time>2023-05-25T00:05:48Z</time>
      </trkpt>
      <trkpt lat="49.3473" lon="2.48499">
        <ele>103</ele>
        <time>2023-05-25T00:06:03Z</time>
      </trkpt>
      <trkpt lat="49.34724" lon="2.48511">
        <ele>104</ele>
        <time>2023-05-25T00:06:05Z</time>
      </trkpt>
      <trkpt lat="49.34724" lon="2.48521">
        <ele>105</ele>
        <time>2023-05-25T00:06:06Z</time>
      </trkpt>
      <trkpt lat="49.34727" lon="2.48533">
        <ele>105</ele>
        <time>2023-05-25T00:06:07Z</time>
      </trkpt>
      <trkpt lat="49.34764" lon="2.48626">
        <ele>107</ele>
        <time>2023-05-25T00:06:20Z</time>
      </trkpt>
      <trkpt lat="49.34776" lon="2.48675">
        <ele>112</ele>
        <time>2023-05-25T00:06:26Z</time>
      </trkpt>
      <trkpt lat="49.34781" lon="2.4869">
        <ele>114</ele>
        <time>2023-05-25T00:06:28Z</time>
      </trkpt>
      <trkpt lat="49.3486" lon="2.48822">
        <ele>123</ele>
        <time>2023-05-25T00:06:49Z</time>
      </trkpt>
      <trkpt lat="49.34872" lon="2.48841">
        <ele>125</ele>
        <time>2023-05-25T00:06:52Z</time>
      </trkpt>
      <trkpt lat="49.34889" lon="2.48862">
        <ele>127</ele>
        <time>2023-05-25T00:06:56Z</time>
      </trkpt>
      <trkpt lat="49.34916" lon="2.48889">
        <ele>129</ele>
        <time>2023-05-25T00:07:01Z</time>
      </trkpt>
      <trkpt lat="49.34948" lon="2.48914">
        <ele>131</ele>
        <time>2023-05-25T00:07:08Z</time>
      </trkpt>
      <trkpt lat="49.34965" lon="2.48925">
        <ele>131</ele>
        <time>2023-05-25T00:07:11Z</time>
      </trkpt>
      <trkpt lat="49.35008" lon="2.48937">
        <ele>132</ele>
        <time>2023-05-25T00:07:19Z</time>
      </trkpt>
      <trkpt lat="49.35022" lon="2.48944">
        <ele>133</ele>
        <time>2023-05-25T00:07:21Z</time>
      </trkpt>
      <trkpt lat="49.35033" lon="2.48954">
        <ele>135</ele>
        <time>2023-05-25T00:07:24Z</time>
      </trkpt>
      <trkpt lat="49.35061" lon="2.48997">
        <ele>138</ele>
        <time>2023-05-25T00:07:31Z</time>
      </trkpt>
      <trkpt lat="49.35072" lon="2.49019">
        <ele>139</ele>
        <time>2023-05-25T00:07:34Z</time>
      </trkpt>
      <trkpt lat="49.35078" lon="2.49037">
        <ele>139</ele>
        <time>2023-05-25T00:07:36Z</time>
      </trkpt>
      <trkpt lat="49.35082" lon="2.49055">
        <ele>140</ele>
        <time>2023-05-25T00:07:39Z</time>
      </trkpt>
      <trkpt lat="49.35082" lon="2.49069">
        <ele>141</ele>
        <time>2023-05-25T00:07:40Z</time>
      </trkpt>
      <trkpt lat="49.3508" lon="2.49078">
        <ele>141</ele>
        <time>2023-05-25T00:07:41Z</time>
      </trkpt>
      <trkpt lat="49.34965" lon="2.49137">
        <ele>143</ele>
        <time>2023-05-25T00:08:03Z</time>
      </trkpt>
      <trkpt lat="49.34957" lon="2.49142">
        <ele>143</ele>
        <time>2023-05-25T00:08:04Z</time>
      </trkpt>
      <trkpt lat="49.34951" lon="2.4915">
        <ele>143</ele>
        <time>2023-05-25T00:08:06Z</time>
      </trkpt>
      <trkpt lat="49.35015" lon="2.49187">
        <ele>145</ele>
        <time>2023-05-25T00:08:18Z</time>
      </trkpt>
      <trkpt lat="49.35069" lon="2.49221">
        <ele>145</ele>
        <time>2023-05-25T00:08:28Z</time>
      </trkpt>
      <trkpt lat="49.35423" lon="2.49425">
        <ele>152</ele>
        <time>2023-05-25T00:09:36Z</time>
      </trkpt>
      <trkpt lat="49.35435" lon="2.49435">
        <ele>152</ele>
        <time>2023-05-25T00:09:38Z</time>
      </trkpt>
      <trkpt lat="49.35584" lon="2.49619">
        <ele>153</ele>
        <time>2023-05-25T00:10:12Z</time>
      </trkpt>
      <trkpt lat="49.35601" lon="2.49644">
        <ele>153</ele>
        <time>2023-05-25T00:10:16Z</time>
      </trkpt>
      <trkpt lat="49.35638" lon="2.49707">
        <ele>157</ele>
        <time>2023-05-25T00:10:26Z</time>
      </trkpt>
      <trkpt lat="49.35651" lon="2.4972">
        <ele>158</ele>
        <time>2023-05-25T00:10:29Z</time>
      </trkpt>
      <trkpt lat="49.35664" lon="2.49728">
        <ele>159</ele>
        <time>2023-05-25T00:10:31Z</time>
      </trkpt>
      <trkpt lat="49.35674" lon="2.49732">
        <ele>160</ele>
        <time>2023-05-25T00:10:33Z</time>
      </trkpt>
      <trkpt lat="49.36002" lon="2.49829">
        <ele>168</ele>
        <time>2023-05-25T00:11:33Z</time>
      </trkpt>
      <trkpt lat="49.36297" lon="2.4992">
        <ele>156</ele>
        <time>2023-05-25T00:12:26Z</time>
      </trkpt>
      <trkpt lat="49.3631" lon="2.49926">
        <ele>155</ele>
        <time>2023-05-25T00:12:29Z</time>
      </trkpt>
      <trkpt lat="49.36318" lon="2.49933">
        <ele>154</ele>
        <time>2023-05-25T00:12:30Z</time>
      </trkpt>
      <trkpt lat="49.36334" lon="2.49955">
        <ele>152</ele>
        <time>2023-05-25T00:12:34Z</time>
      </trkpt>
      <trkpt lat="49.3634" lon="2.49969">
        <ele>150</ele>
        <time>2023-05-25T00:12:36Z</time>
      </trkpt>
      <trkpt lat="49.36353" lon="2.50038">
        <ele>148</ele>
        <time>2023-05-25T00:12:44Z</time>
      </trkpt>
      <trkpt lat="49.36363" lon="2.50068">
        <ele>147</ele>
        <time>2023-05-25T00:12:48Z</time>
      </trkpt>
      <trkpt lat="49.36379" lon="2.50092">
        <ele>144</ele>
        <time>2023-05-25T00:12:52Z</time>
      </trkpt>
      <trkpt lat="49.36389" lon="2.50114">
        <ele>141</ele>
        <time>2023-05-25T00:12:55Z</time>
      </trkpt>
      <trkpt lat="49.36392" lon="2.50131">
        <ele>141</ele>
        <time>2023-05-25T00:12:57Z</time>
      </trkpt>
      <trkpt lat="49.36393" lon="2.50146">
        <ele>141</ele>
        <time>2023-05-25T00:12:59Z</time>
      </trkpt>
      <trkpt lat="49.3639" lon="2.50169">
        <ele>142</ele>
        <time>2023-05-25T00:13:02Z</time>
      </trkpt>
      <trkpt lat="49.36381" lon="2.50195">
        <ele>145</ele>
        <time>2023-05-25T00:13:05Z</time>
      </trkpt>
      <trkpt lat="49.36376" lon="2.50231">
        <ele>147</ele>
        <time>2023-05-25T00:13:09Z</time>
      </trkpt>
      <trkpt lat="49.36377" lon="2.5028">
        <ele>147</ele>
        <time>2023-05-25T00:13:15Z</time>
      </trkpt>
      <trkpt lat="49.36382" lon="2.50336">
        <ele>145</ele>
        <time>2023-05-25T00:13:22Z</time>
      </trkpt>
      <trkpt lat="49.36383" lon="2.50384">
        <ele>142</ele>
        <time>2023-05-25T00:13:27Z</time>
      </trkpt>
      <trkpt lat="49.36376" lon="2.50447">
        <ele>141</ele>
        <time>2023-05-25T00:13:35Z</time>
      </trkpt>
      <trkpt lat="49.36367" lon="2.50506">
        <ele>143</ele>
        <time>2023-05-25T00:13:42Z</time>
      </trkpt>
      <trkpt lat="49.36364" lon="2.50553">
        <ele>140</ele>
        <time>2023-05-25T00:13:47Z</time>
      </trkpt>
      <trkpt lat="49.36363" lon="2.50617">
        <ele>134</ele>
        <time>2023-05-25T00:13:55Z</time>
      </trkpt>
      <trkpt lat="49.36373" lon="2.50705">
        <ele>126</ele>
        <time>2023-05-25T00:14:05Z</time>
      </trkpt>
      <trkpt lat="49.36409" lon="2.50885">
        <ele>124</ele>
        <time>2023-05-25T00:14:27Z</time>
      </trkpt>
      <trkpt lat="49.36416" lon="2.50899">
        <ele>123</ele>
        <time>2023-05-25T00:14:29Z</time>
      </trkpt>
      <trkpt lat="49.36427" lon="2.50906">
        <ele>121</ele>
        <time>2023-05-25T00:14:31Z</time>
      </trkpt>
      <trkpt lat="49.36436" lon="2.50906">
        <ele>119</ele>
        <time>2023-05-25T00:14:33Z</time>
      </trkpt>
      <trkpt lat="49.36446" lon="2.509">
        <ele>117</ele>
        <time>2023-05-25T00:14:34Z</time>
      </trkpt>
      <trkpt lat="49.36451" lon="2.50887">
        <ele>115</ele>
        <time>2023-05-25T00:14:36Z</time>
      </trkpt>
      <trkpt lat="49.36453" lon="2.50867">
        <ele>113</ele>
        <time>2023-05-25T00:14:39Z</time>
      </trkpt>
      <trkpt lat="49.36448" lon="2.50692">
        <ele>108</ele>
        <time>2023-05-25T00:14:59Z</time>
      </trkpt>
      <trkpt lat="49.36453" lon="2.50655">
        <ele>107</ele>
        <time>2023-05-25T00:15:03Z</time>
      </trkpt>
      <trkpt lat="49.36543" lon="2.50334">
        <ele>95</ele>
        <time>2023-05-25T00:15:44Z</time>
      </trkpt>
      <trkpt lat="49.36552" lon="2.50321">
        <ele>93</ele>
        <time>2023-05-25T00:15:46Z</time>
      </trkpt>
      <trkpt lat="49.36559" lon="2.50316">
        <ele>91</ele>
        <time>2023-05-25T00:15:47Z</time>
      </trkpt>
      <trkpt lat="49.36576" lon="2.50317">
        <ele>87</ele>
        <time>2023-05-25T00:15:50Z</time>
      </trkpt>
      <trkpt lat="49.36587" lon="2.50329">
        <ele>84</ele>
        <time>2023-05-25T00:15:53Z</time>
      </trkpt>
      <trkpt lat="49.36594" lon="2.50352">
        <ele>83</ele>
        <time>2023-05-25T00:15:56Z</time>
      </trkpt>
      <trkpt lat="49.36647" lon="2.50774">
        <ele>70</ele>
        <time>2023-05-25T00:16:45Z</time>
      </trkpt>
      <trkpt lat="49.36662" lon="2.50859">
        <ele>69</ele>
        <time>2023-05-25T00:16:56Z</time>
      </trkpt>
      <trkpt lat="49.36668" lon="2.50881">
        <ele>70</ele>
        <time>2023-05-25T00:16:58Z</time>
      </trkpt>
      <trkpt lat="49.3668" lon="2.509">
        <ele>70</ele>
        <time>2023-05-25T00:17:01Z</time>
      </trkpt>
      <trkpt lat="49.36696" lon="2.50918">
        <ele>69</ele>
        <time>2023-05-25T00:17:05Z</time>
      </trkpt>
      <trkpt lat="49.36722" lon="2.50942">
        <ele>67</ele>
        <time>2023-05-25T00:17:10Z</time>
      </trkpt>
      <trkpt lat="49.36758" lon="2.50962">
        <ele>63</ele>
        <time>2023-05-25T00:17:17Z</time>
      </trkpt>
      <trkpt lat="49.3682" lon="2.50988">
        <ele>61</ele>
        <time>2023-05-25T00:17:29Z</time>
      </trkpt>
      <trkpt lat="49.36989" lon="2.50962">
        <ele>60</ele>
        <time>2023-05-25T00:17:59Z</time>
      </trkpt>
      <trkpt lat="49.3706" lon="2.50959">
        <ele>61</ele>
        <time>2023-05-25T00:18:11Z</time>
      </trkpt>
      <trkpt lat="49.37184" lon="2.50957">
        <ele>62</ele>
        <time>2023-05-25T00:18:34Z</time>
      </trkpt>
      <trkpt lat="49.37235" lon="2.50962">
        <ele>63</ele>
        <time>2023-05-25T00:18:43Z</time>
      </trkpt>
      <trkpt lat="49.37264" lon="2.50973">
        <ele>64</ele>
        <time>2023-05-25T00:18:48Z</time>
      </trkpt>
      <trkpt lat="49.37316" lon="2.51002">
        <ele>65</ele>
        <time>2023-05-25T00:18:58Z</time>
      </trkpt>
      <trkpt lat="49.37335" lon="2.51012">
        <ele>65</ele>
        <time>2023-05-25T00:19:01Z</time>
      </trkpt>
      <trkpt lat="49.37415" lon="2.51038">
        <ele>66</ele>
        <time>2023-05-25T00:19:16Z</time>
      </trkpt>
      <trkpt lat="49.37473" lon="2.51051">
        <ele>67</ele>
        <time>2023-05-25T00:19:26Z</time>
      </trkpt>
      <trkpt lat="49.37578" lon="2.51057">
        <ele>71</ele>
        <time>2023-05-25T00:19:45Z</time>
      </trkpt>
      <trkpt lat="49.37749" lon="2.51115">
        <ele>69</ele>
        <time>2023-05-25T00:20:16Z</time>
      </trkpt>
      <trkpt lat="49.37815" lon="2.51144">
        <ele>70</ele>
        <time>2023-05-25T00:20:28Z</time>
      </trkpt>
      <trkpt lat="49.37912" lon="2.51175">
        <ele>73</ele>
        <time>2023-05-25T00:20:46Z</time>
      </trkpt>
      <trkpt lat="49.37963" lon="2.51197">
        <ele>74</ele>
        <time>2023-05-25T00:20:55Z</time>
      </trkpt>
      <trkpt lat="49.37997" lon="2.51218">
        <ele>74</ele>
        <time>2023-05-25T00:21:02Z</time>
      </trkpt>
      <trkpt lat="49.381" lon="2.51289">
        <ele>79</ele>
        <time>2023-05-25T00:21:22Z</time>
      </trkpt>
      <trkpt lat="49.38157" lon="2.51317">
        <ele>80</ele>
        <time>2023-05-25T00:21:33Z</time>
      </trkpt>
      <trkpt lat="49.38198" lon="2.51329">
        <ele>81</ele>
        <time>2023-05-25T00:21:40Z</time>
      </trkpt>
      <trkpt lat="49.38243" lon="2.51339">
        <ele>81</ele>
        <time>2023-05-25T00:21:48Z</time>
      </trkpt>
      <trkpt lat="49.38304" lon="2.51353">
        <ele>82</ele>
        <time>2023-05-25T00:21:59Z</time>
      </trkpt>
      <trkpt lat="49.38349" lon="2.51358">
        <ele>83</ele>
        <time>2023-05-25T00:22:07Z</time>
      </trkpt>
      <trkpt lat="49.38537" lon="2.51355">
        <ele>87</ele>
        <time>2023-05-25T00:22:41Z</time>
      </trkpt>
      <trkpt lat="49.38695" lon="2.51347">
        <ele>93</ele>
        <time>2023-05-25T00:23:09Z</time>
      </trkpt>
      <trkpt lat="49.38847" lon="2.51349">
        <ele>97</ele>
        <time>2023-05-25T00:23:36Z</time>
      </trkpt>
      <trkpt lat="49.38892" lon="2.51353">
        <ele>99</ele>
        <time>2023-05-25T00:23:44Z</time>
      </trkpt>
      <trkpt lat="49.38938" lon="2.51364">
        <ele>101</ele>
        <time>2023-05-25T00:23:52Z</time>
      </trkpt>
      <trkpt lat="49.39001" lon="2.51383">
        <ele>102</ele>
        <time>2023-05-25T00:24:04Z</time>
      </trkpt>
      <trkpt lat="49.39112" lon="2.51433">
        <ele>106</ele>
        <time>2023-05-25T00:24:24Z</time>
      </trkpt>
      <trkpt lat="49.3924" lon="2.51477">
        <ele>110</ele>
        <time>2023-05-25T00:24:48Z</time>
      </trkpt>
      <trkpt lat="49.39336" lon="2.51496">
        <ele>112</ele>
        <time>2023-05-25T00:25:05Z</time>
      </trkpt>
      <trkpt lat="49.39505" lon="2.5154">
        <ele>114</ele>
        <time>2023-05-25T00:25:35Z</time>
      </trkpt>
      <trkpt lat="49.39605" lon="2.51584">
        <ele>115</ele>
        <time>2023-05-25T00:25:54Z</time>
      </trkpt>
      <trkpt lat="49.3974" lon="2.51637">
        <ele>113</ele>
        <time>2023-05-25T00:26:19Z</time>
      </trkpt>
      <trkpt lat="49.39829" lon="2.51664">
        <ele>112</ele>
        <time>2023-05-25T00:26:35Z</time>
      </trkpt>
      <trkpt lat="49.40017" lon="2.5173">
        <ele>107</ele>
        <time>2023-05-25T00:27:09Z</time>
      </trkpt>
      <trkpt lat="49.40075" lon="2.51755">
        <ele>104</ele>
        <time>2023-05-25T00:27:20Z</time>
      </trkpt>
      <trkpt lat="49.40111" lon="2.51763">
        <ele>104</ele>
        <time>2023-05-25T00:27:26Z</time>
      </trkpt>
      <trkpt lat="49.40166" lon="2.51762">
        <ele>103</ele>
        <time>2023-05-25T00:27:36Z</time>
      </trkpt>
      <trkpt lat="49.40235" lon="2.51757">
        <ele>101</ele>
        <time>2023-05-25T00:27:48Z</time>
      </trkpt>
      <trkpt lat="49.40408" lon="2.51739">
        <ele>92</ele>
        <time>2023-05-25T00:28:19Z</time>
      </trkpt>
      <trkpt lat="49.4051" lon="2.51705">
        <ele>88</ele>
        <time>2023-05-25T00:28:38Z</time>
      </trkpt>
      <trkpt lat="49.40573" lon="2.51696">
        <ele>87</ele>
        <time>2023-05-25T00:28:49Z</time>
      </trkpt>
      <trkpt lat="49.40636" lon="2.5169">
        <ele>86</ele>
        <time>2023-05-25T00:29:00Z</time>
      </trkpt>
      <trkpt lat="49.40679" lon="2.51744">
        <ele>85</ele>
        <time>2023-05-25T00:29:10Z</time>
      </trkpt>
      <trkpt lat="49.40703" lon="2.51747">
        <ele>84</ele>
        <time>2023-05-25T00:29:14Z</time>
      </trkpt>
      <trkpt lat="49.40738" lon="2.51739">
        <ele>83</ele>
        <time>2023-05-25T00:29:21Z</time>
      </trkpt>
      <trkpt lat="49.40773" lon="2.51721">
        <ele>82</ele>
        <time>2023-05-25T00:29:27Z</time>
      </trkpt>
      <trkpt lat="49.4082" lon="2.51678">
        <ele>79</ele>
        <time>2023-05-25T00:29:37Z</time>
      </trkpt>
      <trkpt lat="49.40932" lon="2.51605">
        <ele>78</ele>
        <time>2023-05-25T00:29:59Z</time>
      </trkpt>
      <trkpt lat="49.40956" lon="2.51597">
        <ele>79</ele>
        <time>2023-05-25T00:30:03Z</time>
      </trkpt>
      <trkpt lat="49.41009" lon="2.5159">
        <ele>83</ele>
        <time>2023-05-25T00:30:12Z</time>
      </trkpt>
      <trkpt lat="49.41135" lon="2.51567">
        <ele>93</ele>
        <time>2023-05-25T00:30:35Z</time>
      </trkpt>
      <trkpt lat="49.41163" lon="2.51576">
        <ele>95</ele>
        <time>2023-05-25T00:30:40Z</time>
      </trkpt>
      <trkpt lat="49.41214" lon="2.51596">
        <ele>99</ele>
        <time>2023-05-25T00:30:49Z</time>
      </trkpt>
      <trkpt lat="49.41321" lon="2.51617">
        <ele>107</ele>
        <time>2023-05-25T00:31:09Z</time>
      </trkpt>
      <trkpt lat="49.41443" lon="2.51604">
        <ele>116</ele>
        <time>2023-05-25T00:31:30Z</time>
      </trkpt>
      <trkpt lat="49.41518" lon="2.51588">
        <ele>120</ele>
        <time>2023-05-25T00:31:44Z</time>
      </trkpt>
      <trkpt lat="49.41525" lon="2.5159">
        <ele>121</ele>
        <time>2023-05-25T00:31:45Z</time>
      </trkpt>
      <trkpt lat="49.41528" lon="2.51599">
        <ele>121</ele>
        <time>2023-05-25T00:31:46Z</time>
      </trkpt>
      <trkpt lat="49.41529" lon="2.51616">
        <ele>122</ele>
        <time>2023-05-25T00:31:48Z</time>
      </trkpt>
      <trkpt lat="49.41528" lon="2.51702">
        <ele>125</ele>
        <time>2023-05-25T00:31:58Z</time>
      </trkpt>
      <trkpt lat="49.41531" lon="2.51718">
        <ele>125</ele>
        <time>2023-05-25T00:32:00Z</time>
      </trkpt>
      <trkpt lat="49.41542" lon="2.51733">
        <ele>126</ele>
        <time>2023-05-25T00:32:03Z</time>
      </trkpt>
      <trkpt lat="49.41588" lon="2.51774">
        <ele>129</ele>
        <time>2023-05-25T00:32:12Z</time>
      </trkpt>
      <trkpt lat="49.41595" lon="2.51785">
        <ele>129</ele>
        <time>2023-05-25T00:32:14Z</time>
      </trkpt>
      <trkpt lat="49.41678" lon="2.5217">
        <ele>128</ele>
        <time>2023-05-25T00:33:01Z</time>
      </trkpt>
      <trkpt lat="49.41688" lon="2.52198">
        <ele>128</ele>
        <time>2023-05-25T00:33:05Z</time>
      </trkpt>
      <trkpt lat="49.41706" lon="2.52225">
        <ele>128</ele>
        <time>2023-05-25T00:33:09Z</time>
      </trkpt>
      <trkpt lat="49.41723" lon="2.52242">
        <ele>128</ele>
        <time>2023-05-25T00:33:13Z</time>
      </trkpt>
      <trkpt lat="49.41783" lon="2.52332">
        <ele>129</ele>
        <time>2023-05-25T00:33:28Z</time>
      </trkpt>
      <trkpt lat="49.41805" lon="2.52386">
        <ele>130</ele>
        <time>2023-05-25T00:33:35Z</time>
      </trkpt>
      <trkpt lat="49.41839" lon="2.52453">
        <ele>130</ele>
        <time>2023-05-25T00:33:45Z</time>
      </trkpt>
      <trkpt lat="49.41852" lon="2.52463">
        <ele>130</ele>
        <time>2023-05-25T00:33:47Z</time>
      </trkpt>
      <trkpt lat="49.41876" lon="2.5246">
        <ele>130</ele>
        <time>2023-05-25T00:33:52Z</time>
      </trkpt>
      <trkpt lat="49.41885" lon="2.52461">
        <ele>130</ele>
        <time>2023-05-25T00:33:53Z</time>
      </trkpt>
      <trkpt lat="49.4191" lon="2.52478">
        <ele>130</ele>
        <time>2023-05-25T00:33:58Z</time>
      </trkpt>
      <trkpt lat="49.41929" lon="2.52488">
        <ele>130</ele>
        <time>2023-05-25T00:34:02Z</time>
      </trkpt>
      <trkpt lat="49.41962" lon="2.52514">
        <ele>131</ele>
        <time>2023-05-25T00:34:08Z</time>
      </trkpt>
      <trkpt lat="49.41974" lon="2.52537">
        <ele>131</ele>
        <time>2023-05-25T00:34:12Z</time>
      </trkpt>
      <trkpt lat="49.4199" lon="2.52588">
        <ele>131</ele>
        <time>2023-05-25T00:34:18Z</time>
      </trkpt>
      <trkpt lat="49.42001" lon="2.52615">
        <ele>131</ele>
        <time>2023-05-25T00:34:22Z</time>
      </trkpt>
      <trkpt lat="49.42058" lon="2.52718">
        <ele>134</ele>
        <time>2023-05-25T00:34:38Z</time>
      </trkpt>
      <trkpt lat="49.4218" lon="2.52874">
        <ele>136</ele>
        <time>2023-05-25T00:35:06Z</time>
      </trkpt>
      <trkpt lat="49.42201" lon="2.52904">
        <ele>134</ele>
        <time>2023-05-25T00:35:11Z</time>
      </trkpt>
      <trkpt lat="49.42211" lon="2.52934">
        <ele>133</ele>
        <time>2023-05-25T00:35:15Z</time>
      </trkpt>
      <trkpt lat="49.42243" lon="2.5308">
        <ele>127</ele>
        <time>2023-05-25T00:35:33Z</time>
      </trkpt>
      <trkpt lat="49.42266" lon="2.53199">
        <ele>116</ele>
        <time>2023-05-25T00:35:47Z</time>
      </trkpt>
      <trkpt lat="49.42274" lon="2.53227">
        <ele>115</ele>
        <time>2023-05-25T00:35:51Z</time>
      </trkpt>
      <trkpt lat="49.42286" lon="2.5325">
        <ele>114</ele>
        <time>2023-05-25T00:35:54Z</time>
      </trkpt>
      <trkpt lat="49.42298" lon="2.53266">
        <ele>115</ele>
        <time>2023-05-25T00:35:57Z</time>
      </trkpt>
      <trkpt lat="49.42463" lon="2.53474">
        <ele>123</ele>
        <time>2023-05-25T00:36:35Z</time>
      </trkpt>
      <trkpt lat="49.42553" lon="2.53486">
        <ele>126</ele>
        <time>2023-05-25T00:36:51Z</time>
      </trkpt>
      <trkpt lat="49.42564" lon="2.53494">
        <ele>127</ele>
        <time>2023-05-25T00:36:53Z</time>
      </trkpt>
      <trkpt lat="49.42578" lon="2.53509">
        <ele>128</ele>
        <time>2023-05-25T00:36:56Z</time>
      </trkpt>
      <trkpt lat="49.4261" lon="2.5356">
        <ele>132</ele>
        <time>2023-05-25T00:37:04Z</time>
      </trkpt>
      <trkpt lat="49.42627" lon="2.53583">
        <ele>133</ele>
        <time>2023-05-25T00:37:08Z</time>
      </trkpt>
      <trkpt lat="49.42645" lon="2.53598">
        <ele>134</ele>
        <time>2023-05-25T00:37:12Z</time>
      </trkpt>
      <trkpt lat="49.42658" lon="2.53603">
        <ele>135</ele>
        <time>2023-05-25T00:37:14Z</time>
      </trkpt>
      <trkpt lat="49.42711" lon="2.53593">
        <ele>138</ele>
        <time>2023-05-25T00:37:24Z</time>
      </trkpt>
      <trkpt lat="49.42754" lon="2.53592">
        <ele>140</ele>
        <time>2023-05-25T00:37:32Z</time>
      </trkpt>
      <trkpt lat="49.42773" lon="2.53613">
        <ele>141</ele>
        <time>2023-05-25T00:37:36Z</time>
      </trkpt>
      <trkpt lat="49.4278" lon="2.53617">
        <ele>142</ele>
        <time>2023-05-25T00:37:37Z</time>
      </trkpt>
      <trkpt lat="49.42791" lon="2.53616">
        <ele>142</ele>
        <time>2023-05-25T00:37:39Z</time>
      </trkpt>
      <trkpt lat="49.42801" lon="2.5361">
        <ele>143</ele>
        <time>2023-05-25T00:37:41Z</time>
      </trkpt>
      <trkpt lat="49.4283" lon="2.53583">
        <ele>144</ele>
        <time>2023-05-25T00:37:47Z</time>
      </trkpt>
      <trkpt lat="49.42842" lon="2.53585">
        <ele>144</ele>
        <time>2023-05-25T00:37:49Z</time>
      </trkpt>
      <trkpt lat="49.4285" lon="2.53592">
        <ele>145</ele>
        <time>2023-05-25T00:37:51Z</time>
      </trkpt>
      <trkpt lat="49.42891" lon="2.53657">
        <ele>146</ele>
        <time>2023-05-25T00:38:01Z</time>
      </trkpt>
      <trkpt lat="49.42899" lon="2.5366">
        <ele>147</ele>
        <time>2023-05-25T00:38:03Z</time>
      </trkpt>
      <trkpt lat="49.42908" lon="2.53658">
        <ele>147</ele>
        <time>2023-05-25T00:38:04Z</time>
      </trkpt>
      <trkpt lat="49.42944" lon="2.53641">
        <ele>148</ele>
        <time>2023-05-25T00:38:11Z</time>
      </trkpt>
      <trkpt lat="49.42958" lon="2.53642">
        <ele>148</ele>
        <time>2023-05-25T00:38:14Z</time>
      </trkpt>
      <trkpt lat="49.43004" lon="2.53657">
        <ele>149</ele>
        <time>2023-05-25T00:38:22Z</time>
      </trkpt>
      <trkpt lat="49.43027" lon="2.53661">
        <ele>149</ele>
        <time>2023-05-25T00:38:26Z</time>
      </trkpt>
      <trkpt lat="49.43034" lon="2.53655">
        <ele>149</ele>
        <time>2023-05-25T00:38:27Z</time>
      </trkpt>
      <trkpt lat="49.4304" lon="2.53645">
        <ele>149</ele>
        <time>2023-05-25T00:38:29Z</time>
      </trkpt>
      <trkpt lat="49.43057" lon="2.53603">
        <ele>150</ele>
        <time>2023-05-25T00:38:35Z</time>
      </trkpt>
      <trkpt lat="49.43081" lon="2.53558">
        <ele>150</ele>
        <time>2023-05-25T00:38:41Z</time>
      </trkpt>
      <trkpt lat="49.4312" lon="2.53504">
        <ele>151</ele>
        <time>2023-05-25T00:38:51Z</time>
      </trkpt>
      <trkpt lat="49.43157" lon="2.53471">
        <ele>151</ele>
        <time>2023-05-25T00:38:58Z</time>
      </trkpt>
      <trkpt lat="49.43164" lon="2.53469">
        <ele>151</ele>
        <time>2023-05-25T00:39:00Z</time>
      </trkpt>
      <trkpt lat="49.43169" lon="2.53472">
        <ele>151</ele>
        <time>2023-05-25T00:39:01Z</time>
      </trkpt>
      <trkpt lat="49.43205" lon="2.53539">
        <ele>150</ele>
        <time>2023-05-25T00:39:11Z</time>
      </trkpt>
      <trkpt lat="49.43245" lon="2.5347">
        <ele>150</ele>
        <time>2023-05-25T00:39:21Z</time>
      </trkpt>
      <trkpt lat="49.43258" lon="2.53447">
        <ele>151</ele>
        <time>2023-05-25T00:39:25Z</time>
      </trkpt>
      <trkpt lat="49.43299" lon="2.53348">
        <ele>151</ele>
        <time>2023-05-25T00:39:38Z</time>
      </trkpt>
      <trkpt lat="49.43387" lon="2.53191">
        <ele>152</ele>
        <time>2023-05-25T00:40:02Z</time>
      </trkpt>
      <trkpt lat="49.4347" lon="2.53018">
        <ele>153</ele>
        <time>2023-05-25T00:40:27Z</time>
      </trkpt>
      <trkpt lat="49.43481" lon="2.52988">
        <ele>152</ele>
        <time>2023-05-25T00:40:31Z</time>
      </trkpt>
      <trkpt lat="49.43536" lon="2.52854">
        <ele>151</ele>
        <time>2023-05-25T00:40:50Z</time>
      </trkpt>
      <trkpt lat="49.43565" lon="2.52761">
        <ele>151</ele>
        <time>2023-05-25T00:41:02Z</time>
      </trkpt>
      <trkpt lat="49.43656" lon="2.52447">
        <ele>147</ele>
        <time>2023-05-25T00:41:41Z</time>
      </trkpt>
      <trkpt lat="49.43764" lon="2.5215">
        <ele>142</ele>
        <time>2023-05-25T00:42:21Z</time>
      </trkpt>
      <trkpt lat="49.43833" lon="2.51972">
        <ele>138</ele>
        <time>2023-05-25T00:42:45Z</time>
      </trkpt>
      <trkpt lat="49.43916" lon="2.51776">
        <ele>132</ele>
        <time>2023-05-25T00:43:12Z</time>
      </trkpt>
      <trkpt lat="49.43995" lon="2.51643">
        <ele>126</ele>
        <time>2023-05-25T00:43:33Z</time>
      </trkpt>
      <trkpt lat="49.44026" lon="2.5158">
        <ele>125</ele>
        <time>2023-05-25T00:43:42Z</time>
      </trkpt>
      <trkpt lat="49.44089" lon="2.51429">
        <ele>127</ele>
        <time>2023-05-25T00:44:03Z</time>
      </trkpt>
      <trkpt lat="49.44138" lon="2.51346">
        <ele>130</ele>
        <time>2023-05-25T00:44:15Z</time>
      </trkpt>
      <trkpt lat="49.44343" lon="2.51091">
        <ele>138</ele>
        <time>2023-05-25T00:45:02Z</time>
      </trkpt>
      <trkpt lat="49.4443" lon="2.51006">
        <ele>137</ele>
        <time>2023-05-25T00:45:21Z</time>
      </trkpt>
      <trkpt lat="49.44465" lon="2.50965">
        <ele>136</ele>
        <time>2023-05-25T00:45:29Z</time>
      </trkpt>
      <trkpt lat="49.44514" lon="2.50893">
        <ele>136</ele>
        <time>2023-05-25T00:45:41Z</time>
      </trkpt>
      <trkpt lat="49.44532" lon="2.50858">
        <ele>136</ele>
        <time>2023-05-25T00:45:46Z</time>
      </trkpt>
      <trkpt lat="49.44571" lon="2.50763">
        <ele>137</ele>
        <time>2023-05-25T00:45:59Z</time>
      </trkpt>
      <trkpt lat="49.4462" lon="2.50663">
        <ele>137</ele>
        <time>2023-05-25T00:46:13Z</time>
      </trkpt>
      <trkpt lat="49.44648" lon="2.50583">
        <ele>136</ele>
        <time>2023-05-25T00:46:24Z</time>
      </trkpt>
      <trkpt lat="49.44718" lon="2.50432">
        <ele>135</ele>
        <time>2023-05-25T00:46:45Z</time>
      </trkpt>
      <trkpt lat="49.44772" lon="2.50322">
        <ele>136</ele>
        <time>2023-05-25T00:47:01Z</time>
      </trkpt>
      <trkpt lat="49.44796" lon="2.50286">
        <ele>135</ele>
        <time>2023-05-25T00:47:07Z</time>
      </trkpt>
      <trkpt lat="49.44836" lon="2.50239">
        <ele>134</ele>
        <time>2023-05-25T00:47:16Z</time>
      </trkpt>
      <trkpt lat="49.45043" lon="2.49969">
        <ele>129</ele>
        <time>2023-05-25T00:48:04Z</time>
      </trkpt>
      <trkpt lat="49.45095" lon="2.4991">
        <ele>127</ele>
        <time>2023-05-25T00:48:16Z</time>
      </trkpt>
      <trkpt lat="49.45413" lon="2.49315">
        <ele>121</ele>
        <time>2023-05-25T00:49:45Z</time>
      </trkpt>
      <trkpt lat="49.45446" lon="2.49248">
        <ele>120</ele>
        <time>2023-05-25T00:49:55Z</time>
      </trkpt>
      <trkpt lat="49.45539" lon="2.48977">
        <ele>119</ele>
        <time>2023-05-25T00:50:30Z</time>
      </trkpt>
      <trkpt lat="49.45593" lon="2.48795">
        <ele>116</ele>
        <time>2023-05-25T00:50:53Z</time>
      </trkpt>
      <trkpt lat="49.45612" lon="2.4874">
        <ele>116</ele>
        <time>2023-05-25T00:51:01Z</time>
      </trkpt>
      <trkpt lat="49.45626" lon="2.48711">
        <ele>116</ele>
        <time>2023-05-25T00:51:05Z</time>
      </trkpt>
      <trkpt lat="49.4565" lon="2.48675">
        <ele>117</ele>
        <time>2023-05-25T00:51:11Z</time>
      </trkpt>
      <trkpt lat="49.45675" lon="2.4865">
        <ele>117</ele>
        <time>2023-05-25T00:51:16Z</time>
      </trkpt>
      <trkpt lat="49.45829" lon="2.48514">
        <ele>118</ele>
        <time>2023-05-25T00:51:48Z</time>
      </trkpt>
      <trkpt lat="49.45857" lon="2.4848">
        <ele>118</ele>
        <time>2023-05-25T00:51:54Z</time>
      </trkpt>
      <trkpt lat="49.45922" lon="2.48363">
        <ele>118</ele>
        <time>2023-05-25T00:52:12Z</time>
      </trkpt>
      <trkpt lat="49.45943" lon="2.48316">
        <ele>119</ele>
        <time>2023-05-25T00:52:18Z</time>
      </trkpt>
      <trkpt lat="49.45954" lon="2.4827">
        <ele>121</ele>
        <time>2023-05-25T00:52:24Z</time>
      </trkpt>
      <trkpt lat="49.45963" lon="2.48214">
        <ele>122</ele>
        <time>2023-05-25T00:52:31Z</time>
      </trkpt>
      <trkpt lat="49.45958" lon="2.48133">
        <ele>122</ele>
        <time>2023-05-25T00:52:40Z</time>
      </trkpt>
      <trkpt lat="49.45946" lon="2.48025">
        <ele>123</ele>
        <time>2023-05-25T00:52:53Z</time>
      </trkpt>
      <trkpt lat="49.45985" lon="2.47877">
        <ele>125</ele>
        <time>2023-05-25T00:53:11Z</time>
      </trkpt>
      <trkpt lat="49.46271" lon="2.47269">
        <ele>130</ele>
        <time>2023-05-25T00:54:38Z</time>
      </trkpt>
      <trkpt lat="49.46384" lon="2.4702">
        <ele>132</ele>
        <time>2023-05-25T00:55:13Z</time>
      </trkpt>
      <trkpt lat="49.46413" lon="2.46962">
        <ele>132</ele>
        <time>2023-05-25T00:55:22Z</time>
      </trkpt>
      <trkpt lat="49.46464" lon="2.46895">
        <ele>134</ele>
        <time>2023-05-25T00:55:33Z</time>
      </trkpt>
      <trkpt lat="49.46482" lon="2.46877">
        <ele>134</ele>
        <time>2023-05-25T00:55:37Z</time>
      </trkpt>
      <trkpt lat="49.46554" lon="2.46816">
        <ele>135</ele>
        <time>2023-05-25T00:55:52Z</time>
      </trkpt>
      <trkpt lat="49.47318" lon="2.4619">
        <ele>141</ele>
        <time>2023-05-25T00:58:26Z</time>
      </trkpt>
      <trkpt lat="49.47331" lon="2.46178">
        <ele>140</ele>
        <time>2023-05-25T00:58:29Z</time>
      </trkpt>
      <trkpt lat="49.4732" lon="2.4612">
        <ele>140</ele>
        <time>2023-05-25T00:58:36Z</time>
      </trkpt>
      <trkpt lat="49.47313" lon="2.46097">
        <ele>140</ele>
        <time>2023-05-25T00:58:39Z</time>
      </trkpt>
      <trkpt lat="49.4722" lon="2.45612">
        <ele>137</ele>
        <time>2023-05-25T00:59:37Z</time>
      </trkpt>
      <trkpt lat="49.47201" lon="2.45528">
        <ele>138</ele>
        <time>2023-05-25T00:59:47Z</time>
      </trkpt>
      <trkpt lat="49.47184" lon="2.4544">
        <ele>140</ele>
        <time>2023-05-25T00:59:58Z</time>
      </trkpt>
      <trkpt lat="49.47176" lon="2.45408">
        <ele>140</ele>
        <time>2023-05-25T01:00:02Z</time>
      </trkpt>
      <trkpt lat="49.47175" lon="2.45383">
        <ele>140</ele>
        <time>2023-05-25T01:00:05Z</time>
      </trkpt>
      <trkpt lat="49.47176" lon="2.4536">
        <ele>140</ele>
        <time>2023-05-25T01:00:07Z</time>
      </trkpt>
      <trkpt lat="49.47173" lon="2.45333">
        <ele>140</ele>
        <time>2023-05-25T01:00:11Z</time>
      </trkpt>
      <trkpt lat="49.47168" lon="2.45321">
        <ele>140</ele>
        <time>2023-05-25T01:00:12Z</time>
      </trkpt>
      <trkpt lat="49.47152" lon="2.45193">
        <ele>141</ele>
        <time>2023-05-25T01:00:27Z</time>
      </trkpt>
      <trkpt lat="49.47094" lon="2.44548">
        <ele>139</ele>
        <time>2023-05-25T01:01:43Z</time>
      </trkpt>
      <trkpt lat="49.47107" lon="2.44505">
        <ele>139</ele>
        <time>2023-05-25T01:01:48Z</time>
      </trkpt>
      <trkpt lat="49.47147" lon="2.44449">
        <ele>135</ele>
        <time>2023-05-25T01:01:58Z</time>
      </trkpt>
      <trkpt lat="49.47217" lon="2.4437">
        <ele>128</ele>
        <time>2023-05-25T01:02:13Z</time>
      </trkpt>
      <trkpt lat="49.47225" lon="2.44326">
        <ele>125</ele>
        <time>2023-05-25T01:02:18Z</time>
      </trkpt>
      <trkpt lat="49.47217" lon="2.44286">
        <ele>123</ele>
        <time>2023-05-25T01:02:23Z</time>
      </trkpt>
      <trkpt lat="49.47098" lon="2.44095">
        <ele>117</ele>
        <time>2023-05-25T01:02:54Z</time>
      </trkpt>
      <trkpt lat="49.47084" lon="2.44046">
        <ele>115</ele>
        <time>2023-05-25T01:03:00Z</time>
      </trkpt>
      <trkpt lat="49.47028" lon="2.43644">
        <ele>96</ele>
        <time>2023-05-25T01:03:48Z</time>
      </trkpt>
      <trkpt lat="49.47013" lon="2.43618">
        <ele>96</ele>
        <time>2023-05-25T01:03:52Z</time>
      </trkpt>
      <trkpt lat="49.46981" lon="2.43597">
        <ele>95</ele>
        <time>2023-05-25T01:03:58Z</time>
      </trkpt>
      <trkpt lat="49.46966" lon="2.43592">
        <ele>94</ele>
        <time>2023-05-25T01:04:01Z</time>
      </trkpt>
      <trkpt lat="49.4691" lon="2.43564">
        <ele>91</ele>
        <time>2023-05-25T01:04:11Z</time>
      </trkpt>
      <trkpt lat="49.46893" lon="2.4355">
        <ele>90</ele>
        <time>2023-05-25T01:04:14Z</time>
      </trkpt>
      <trkpt lat="49.46883" lon="2.43531">
        <ele>89</ele>
        <time>2023-05-25T01:04:17Z</time>
      </trkpt>
      <trkpt lat="49.46878" lon="2.4351">
        <ele>88</ele>
        <time>2023-05-25T01:04:20Z</time>
      </trkpt>
      <trkpt lat="49.46876" lon="2.43483">
        <ele>87</ele>
        <time>2023-05-25T01:04:23Z</time>
      </trkpt>
      <trkpt lat="49.46876" lon="2.43465">
        <ele>86</ele>
        <time>2023-05-25T01:04:25Z</time>
      </trkpt>
      <trkpt lat="49.46884" lon="2.43438">
        <ele>85</ele>
        <time>2023-05-25T01:04:29Z</time>
      </trkpt>
      <trkpt lat="49.46898" lon="2.43419">
        <ele>85</ele>
        <time>2023-05-25T01:04:32Z</time>
      </trkpt>
      <trkpt lat="49.4691" lon="2.43408">
        <ele>84</ele>
        <time>2023-05-25T01:04:34Z</time>
      </trkpt>
      <trkpt lat="49.4698" lon="2.43359">
        <ele>81</ele>
        <time>2023-05-25T01:04:48Z</time>
      </trkpt>
      <trkpt lat="49.4699" lon="2.4334">
        <ele>80</ele>
        <time>2023-05-25T01:04:51Z</time>
      </trkpt>
      <trkpt lat="49.47031" lon="2.4322">
        <ele>79</ele>
        <time>2023-05-25T01:05:07Z</time>
      </trkpt>
      <trkpt lat="49.47037" lon="2.43204">
        <ele>79</ele>
        <time>2023-05-25T01:05:09Z</time>
      </trkpt>
      <trkpt lat="49.47068" lon="2.43123">
        <ele>80</ele>
        <time>2023-05-25T01:05:20Z</time>
      </trkpt>
      <trkpt lat="49.47003" lon="2.43075">
        <ele>80</ele>
        <time>2023-05-25T01:05:32Z</time>
      </trkpt>
      <trkpt lat="49.46912" lon="2.43028">
        <ele>80</ele>
        <time>2023-05-25T01:05:49Z</time>
      </trkpt>
      <trkpt lat="49.46907" lon="2.43023">
        <ele>80</ele>
        <time>2023-05-25T01:05:50Z</time>
      </trkpt>
      <trkpt lat="49.46905" lon="2.43016">
        <ele>80</ele>
        <time>2023-05-25T01:05:51Z</time>
      </trkpt>
      <trkpt lat="49.46905" lon="2.43">
        <ele>80</ele>
        <time>2023-05-25T01:05:53Z</time>
      </trkpt>
      <trkpt lat="49.46916" lon="2.42932">
        <ele>81</ele>
        <time>2023-05-25T01:06:01Z</time>
      </trkpt>
      <trkpt lat="49.46916" lon="2.42904">
        <ele>81</ele>
        <time>2023-05-25T01:06:05Z</time>
      </trkpt>
      <trkpt lat="49.46912" lon="2.42876">
        <ele>83</ele>
        <time>2023-05-25T01:06:08Z</time>
      </trkpt>
      <trkpt lat="49.46904" lon="2.42841">
        <ele>84</ele>
        <time>2023-05-25T01:06:12Z</time>
      </trkpt>
      <trkpt lat="49.469" lon="2.42832">
        <ele>84</ele>
        <time>2023-05-25T01:06:13Z</time>
      </trkpt>
      <trkpt lat="49.46868" lon="2.42746">
        <ele>88</ele>
        <time>2023-05-25T01:06:25Z</time>
      </trkpt>
      <trkpt lat="49.46857" lon="2.42711">
        <ele>89</ele>
        <time>2023-05-25T01:06:29Z</time>
      </trkpt>
      <trkpt lat="49.46848" lon="2.42672">
        <ele>90</ele>
        <time>2023-05-25T01:06:34Z</time>
      </trkpt>
      <trkpt lat="49.46845" lon="2.42654">
        <ele>90</ele>
        <time>2023-05-25T01:06:36Z</time>
      </trkpt>
      <trkpt lat="49.46843" lon="2.42633">
        <ele>90</ele>
        <time>2023-05-25T01:06:39Z</time>
      </trkpt>
      <trkpt lat="49.46845" lon="2.42609">
        <ele>91</ele>
        <time>2023-05-25T01:06:42Z</time>
      </trkpt>
      <trkpt lat="49.46847" lon="2.42591">
        <ele>91</ele>
        <time>2023-05-25T01:06:44Z</time>
      </trkpt>
      <trkpt lat="49.4685" lon="2.42557">
        <ele>92</ele>
        <time>2023-05-25T01:06:48Z</time>
      </trkpt>
      <trkpt lat="49.46845" lon="2.42538">
        <ele>93</ele>
        <time>2023-05-25T01:06:50Z</time>
      </trkpt>
      <trkpt lat="49.46836" lon="2.42528">
        <ele>93</ele>
        <time>2023-05-25T01:06:52Z</time>
      </trkpt>
      <trkpt lat="49.46791" lon="2.42496">
        <ele>94</ele>
        <time>2023-05-25T01:07:01Z</time>
      </trkpt>
      <trkpt lat="49.46782" lon="2.42487">
        <ele>94</ele>
        <time>2023-05-25T01:07:03Z</time>
      </trkpt>
      <trkpt lat="49.46775" lon="2.42471">
        <ele>95</ele>
        <time>2023-05-25T01:07:05Z</time>
      </trkpt>
      <trkpt lat="49.4677" lon="2.42445">
        <ele>95</ele>
        <time>2023-05-25T01:07:08Z</time>
      </trkpt>
      <trkpt lat="49.46766" lon="2.42396">
        <ele>96</ele>
        <time>2023-05-25T01:07:14Z</time>
      </trkpt>
      <trkpt lat="49.46757" lon="2.42225">
        <ele>100</ele>
        <time>2023-05-25T01:07:34Z</time>
      </trkpt>
      <trkpt lat="49.46755" lon="2.42167">
        <ele>100</ele>
        <time>2023-05-25T01:07:40Z</time>
      </trkpt>
      <trkpt lat="49.46756" lon="2.41853">
        <ele>110</ele>
        <time>2023-05-25T01:08:17Z</time>
      </trkpt>
      <trkpt lat="49.46749" lon="2.41737">
        <ele>115</ele>
        <time>2023-05-25T01:08:30Z</time>
      </trkpt>
      <trkpt lat="49.46748" lon="2.41659">
        <ele>117</ele>
        <time>2023-05-25T01:08:39Z</time>
      </trkpt>
      <trkpt lat="49.46752" lon="2.41601">
        <ele>116</ele>
        <time>2023-05-25T01:08:46Z</time>
      </trkpt>
      <trkpt lat="49.46754" lon="2.4158">
        <ele>115</ele>
        <time>2023-05-25T01:08:48Z</time>
      </trkpt>
      <trkpt lat="49.46777" lon="2.41478">
        <ele>114</ele>
        <time>2023-05-25T01:09:01Z</time>
      </trkpt>
      <trkpt lat="49.46787" lon="2.41423">
        <ele>114</ele>
        <time>2023-05-25T01:09:07Z</time>
      </trkpt>
      <trkpt lat="49.46789" lon="2.41389">
        <ele>114</ele>
        <time>2023-05-25T01:09:11Z</time>
      </trkpt>
      <trkpt lat="49.46789" lon="2.41361">
        <ele>114</ele>
        <time>2023-05-25T01:09:15Z</time>
      </trkpt>
      <trkpt lat="49.46784" lon="2.41294">
        <ele>114</ele>
        <time>2023-05-25T01:09:22Z</time>
      </trkpt>
      <trkpt lat="49.46784" lon="2.4127">
        <ele>114</ele>
        <time>2023-05-25T01:09:25Z</time>
      </trkpt>
      <trkpt lat="49.46787" lon="2.41244">
        <ele>115</ele>
        <time>2023-05-25T01:09:28Z</time>
      </trkpt>
      <trkpt lat="49.46804" lon="2.41156">
        <ele>120</ele>
        <time>2023-05-25T01:09:39Z</time>
      </trkpt>
      <trkpt lat="49.46816" lon="2.41111">
        <ele>121</ele>
        <time>2023-05-25T01:09:45Z</time>
      </trkpt>
      <trkpt lat="49.46834" lon="2.41059">
        <ele>122</ele>
        <time>2023-05-25T01:09:51Z</time>
      </trkpt>
      <trkpt lat="49.46853" lon="2.41011">
        <ele>123</ele>
        <time>2023-05-25T01:09:58Z</time>
      </trkpt>
      <trkpt lat="49.46969" lon="2.40751">
        <ele>129</ele>
        <time>2023-05-25T01:10:34Z</time>
      </trkpt>
      <trkpt lat="49.47061" lon="2.40535">
        <ele>137</ele>
        <time>2023-05-25T01:11:04Z</time>
      </trkpt>
      <trkpt lat="49.47117" lon="2.40407">
        <ele>139</ele>
        <time>2023-05-25T01:11:22Z</time>
      </trkpt>
      <trkpt lat="49.47126" lon="2.40382">
        <ele>140</ele>
        <time>2023-05-25T01:11:25Z</time>
      </trkpt>
      <trkpt lat="49.47129" lon="2.40364">
        <ele>140</ele>
        <time>2023-05-25T01:11:27Z</time>
      </trkpt>
      <trkpt lat="49.4713" lon="2.40349">
        <ele>140</ele>
        <time>2023-05-25T01:11:29Z</time>
      </trkpt>
      <trkpt lat="49.47128" lon="2.4033">
        <ele>140</ele>
        <time>2023-05-25T01:11:31Z</time>
      </trkpt>
      <trkpt lat="49.47124" lon="2.40315">
        <ele>140</ele>
        <time>2023-05-25T01:11:33Z</time>
      </trkpt>
      <trkpt lat="49.47112" lon="2.40294">
        <ele>142</ele>
        <time>2023-05-25T01:11:37Z</time>
      </trkpt>
      <trkpt lat="49.47065" lon="2.4023">
        <ele>145</ele>
        <time>2023-05-25T01:11:48Z</time>
      </trkpt>
      <trkpt lat="49.47031" lon="2.40179">
        <ele>147</ele>
        <time>2023-05-25T01:11:56Z</time>
      </trkpt>
      <trkpt lat="49.47021" lon="2.40158">
        <ele>148</ele>
        <time>2023-05-25T01:11:59Z</time>
      </trkpt>
      <trkpt lat="49.47014" lon="2.40136">
        <ele>148</ele>
        <time>2023-05-25T01:12:02Z</time>
      </trkpt>
      <trkpt lat="49.47011" lon="2.40095">
        <ele>148</ele>
        <time>2023-05-25T01:12:07Z</time>
      </trkpt>
      <trkpt lat="49.47064" lon="2.39761">
        <ele>146</ele>
        <time>2023-05-25T01:12:46Z</time>
      </trkpt>
      <trkpt lat="49.47071" lon="2.39697">
        <ele>146</ele>
        <time>2023-05-25T01:12:54Z</time>
      </trkpt>
      <trkpt lat="49.47071" lon="2.39662">
        <ele>146</ele>
        <time>2023-05-25T01:12:58Z</time>
      </trkpt>
      <trkpt lat="49.47069" lon="2.39624">
        <ele>145</ele>
        <time>2023-05-25T01:13:02Z</time>
      </trkpt>
      <trkpt lat="49.47065" lon="2.3959">
        <ele>145</ele>
        <time>2023-05-25T01:13:06Z</time>
      </trkpt>
      <trkpt lat="49.47044" lon="2.39471">
        <ele>145</ele>
        <time>2023-05-25T01:13:21Z</time>
      </trkpt>
      <trkpt lat="49.47041" lon="2.39447">
        <ele>146</ele>
        <time>2023-05-25T01:13:24Z</time>
      </trkpt>
      <trkpt lat="49.47043" lon="2.39412">
        <ele>147</ele>
        <time>2023-05-25T01:13:28Z</time>
      </trkpt>
      <trkpt lat="49.47088" lon="2.38932">
        <ele>135</ele>
        <time>2023-05-25T01:14:24Z</time>
      </trkpt>
      <trkpt lat="49.47108" lon="2.38897">
        <ele>132</ele>
        <time>2023-05-25T01:14:29Z</time>
      </trkpt>
      <trkpt lat="49.47172" lon="2.38823">
        <ele>126</ele>
        <time>2023-05-25T01:14:43Z</time>
      </trkpt>
      <trkpt lat="49.47189" lon="2.38803">
        <ele>125</ele>
        <time>2023-05-25T01:14:47Z</time>
      </trkpt>
      <trkpt lat="49.47228" lon="2.38734">
        <ele>123</ele>
        <time>2023-05-25T01:14:58Z</time>
      </trkpt>
      <trkpt lat="49.47262" lon="2.38654">
        <ele>125</ele>
        <time>2023-05-25T01:15:09Z</time>
      </trkpt>
      <trkpt lat="49.47268" lon="2.38636">
        <ele>125</ele>
        <time>2023-05-25T01:15:11Z</time>
      </trkpt>
      <trkpt lat="49.47285" lon="2.38632">
        <ele>127</ele>
        <time>2023-05-25T01:15:14Z</time>
      </trkpt>
      <trkpt lat="49.4734" lon="2.38637">
        <ele>132</ele>
        <time>2023-05-25T01:15:24Z</time>
      </trkpt>
      <trkpt lat="49.47367" lon="2.38644">
        <ele>134</ele>
        <time>2023-05-25T01:15:29Z</time>
      </trkpt>
      <trkpt lat="49.47406" lon="2.38649">
        <ele>138</ele>
        <time>2023-05-25T01:15:36Z</time>
      </trkpt>
      <trkpt lat="49.47478" lon="2.38653">
        <ele>143</ele>
        <time>2023-05-25T01:15:49Z</time>
      </trkpt>
      <trkpt lat="49.47502" lon="2.3867">
        <ele>145</ele>
        <time>2023-05-25T01:15:53Z</time>
      </trkpt>
      <trkpt lat="49.47558" lon="2.387">
        <ele>147</ele>
        <time>2023-05-25T01:16:04Z</time>
      </trkpt>
      <trkpt lat="49.47592" lon="2.38743">
        <ele>149</ele>
        <time>2023-05-25T01:16:12Z</time>
      </trkpt>
      <trkpt lat="49.47616" lon="2.38784">
        <ele>149</ele>
        <time>2023-05-25T01:16:18Z</time>
      </trkpt>
      <trkpt lat="49.47684" lon="2.38861">
        <ele>151</ele>
        <time>2023-05-25T01:16:33Z</time>
      </trkpt>
      <trkpt lat="49.47766" lon="2.38939">
        <ele>152</ele>
        <time>2023-05-25T01:16:50Z</time>
      </trkpt>
      <trkpt lat="49.47869" lon="2.39049">
        <ele>154</ele>
        <time>2023-05-25T01:17:13Z</time>
      </trkpt>
      <trkpt lat="49.47894" lon="2.39083">
        <ele>155</ele>
        <time>2023-05-25T01:17:18Z</time>
      </trkpt>
      <trkpt lat="49.47916" lon="2.39142">
        <ele>155</ele>
        <time>2023-05-25T01:17:26Z</time>
      </trkpt>
      <trkpt lat="49.4816" lon="2.39735">
        <ele>160</ele>
        <time>2023-05-25T01:18:47Z</time>
      </trkpt>
      <trkpt lat="49.48179" lon="2.39775">
        <ele>160</ele>
        <time>2023-05-25T01:18:53Z</time>
      </trkpt>
      <trkpt lat="49.48192" lon="2.39792">
        <ele>159</ele>
        <time>2023-05-25T01:18:56Z</time>
      </trkpt>
      <trkpt lat="49.48209" lon="2.39801">
        <ele>160</ele>
        <time>2023-05-25T01:18:59Z</time>
      </trkpt>
      <trkpt lat="49.48236" lon="2.39803">
        <ele>161</ele>
        <time>2023-05-25T01:19:04Z</time>
      </trkpt>
      <trkpt lat="49.48289" lon="2.39799">
        <ele>164</ele>
        <time>2023-05-25T01:19:14Z</time>
      </trkpt>
      <trkpt lat="49.48334" lon="2.3981">
        <ele>164</ele>
        <time>2023-05-25T01:19:22Z</time>
      </trkpt>
      <trkpt lat="49.48539" lon="2.39875">
        <ele>170</ele>
        <time>2023-05-25T01:19:59Z</time>
      </trkpt>
      <trkpt lat="49.48569" lon="2.3989">
        <ele>170</ele>
        <time>2023-05-25T01:20:05Z</time>
      </trkpt>
      <trkpt lat="49.48612" lon="2.39922">
        <ele>172</ele>
        <time>2023-05-25T01:20:13Z</time>
      </trkpt>
      <trkpt lat="49.48676" lon="2.39983">
        <ele>172</ele>
        <time>2023-05-25T01:20:27Z</time>
      </trkpt>
      <trkpt lat="49.4872" lon="2.40018">
        <ele>176</ele>
        <time>2023-05-25T01:20:35Z</time>
      </trkpt>
      <trkpt lat="49.48741" lon="2.40037">
        <ele>178</ele>
        <time>2023-05-25T01:20:40Z</time>
      </trkpt>
      <trkpt lat="49.48845" lon="2.40124">
        <ele>178</ele>
        <time>2023-05-25T01:21:01Z</time>
      </trkpt>
      <trkpt lat="49.48939" lon="2.40196">
        <ele>178</ele>
        <time>2023-05-25T01:21:19Z</time>
      </trkpt>
      <trkpt lat="49.48978" lon="2.40207">
        <ele>176</ele>
        <time>2023-05-25T01:21:26Z</time>
      </trkpt>
      <trkpt lat="49.49015" lon="2.40228">
        <ele>175</ele>
        <time>2023-05-25T01:21:33Z</time>
      </trkpt>
      <trkpt lat="49.49025" lon="2.40236">
        <ele>175</ele>
        <time>2023-05-25T01:21:36Z</time>
      </trkpt>
      <trkpt lat="49.49136" lon="2.40353">
        <ele>170</ele>
        <time>2023-05-25T01:21:59Z</time>
      </trkpt>
      <trkpt lat="49.49163" lon="2.40387">
        <ele>169</ele>
        <time>2023-05-25T01:22:06Z</time>
      </trkpt>
      <trkpt lat="49.49261" lon="2.40576">
        <ele>167</ele>
        <time>2023-05-25T01:22:34Z</time>
      </trkpt>
      <trkpt lat="49.49309" lon="2.40676">
        <ele>166</ele>
        <time>2023-05-25T01:22:48Z</time>
      </trkpt>
      <trkpt lat="49.49337" lon="2.40714">
        <ele>165</ele>
        <time>2023-05-25T01:22:55Z</time>
      </trkpt>
      <trkpt lat="49.49424" lon="2.40793">
        <ele>162</ele>
        <time>2023-05-25T01:23:13Z</time>
      </trkpt>
      <trkpt lat="49.49438" lon="2.40811">
        <ele>162</ele>
        <time>2023-05-25T01:23:16Z</time>
      </trkpt>
      <trkpt lat="49.49454" lon="2.40854">
        <ele>161</ele>
        <time>2023-05-25T01:23:22Z</time>
      </trkpt>
      <trkpt lat="49.49466" lon="2.40872">
        <ele>160</ele>
        <time>2023-05-25T01:23:25Z</time>
      </trkpt>
      <trkpt lat="49.49498" lon="2.40894">
        <ele>159</ele>
        <time>2023-05-25T01:23:31Z</time>
      </trkpt>
      <trkpt lat="49.49544" lon="2.4093">
        <ele>159</ele>
        <time>2023-05-25T01:23:40Z</time>
      </trkpt>
      <trkpt lat="49.49614" lon="2.41002">
        <ele>155</ele>
        <time>2023-05-25T01:23:55Z</time>
      </trkpt>
      <trkpt lat="49.49626" lon="2.41025">
        <ele>154</ele>
        <time>2023-05-25T01:23:58Z</time>
      </trkpt>
      <trkpt lat="49.49655" lon="2.41073">
        <ele>150</ele>
        <time>2023-05-25T01:24:06Z</time>
      </trkpt>
      <trkpt lat="49.4981" lon="2.41172">
        <ele>144</ele>
        <time>2023-05-25T01:24:36Z</time>
      </trkpt>
      <trkpt lat="49.4984" lon="2.41189">
        <ele>143</ele>
        <time>2023-05-25T01:24:41Z</time>
      </trkpt>
      <trkpt lat="49.49856" lon="2.41205">
        <ele>143</ele>
        <time>2023-05-25T01:24:45Z</time>
      </trkpt>
      <trkpt lat="49.49864" lon="2.41226">
        <ele>142</ele>
        <time>2023-05-25T01:24:48Z</time>
      </trkpt>
      <trkpt lat="49.49906" lon="2.41347">
        <ele>139</ele>
        <time>2023-05-25T01:25:04Z</time>
      </trkpt>
      <trkpt lat="49.50021" lon="2.41587">
        <ele>135</ele>
        <time>2023-05-25T01:25:38Z</time>
      </trkpt>
      <trkpt lat="49.50136" lon="2.41818">
        <ele>128</ele>
        <time>2023-05-25T01:26:12Z</time>
      </trkpt>
      <trkpt lat="49.5016" lon="2.4186">
        <ele>126</ele>
        <time>2023-05-25T01:26:18Z</time>
      </trkpt>
      <trkpt lat="49.50253" lon="2.41977">
        <ele>117</ele>
        <time>2023-05-25T01:26:39Z</time>
      </trkpt>
      <trkpt lat="49.50311" lon="2.42036">
        <ele>115</ele>
        <time>2023-05-25T01:26:52Z</time>
      </trkpt>
      <trkpt lat="49.50332" lon="2.4206">
        <ele>115</ele>
        <time>2023-05-25T01:26:56Z</time>
      </trkpt>
      <trkpt lat="49.50336" lon="2.42062">
        <ele>115</ele>
        <time>2023-05-25T01:26:57Z</time>
      </trkpt>
      <trkpt lat="49.50376" lon="2.42225">
        <ele>126</ele>
        <time>2023-05-25T01:27:17Z</time>
      </trkpt>
      <trkpt lat="49.50384" lon="2.42264">
        <ele>128</ele>
        <time>2023-05-25T01:27:22Z</time>
      </trkpt>
      <trkpt lat="49.50396" lon="2.42361">
        <ele>127</ele>
        <time>2023-05-25T01:27:33Z</time>
      </trkpt>
      <trkpt lat="49.50403" lon="2.42406">
        <ele>125</ele>
        <time>2023-05-25T01:27:39Z</time>
      </trkpt>
      <trkpt lat="49.50462" lon="2.42677">
        <ele>114</ele>
        <time>2023-05-25T01:28:12Z</time>
      </trkpt>
      <trkpt lat="49.50462" lon="2.42679">
        <ele>114</ele>
        <time>2023-05-25T01:28:12Z</time>
      </trkpt>
      <trkpt lat="49.5053" lon="2.42647">
        <ele>116</ele>
        <time>2023-05-25T01:28:25Z</time>
      </trkpt>
      <trkpt lat="49.50544" lon="2.42633">
        <ele>117</ele>
        <time>2023-05-25T01:28:28Z</time>
      </trkpt>
      <trkpt lat="49.50557" lon="2.426">
        <ele>119</ele>
        <time>2023-05-25T01:28:32Z</time>
      </trkpt>
      <trkpt lat="49.50563" lon="2.42575">
        <ele>120</ele>
        <time>2023-05-25T01:28:35Z</time>
      </trkpt>
      <trkpt lat="49.50574" lon="2.42503">
        <ele>124</ele>
        <time>2023-05-25T01:28:44Z</time>
      </trkpt>
      <trkpt lat="49.50587" lon="2.42389">
        <ele>128</ele>
        <time>2023-05-25T01:28:57Z</time>
      </trkpt>
      <trkpt lat="49.50589" lon="2.4219">
        <ele>135</ele>
        <time>2023-05-25T01:29:20Z</time>
      </trkpt>
      <trkpt lat="49.50592" lon="2.42161">
        <ele>135</ele>
        <time>2023-05-25T01:29:24Z</time>
      </trkpt>
      <trkpt lat="49.50598" lon="2.42132">
        <ele>135</ele>
        <time>2023-05-25T01:29:27Z</time>
      </trkpt>
      <trkpt lat="49.50606" lon="2.42101">
        <ele>135</ele>
        <time>2023-05-25T01:29:31Z</time>
      </trkpt>
      <trkpt lat="49.50619" lon="2.42067">
        <ele>135</ele>
        <time>2023-05-25T01:29:35Z</time>
      </trkpt>
      <trkpt lat="49.50634" lon="2.42038">
        <ele>135</ele>
        <time>2023-05-25T01:29:40Z</time>
      </trkpt>
      <trkpt lat="49.50646" lon="2.42021">
        <ele>136</ele>
        <time>2023-05-25T01:29:43Z</time>
      </trkpt>
      <trkpt lat="49.50692" lon="2.41975">
        <ele>137</ele>
        <time>2023-05-25T01:29:52Z</time>
      </trkpt>
      <trkpt lat="49.50725" lon="2.41959">
        <ele>138</ele>
        <time>2023-05-25T01:29:59Z</time>
      </trkpt>
      <trkpt lat="49.50793" lon="2.41943">
        <ele>136</ele>
        <time>2023-05-25T01:30:11Z</time>
      </trkpt>
      <trkpt lat="49.50817" lon="2.41777">
        <ele>136</ele>
        <time>2023-05-25T01:30:30Z</time>
      </trkpt>
      <trkpt lat="49.50825" lon="2.41707">
        <ele>136</ele>
        <time>2023-05-25T01:30:39Z</time>
      </trkpt>
      <trkpt lat="49.50829" lon="2.4163">
        <ele>138</ele>
        <time>2023-05-25T01:30:48Z</time>
      </trkpt>
      <trkpt lat="49.50833" lon="2.41446">
        <ele>139</ele>
        <time>2023-05-25T01:31:09Z</time>
      </trkpt>
      <trkpt lat="49.50837" lon="2.41416">
        <ele>138</ele>
        <time>2023-05-25T01:31:12Z</time>
      </trkpt>
      <trkpt lat="49.50865" lon="2.41313">
        <ele>137</ele>
        <time>2023-05-25T01:31:25Z</time>
      </trkpt>
      <trkpt lat="49.5089" lon="2.41202">
        <ele>137</ele>
        <time>2023-05-25T01:31:39Z</time>
      </trkpt>
      <trkpt lat="49.50912" lon="2.41097">
        <ele>136</ele>
        <time>2023-05-25T01:31:52Z</time>
      </trkpt>
      <trkpt lat="49.50942" lon="2.40911">
        <ele>136</ele>
        <time>2023-05-25T01:32:14Z</time>
      </trkpt>
      <trkpt lat="49.50959" lon="2.40823">
        <ele>135</ele>
        <time>2023-05-25T01:32:24Z</time>
      </trkpt>
      <trkpt lat="49.50977" lon="2.40763">
        <ele>134</ele>
        <time>2023-05-25T01:32:32Z</time>
      </trkpt>
      <trkpt lat="49.50998" lon="2.40709">
        <ele>134</ele>
        <time>2023-05-25T01:32:39Z</time>
      </trkpt>
      <trkpt lat="49.51235" lon="2.40234">
        <ele>134</ele>
        <time>2023-05-25T01:33:49Z</time>
      </trkpt>
      <trkpt lat="49.5127" lon="2.40147">
        <ele>134</ele>
        <time>2023-05-25T01:34:00Z</time>
      </trkpt>
      <trkpt lat="49.51287" lon="2.40102">
        <ele>134</ele>
        <time>2023-05-25T01:34:06Z</time>
      </trkpt>
      <trkpt lat="49.51294" lon="2.40076">
        <ele>134</ele>
        <time>2023-05-25T01:34:10Z</time>
      </trkpt>
      <trkpt lat="49.51299" lon="2.40044">
        <ele>134</ele>
        <time>2023-05-25T01:34:13Z</time>
      </trkpt>
      <trkpt lat="49.51314" lon="2.39876">
        <ele>134</ele>
        <time>2023-05-25T01:34:33Z</time>
      </trkpt>
      <trkpt lat="49.5133" lon="2.39659">
        <ele>136</ele>
        <time>2023-05-25T01:34:58Z</time>
      </trkpt>
      <trkpt lat="49.51343" lon="2.39523">
        <ele>136</ele>
        <time>2023-05-25T01:35:14Z</time>
      </trkpt>
      <trkpt lat="49.51383" lon="2.39185">
        <ele>137</ele>
        <time>2023-05-25T01:35:54Z</time>
      </trkpt>
      <trkpt lat="49.5139" lon="2.39098">
        <ele>137</ele>
        <time>2023-05-25T01:36:04Z</time>
      </trkpt>
      <trkpt lat="49.51391" lon="2.39007">
        <ele>138</ele>
        <time>2023-05-25T01:36:14Z</time>
      </trkpt>
      <trkpt lat="49.51396" lon="2.38943">
        <ele>139</ele>
        <time>2023-05-25T01:36:22Z</time>
      </trkpt>
      <trkpt lat="49.51467" lon="2.38604">
        <ele>138</ele>
        <time>2023-05-25T01:37:03Z</time>
      </trkpt>
      <trkpt lat="49.51494" lon="2.38469">
        <ele>138</ele>
        <time>2023-05-25T01:37:19Z</time>
      </trkpt>
      <trkpt lat="49.51502" lon="2.38244">
        <ele>139</ele>
        <time>2023-05-25T01:37:45Z</time>
      </trkpt>
      <trkpt lat="49.51504" lon="2.38206">
        <ele>139</ele>
        <time>2023-05-25T01:37:50Z</time>
      </trkpt>
      <trkpt lat="49.51542" lon="2.37957">
        <ele>141</ele>
        <time>2023-05-25T01:38:19Z</time>
      </trkpt>
      <trkpt lat="49.51551" lon="2.37866">
        <ele>143</ele>
        <time>2023-05-25T01:38:30Z</time>
      </trkpt>
      <trkpt lat="49.51556" lon="2.37775">
        <ele>145</ele>
        <time>2023-05-25T01:38:41Z</time>
      </trkpt>
      <trkpt lat="49.51563" lon="2.37632">
        <ele>147</ele>
        <time>2023-05-25T01:38:57Z</time>
      </trkpt>
      <trkpt lat="49.51567" lon="2.3759">
        <ele>147</ele>
        <time>2023-05-25T01:39:02Z</time>
      </trkpt>
      <trkpt lat="49.5158" lon="2.37503">
        <ele>148</ele>
        <time>2023-05-25T01:39:12Z</time>
      </trkpt>
      <trkpt lat="49.51597" lon="2.37421">
        <ele>149</ele>
        <time>2023-05-25T01:39:22Z</time>
      </trkpt>
      <trkpt lat="49.516" lon="2.37382">
        <ele>150</ele>
        <time>2023-05-25T01:39:27Z</time>
      </trkpt>
      <trkpt lat="49.51601" lon="2.37277">
        <ele>150</ele>
        <time>2023-05-25T01:39:39Z</time>
      </trkpt>
      <trkpt lat="49.51614" lon="2.37169">
        <ele>151</ele>
        <time>2023-05-25T01:39:52Z</time>
      </trkpt>
      <trkpt lat="49.5162" lon="2.37143">
        <ele>151</ele>
        <time>2023-05-25T01:39:55Z</time>
      </trkpt>
      <trkpt lat="49.51638" lon="2.37088">
        <ele>151</ele>
        <time>2023-05-25T01:40:02Z</time>
      </trkpt>
      <trkpt lat="49.51678" lon="2.37007">
        <ele>149</ele>
        <time>2023-05-25T01:40:14Z</time>
      </trkpt>
      <trkpt lat="49.51694" lon="2.36969">
        <ele>149</ele>
        <time>2023-05-25T01:40:19Z</time>
      </trkpt>
      <trkpt lat="49.5171" lon="2.36959">
        <ele>148</ele>
        <time>2023-05-25T01:40:22Z</time>
      </trkpt>
      <trkpt lat="49.51744" lon="2.36943">
        <ele>147</ele>
        <time>2023-05-25T01:40:28Z</time>
      </trkpt>
      <trkpt lat="49.51756" lon="2.36924">
        <ele>147</ele>
        <time>2023-05-25T01:40:31Z</time>
      </trkpt>
      <trkpt lat="49.51768" lon="2.36884">
        <ele>146</ele>
        <time>2023-05-25T01:40:36Z</time>
      </trkpt>
      <trkpt lat="49.51803" lon="2.36746">
        <ele>145</ele>
        <time>2023-05-25T01:40:54Z</time>
      </trkpt>
      <trkpt lat="49.5193" lon="2.36853">
        <ele>139</ele>
        <time>2023-05-25T01:41:19Z</time>
      </trkpt>
      <trkpt lat="49.51964" lon="2.36886">
        <ele>139</ele>
        <time>2023-05-25T01:41:26Z</time>
      </trkpt>
      <trkpt lat="49.52007" lon="2.36908">
        <ele>138</ele>
        <time>2023-05-25T01:41:35Z</time>
      </trkpt>
      <trkpt lat="49.52016" lon="2.36903">
        <ele>138</ele>
        <time>2023-05-25T01:41:36Z</time>
      </trkpt>
      <trkpt lat="49.52072" lon="2.36834">
        <ele>136</ele>
        <time>2023-05-25T01:41:49Z</time>
      </trkpt>
      <trkpt lat="49.52103" lon="2.36813">
        <ele>136</ele>
        <time>2023-05-25T01:41:55Z</time>
      </trkpt>
      <trkpt lat="49.52143" lon="2.36793">
        <ele>135</ele>
        <time>2023-05-25T01:42:02Z</time>
      </trkpt>
      <trkpt lat="49.52157" lon="2.36783">
        <ele>135</ele>
        <time>2023-05-25T01:42:05Z</time>
      </trkpt>
      <trkpt lat="49.5217" lon="2.36767">
        <ele>135</ele>
        <time>2023-05-25T01:42:08Z</time>
      </trkpt>
      <trkpt lat="49.52215" lon="2.36637">
        <ele>134</ele>
        <time>2023-05-25T01:42:25Z</time>
      </trkpt>
      <trkpt lat="49.52281" lon="2.36527">
        <ele>135</ele>
        <time>2023-05-25T01:42:43Z</time>
      </trkpt>
      <trkpt lat="49.52305" lon="2.36541">
        <ele>135</ele>
        <time>2023-05-25T01:42:47Z</time>
      </trkpt>
      <trkpt lat="49.52346" lon="2.36542">
        <ele>134</ele>
        <time>2023-05-25T01:42:54Z</time>
      </trkpt>
      <trkpt lat="49.52368" lon="2.36527">
        <ele>135</ele>
        <time>2023-05-25T01:42:59Z</time>
      </trkpt>
      <trkpt lat="49.52383" lon="2.36502">
        <ele>135</ele>
        <time>2023-05-25T01:43:03Z</time>
      </trkpt>
      <trkpt lat="49.52393" lon="2.3648">
        <ele>135</ele>
        <time>2023-05-25T01:43:06Z</time>
      </trkpt>
      <trkpt lat="49.52442" lon="2.36359">
        <ele>132</ele>
        <time>2023-05-25T01:43:22Z</time>
      </trkpt>
      <trkpt lat="49.52458" lon="2.36331">
        <ele>131</ele>
        <time>2023-05-25T01:43:26Z</time>
      </trkpt>
      <trkpt lat="49.52512" lon="2.36252">
        <ele>130</ele>
        <time>2023-05-25T01:43:40Z</time>
      </trkpt>
      <trkpt lat="49.52711" lon="2.35887">
        <ele>126</ele>
        <time>2023-05-25T01:44:35Z</time>
      </trkpt>
      <trkpt lat="49.52743" lon="2.35841">
        <ele>124</ele>
        <time>2023-05-25T01:44:43Z</time>
      </trkpt>
      <trkpt lat="49.52793" lon="2.35797">
        <ele>125</ele>
        <time>2023-05-25T01:44:53Z</time>
      </trkpt>
      <trkpt lat="49.53103" lon="2.3563">
        <ele>120</ele>
        <time>2023-05-25T01:45:51Z</time>
      </trkpt>
      <trkpt lat="49.53127" lon="2.35611">
        <ele>120</ele>
        <time>2023-05-25T01:45:56Z</time>
      </trkpt>
      <trkpt lat="49.53154" lon="2.35576">
        <ele>119</ele>
        <time>2023-05-25T01:46:02Z</time>
      </trkpt>
      <trkpt lat="49.53176" lon="2.35521">
        <ele>118</ele>
        <time>2023-05-25T01:46:10Z</time>
      </trkpt>
      <trkpt lat="49.53291" lon="2.35279">
        <ele>116</ele>
        <time>2023-05-25T01:46:44Z</time>
      </trkpt>
      <trkpt lat="49.53395" lon="2.35054">
        <ele>121</ele>
        <time>2023-05-25T01:47:16Z</time>
      </trkpt>
      <trkpt lat="49.53421" lon="2.34975">
        <ele>123</ele>
        <time>2023-05-25T01:47:27Z</time>
      </trkpt>
      <trkpt lat="49.53426" lon="2.34926">
        <ele>124</ele>
        <time>2023-05-25T01:47:32Z</time>
      </trkpt>
      <trkpt lat="49.53453" lon="2.34756">
        <ele>126</ele>
        <time>2023-05-25T01:47:52Z</time>
      </trkpt>
      <trkpt lat="49.53475" lon="2.3465">
        <ele>128</ele>
        <time>2023-05-25T01:48:05Z</time>
      </trkpt>
      <trkpt lat="49.53517" lon="2.34522">
        <ele>129</ele>
        <time>2023-05-25T01:48:22Z</time>
      </trkpt>
      <trkpt lat="49.53565" lon="2.34392">
        <ele>131</ele>
        <time>2023-05-25T01:48:39Z</time>
      </trkpt>
      <trkpt lat="49.53579" lon="2.34327">
        <ele>133</ele>
        <time>2023-05-25T01:48:47Z</time>
      </trkpt>
      <trkpt lat="49.53674" lon="2.33824">
        <ele>136</ele>
        <time>2023-05-25T01:49:48Z</time>
      </trkpt>
      <trkpt lat="49.5383" lon="2.33178">
        <ele>144</ele>
        <time>2023-05-25T01:51:07Z</time>
      </trkpt>
      <trkpt lat="49.53915" lon="2.32657">
        <ele>154</ele>
        <time>2023-05-25T01:52:09Z</time>
      </trkpt>
      <trkpt lat="49.53923" lon="2.32623">
        <ele>155</ele>
        <time>2023-05-25T01:52:13Z</time>
      </trkpt>
      <trkpt lat="49.53938" lon="2.32581">
        <ele>156</ele>
        <time>2023-05-25T01:52:19Z</time>
      </trkpt>
      <trkpt lat="49.5407" lon="2.3231">
        <ele>155</ele>
        <time>2023-05-25T01:52:58Z</time>
      </trkpt>
      <trkpt lat="49.54111" lon="2.32253">
        <ele>155</ele>
        <time>2023-05-25T01:53:08Z</time>
      </trkpt>
      <trkpt lat="49.54252" lon="2.32071">
        <ele>154</ele>
        <time>2023-05-25T01:53:41Z</time>
      </trkpt>
      <trkpt lat="49.54307" lon="2.32001">
        <ele>156</ele>
        <time>2023-05-25T01:53:53Z</time>
      </trkpt>
      <trkpt lat="49.54318" lon="2.31983">
        <ele>156</ele>
        <time>2023-05-25T01:53:56Z</time>
      </trkpt>
      <trkpt lat="49.54361" lon="2.31863">
        <ele>158</ele>
        <time>2023-05-25T01:54:12Z</time>
      </trkpt>
      <trkpt lat="49.54388" lon="2.31803">
        <ele>157</ele>
        <time>2023-05-25T01:54:20Z</time>
      </trkpt>
      <trkpt lat="49.5438" lon="2.31775">
        <ele>156</ele>
        <time>2023-05-25T01:54:24Z</time>
      </trkpt>
      <trkpt lat="49.54357" lon="2.3171">
        <ele>155</ele>
        <time>2023-05-25T01:54:32Z</time>
      </trkpt>
      <trkpt lat="49.54331" lon="2.31703">
        <ele>155</ele>
        <time>2023-05-25T01:54:37Z</time>
      </trkpt>
      <trkpt lat="49.54312" lon="2.31694">
        <ele>155</ele>
        <time>2023-05-25T01:54:41Z</time>
      </trkpt>
      <trkpt lat="49.54263" lon="2.31641">
        <ele>156</ele>
        <time>2023-05-25T01:54:51Z</time>
      </trkpt>
      <trkpt lat="49.54186" lon="2.3154">
        <ele>157</ele>
        <time>2023-05-25T01:55:09Z</time>
      </trkpt>
      <trkpt lat="49.541" lon="2.31405">
        <ele>158</ele>
        <time>2023-05-25T01:55:31Z</time>
      </trkpt>
      <trkpt lat="49.54025" lon="2.31294">
        <ele>159</ele>
        <time>2023-05-25T01:55:50Z</time>
      </trkpt>
      <trkpt lat="49.53981" lon="2.31318">
        <ele>159</ele>
        <time>2023-05-25T01:55:58Z</time>
      </trkpt>
      <trkpt lat="49.53951" lon="2.31351">
        <ele>159</ele>
        <time>2023-05-25T01:56:05Z</time>
      </trkpt>
      <trkpt lat="49.53907" lon="2.31319">
        <ele>158</ele>
        <time>2023-05-25T01:56:13Z</time>
      </trkpt>
      <trkpt lat="49.53862" lon="2.31275">
        <ele>156</ele>
        <time>2023-05-25T01:56:23Z</time>
      </trkpt>
      <trkpt lat="49.53848" lon="2.31258">
        <ele>155</ele>
        <time>2023-05-25T01:56:26Z</time>
      </trkpt>
      <trkpt lat="49.53758" lon="2.31177">
        <ele>148</ele>
        <time>2023-05-25T01:56:44Z</time>
      </trkpt>
      <trkpt lat="49.53739" lon="2.31144">
        <ele>147</ele>
        <time>2023-05-25T01:56:49Z</time>
      </trkpt>
      <trkpt lat="49.53712" lon="2.30983">
        <ele>149</ele>
        <time>2023-05-25T01:57:09Z</time>
      </trkpt>
      <trkpt lat="49.53686" lon="2.30911">
        <ele>150</ele>
        <time>2023-05-25T01:57:18Z</time>
      </trkpt>
      <trkpt lat="49.53645" lon="2.30809">
        <ele>157</ele>
        <time>2023-05-25T01:57:32Z</time>
      </trkpt>
      <trkpt lat="49.53626" lon="2.30716">
        <ele>162</ele>
        <time>2023-05-25T01:57:43Z</time>
      </trkpt>
      <trkpt lat="49.53592" lon="2.3064">
        <ele>162</ele>
        <time>2023-05-25T01:57:54Z</time>
      </trkpt>
      <trkpt lat="49.53471" lon="2.30443">
        <ele>163</ele>
        <time>2023-05-25T01:58:25Z</time>
      </trkpt>
      <trkpt lat="49.53382" lon="2.3016">
        <ele>165</ele>
        <time>2023-05-25T01:59:02Z</time>
      </trkpt>
      <trkpt lat="49.53207" lon="2.29876">
        <ele>162</ele>
        <time>2023-05-25T01:59:47Z</time>
      </trkpt>
      <trkpt lat="49.53172" lon="2.29817">
        <ele>162</ele>
        <time>2023-05-25T01:59:56Z</time>
      </trkpt>
      <trkpt lat="49.53155" lon="2.29694">
        <ele>159</ele>
        <time>2023-05-25T02:00:11Z</time>
      </trkpt>
      <trkpt lat="49.53143" lon="2.29656">
        <ele>158</ele>
        <time>2023-05-25T02:00:15Z</time>
      </trkpt>
      <trkpt lat="49.53033" lon="2.29539">
        <ele>155</ele>
        <time>2023-05-25T02:00:39Z</time>
      </trkpt>
      <trkpt lat="49.52897" lon="2.2945">
        <ele>150</ele>
        <time>2023-05-25T02:01:06Z</time>
      </trkpt>
      <trkpt lat="49.52866" lon="2.29411">
        <ele>148</ele>
        <time>2023-05-25T02:01:13Z</time>
      </trkpt>
      <trkpt lat="49.52697" lon="2.2933">
        <ele>145</ele>
        <time>2023-05-25T02:01:44Z</time>
      </trkpt>
      <trkpt lat="49.52659" lon="2.29301">
        <ele>145</ele>
        <time>2023-05-25T02:01:52Z</time>
      </trkpt>
      <trkpt lat="49.52629" lon="2.29273">
        <ele>145</ele>
        <time>2023-05-25T02:01:58Z</time>
      </trkpt>
      <trkpt lat="49.52572" lon="2.29202">
        <ele>142</ele>
        <time>2023-05-25T02:02:11Z</time>
      </trkpt>
      <trkpt lat="49.52554" lon="2.29189">
        <ele>142</ele>
        <time>2023-05-25T02:02:15Z</time>
      </trkpt>
      <trkpt lat="49.52502" lon="2.29193">
        <ele>143</ele>
        <time>2023-05-25T02:02:24Z</time>
      </trkpt>
      <trkpt lat="49.52284" lon="2.28955">
        <ele>138</ele>
        <time>2023-05-25T02:03:11Z</time>
      </trkpt>
      <trkpt lat="49.52231" lon="2.28866">
        <ele>136</ele>
        <time>2023-05-25T02:03:25Z</time>
      </trkpt>
      <trkpt lat="49.52105" lon="2.28733">
        <ele>134</ele>
        <time>2023-05-25T02:03:52Z</time>
      </trkpt>
      <trkpt lat="49.51877" lon="2.28528">
        <ele>134</ele>
        <time>2023-05-25T02:04:39Z</time>
      </trkpt>
      <trkpt lat="49.51845" lon="2.28482">
        <ele>136</ele>
        <time>2023-05-25T02:04:47Z</time>
      </trkpt>
      <trkpt lat="49.51832" lon="2.28447">
        <ele>133</ele>
        <time>2023-05-25T02:04:52Z</time>
      </trkpt>
      <trkpt lat="49.51818" lon="2.28399">
        <ele>133</ele>
        <time>2023-05-25T02:04:58Z</time>
      </trkpt>
      <trkpt lat="49.51805" lon="2.28289">
        <ele>128</ele>
        <time>2023-05-25T02:05:11Z</time>
      </trkpt>
      <trkpt lat="49.51789" lon="2.28215">
        <ele>125</ele>
        <time>2023-05-25T02:05:20Z</time>
      </trkpt>
      <trkpt lat="49.51752" lon="2.28163">
        <ele>122</ele>
        <time>2023-05-25T02:05:29Z</time>
      </trkpt>
      <trkpt lat="49.51669" lon="2.28034">
        <ele>115</ele>
        <time>2023-05-25T02:05:50Z</time>
      </trkpt>
      <trkpt lat="49.51566" lon="2.27921">
        <ele>113</ele>
        <time>2023-05-25T02:06:12Z</time>
      </trkpt>
      <trkpt lat="49.51529" lon="2.27863">
        <ele>114</ele>
        <time>2023-05-25T02:06:22Z</time>
      </trkpt>
      <trkpt lat="49.51408" lon="2.2768">
        <ele>124</ele>
        <time>2023-05-25T02:06:52Z</time>
      </trkpt>
      <trkpt lat="49.51369" lon="2.27637">
        <ele>126</ele>
        <time>2023-05-25T02:07:00Z</time>
      </trkpt>
      <trkpt lat="49.51338" lon="2.27591">
        <ele>127</ele>
        <time>2023-05-25T02:07:08Z</time>
      </trkpt>
      <trkpt lat="49.51133" lon="2.27511">
        <ele>118</ele>
        <time>2023-05-25T02:07:46Z</time>
      </trkpt>
      <trkpt lat="49.51028" lon="2.27467">
        <ele>113</ele>
        <time>2023-05-25T02:08:05Z</time>
      </trkpt>
      <trkpt lat="49.5099" lon="2.27449">
        <ele>112</ele>
        <time>2023-05-25T02:08:12Z</time>
      </trkpt>
      <trkpt lat="49.5093" lon="2.27413">
        <ele>109</ele>
        <time>2023-05-25T02:08:24Z</time>
      </trkpt>
      <trkpt lat="49.50929" lon="2.27407">
        <ele>108</ele>
        <time>2023-05-25T02:08:24Z</time>
      </trkpt>
      <trkpt lat="49.50926" lon="2.27405">
        <ele>108</ele>
        <time>2023-05-25T02:08:25Z</time>
      </trkpt>
      <trkpt lat="49.50923" lon="2.27409">
        <ele>108</ele>
        <time>2023-05-25T02:08:26Z</time>
      </trkpt>
      <trkpt lat="49.50923" lon="2.27414">
        <ele>108</ele>
        <time>2023-05-25T02:08:26Z</time>
      </trkpt>
      <trkpt lat="49.50909" lon="2.27429">
        <ele>108</ele>
        <time>2023-05-25T02:08:29Z</time>
      </trkpt>
      <trkpt lat="49.5076" lon="2.27658">
        <ele>101</ele>
        <time>2023-05-25T02:09:07Z</time>
      </trkpt>
      <trkpt lat="49.50744" lon="2.27679">
        <ele>100</ele>
        <time>2023-05-25T02:09:10Z</time>
      </trkpt>
      <trkpt lat="49.50676" lon="2.27747">
        <ele>97</ele>
        <time>2023-05-25T02:09:25Z</time>
      </trkpt>
      <trkpt lat="49.50644" lon="2.27785">
        <ele>98</ele>
        <time>2023-05-25T02:09:32Z</time>
      </trkpt>
      <trkpt lat="49.50625" lon="2.27824">
        <ele>99</ele>
        <time>2023-05-25T02:09:38Z</time>
      </trkpt>
      <trkpt lat="49.50552" lon="2.28032">
        <ele>102</ele>
        <time>2023-05-25T02:10:05Z</time>
      </trkpt>
      <trkpt lat="49.5048" lon="2.28195">
        <ele>98</ele>
        <time>2023-05-25T02:10:28Z</time>
      </trkpt>
      <trkpt lat="49.50461" lon="2.28265">
        <ele>98</ele>
        <time>2023-05-25T02:10:36Z</time>
      </trkpt>
      <trkpt lat="49.50454" lon="2.2831">
        <ele>98</ele>
        <time>2023-05-25T02:10:42Z</time>
      </trkpt>
      <trkpt lat="49.50417" lon="2.28486">
        <ele>95</ele>
        <time>2023-05-25T02:11:03Z</time>
      </trkpt>
      <trkpt lat="49.50405" lon="2.28526">
        <ele>94</ele>
        <time>2023-05-25T02:11:08Z</time>
      </trkpt>
      <trkpt lat="49.50389" lon="2.28568">
        <ele>94</ele>
        <time>2023-05-25T02:11:14Z</time>
      </trkpt>
      <trkpt lat="49.50187" lon="2.29018">
        <ele>91</ele>
        <time>2023-05-25T02:12:17Z</time>
      </trkpt>
      <trkpt lat="49.50174" lon="2.29042">
        <ele>91</ele>
        <time>2023-05-25T02:12:21Z</time>
      </trkpt>
      <trkpt lat="49.50149" lon="2.29074">
        <ele>91</ele>
        <time>2023-05-25T02:12:27Z</time>
      </trkpt>
      <trkpt lat="49.50122" lon="2.29094">
        <ele>91</ele>
        <time>2023-05-25T02:12:32Z</time>
      </trkpt>
      <trkpt lat="49.50084" lon="2.29107">
        <ele>90</ele>
        <time>2023-05-25T02:12:39Z</time>
      </trkpt>
      <trkpt lat="49.50059" lon="2.29112">
        <ele>91</ele>
        <time>2023-05-25T02:12:43Z</time>
      </trkpt>
      <trkpt lat="49.50036" lon="2.29113">
        <ele>91</ele>
        <time>2023-05-25T02:12:47Z</time>
      </trkpt>
      <trkpt lat="49.49989" lon="2.29107">
        <ele>93</ele>
        <time>2023-05-25T02:12:56Z</time>
      </trkpt>
      <trkpt lat="49.49953" lon="2.29094">
        <ele>94</ele>
        <time>2023-05-25T02:13:02Z</time>
      </trkpt>
      <trkpt lat="49.49928" lon="2.29079">
        <ele>94</ele>
        <time>2023-05-25T02:13:07Z</time>
      </trkpt>
      <trkpt lat="49.49888" lon="2.29048">
        <ele>95</ele>
        <time>2023-05-25T02:13:15Z</time>
      </trkpt>
      <trkpt lat="49.49838" lon="2.29014">
        <ele>94</ele>
        <time>2023-05-25T02:13:25Z</time>
      </trkpt>
      <trkpt lat="49.49789" lon="2.29">
        <ele>94</ele>
        <time>2023-05-25T02:13:34Z</time>
      </trkpt>
      <trkpt lat="49.49666" lon="2.28997">
        <ele>95</ele>
        <time>2023-05-25T02:13:56Z</time>
      </trkpt>
      <trkpt lat="49.4961" lon="2.29">
        <ele>94</ele>
        <time>2023-05-25T02:14:06Z</time>
      </trkpt>
      <trkpt lat="49.49587" lon="2.29006">
        <ele>94</ele>
        <time>2023-05-25T02:14:10Z</time>
      </trkpt>
      <trkpt lat="49.49577" lon="2.29013">
        <ele>94</ele>
        <time>2023-05-25T02:14:12Z</time>
      </trkpt>
      <trkpt lat="49.49557" lon="2.29031">
        <ele>94</ele>
        <time>2023-05-25T02:14:16Z</time>
      </trkpt>
      <trkpt lat="49.49435" lon="2.29189">
        <ele>92</ele>
        <time>2023-05-25T02:14:44Z</time>
      </trkpt>
      <trkpt lat="49.49423" lon="2.29215">
        <ele>92</ele>
        <time>2023-05-25T02:14:48Z</time>
      </trkpt>
      <trkpt lat="49.49373" lon="2.2944">
        <ele>94</ele>
        <time>2023-05-25T02:15:15Z</time>
      </trkpt>
      <trkpt lat="49.49371" lon="2.29466">
        <ele>94</ele>
        <time>2023-05-25T02:15:18Z</time>
      </trkpt>
      <trkpt lat="49.49373" lon="2.2949">
        <ele>95</ele>
        <time>2023-05-25T02:15:21Z</time>
      </trkpt>
      <trkpt lat="49.49377" lon="2.29507">
        <ele>95</ele>
        <time>2023-05-25T02:15:23Z</time>
      </trkpt>
      <trkpt lat="49.49406" lon="2.29557">
        <ele>97</ele>
        <time>2023-05-25T02:15:31Z</time>
      </trkpt>
      <trkpt lat="49.49414" lon="2.2957">
        <ele>97</ele>
        <time>2023-05-25T02:15:33Z</time>
      </trkpt>
      <trkpt lat="49.49418" lon="2.2959">
        <ele>97</ele>
        <time>2023-05-25T02:15:35Z</time>
      </trkpt>
      <trkpt lat="49.4949" lon="2.29722">
        <ele>91</ele>
        <time>2023-05-25T02:15:55Z</time>
      </trkpt>
      <trkpt lat="49.49491" lon="2.29727">
        <ele>91</ele>
        <time>2023-05-25T02:15:56Z</time>
      </trkpt>
      <trkpt lat="49.49546" lon="2.29979">
        <ele>89</ele>
        <time>2023-05-25T02:16:27Z</time>
      </trkpt>
      <trkpt lat="49.49563" lon="2.30101">
        <ele>97</ele>
        <time>2023-05-25T02:16:41Z</time>
      </trkpt>
      <trkpt lat="49.49579" lon="2.30224">
        <ele>103</ele>
        <time>2023-05-25T02:16:56Z</time>
      </trkpt>
      <trkpt lat="49.49538" lon="2.30533">
        <ele>126</ele>
        <time>2023-05-25T02:17:32Z</time>
      </trkpt>
      <trkpt lat="49.49543" lon="2.30615">
        <ele>132</ele>
        <time>2023-05-25T02:17:42Z</time>
      </trkpt>
      <trkpt lat="49.49535" lon="2.30803">
        <ele>141</ele>
        <time>2023-05-25T02:18:03Z</time>
      </trkpt>
      <trkpt lat="49.49538" lon="2.30862">
        <ele>142</ele>
        <time>2023-05-25T02:18:10Z</time>
      </trkpt>
      <trkpt lat="49.4959" lon="2.31085">
        <ele>145</ele>
        <time>2023-05-25T02:18:38Z</time>
      </trkpt>
      <trkpt lat="49.49629" lon="2.31229">
        <ele>146</ele>
        <time>2023-05-25T02:18:56Z</time>
      </trkpt>
      <trkpt lat="49.49644" lon="2.3131">
        <ele>146</ele>
        <time>2023-05-25T02:19:05Z</time>
      </trkpt>
      <trkpt lat="49.49634" lon="2.31586">
        <ele>146</ele>
        <time>2023-05-25T02:19:37Z</time>
      </trkpt>
      <trkpt lat="49.49647" lon="2.31609">
        <ele>146</ele>
        <time>2023-05-25T02:19:41Z</time>
      </trkpt>
      <trkpt lat="49.49661" lon="2.31652">
        <ele>146</ele>
        <time>2023-05-25T02:19:46Z</time>
      </trkpt>
      <trkpt lat="49.49671" lon="2.31894">
        <ele>147</ele>
        <time>2023-05-25T02:20:14Z</time>
      </trkpt>
      <trkpt lat="49.49663" lon="2.31968">
        <ele>147</ele>
        <time>2023-05-25T02:20:23Z</time>
      </trkpt>
      <trkpt lat="49.49639" lon="2.32269">
        <ele>148</ele>
        <time>2023-05-25T02:20:58Z</time>
      </trkpt>
      <trkpt lat="49.49629" lon="2.32431">
        <ele>149</ele>
        <time>2023-05-25T02:21:17Z</time>
      </trkpt>
      <trkpt lat="49.49612" lon="2.32684">
        <ele>151</ele>
        <time>2023-05-25T02:21:46Z</time>
      </trkpt>
      <trkpt lat="49.49613" lon="2.32702">
        <ele>151</ele>
        <time>2023-05-25T02:21:48Z</time>
      </trkpt>
      <trkpt lat="49.49611" lon="2.32709">
        <ele>151</ele>
        <time>2023-05-25T02:21:49Z</time>
      </trkpt>
      <trkpt lat="49.49594" lon="2.32722">
        <ele>151</ele>
        <time>2023-05-25T02:21:53Z</time>
      </trkpt>
      <trkpt lat="49.49426" lon="2.32818">
        <ele>148</ele>
        <time>2023-05-25T02:22:25Z</time>
      </trkpt>
      <trkpt lat="49.49314" lon="2.32862">
        <ele>144</ele>
        <time>2023-05-25T02:22:45Z</time>
      </trkpt>
      <trkpt lat="49.49283" lon="2.32879">
        <ele>143</ele>
        <time>2023-05-25T02:22:51Z</time>
      </trkpt>
      <trkpt lat="49.49252" lon="2.32901">
        <ele>142</ele>
        <time>2023-05-25T02:22:57Z</time>
      </trkpt>
      <trkpt lat="49.49222" lon="2.32926">
        <ele>141</ele>
        <time>2023-05-25T02:23:03Z</time>
      </trkpt>
      <trkpt lat="49.49169" lon="2.32981">
        <ele>138</ele>
        <time>2023-05-25T02:23:14Z</time>
      </trkpt>
      <trkpt lat="49.49138" lon="2.33022">
        <ele>135</ele>
        <time>2023-05-25T02:23:22Z</time>
      </trkpt>
      <trkpt lat="49.49111" lon="2.33073">
        <ele>132</ele>
        <time>2023-05-25T02:23:29Z</time>
      </trkpt>
      <trkpt lat="49.49025" lon="2.33424">
        <ele>140</ele>
        <time>2023-05-25T02:24:13Z</time>
      </trkpt>
      <trkpt lat="49.48988" lon="2.33502">
        <ele>142</ele>
        <time>2023-05-25T02:24:24Z</time>
      </trkpt>
      <trkpt lat="49.48949" lon="2.33602">
        <ele>144</ele>
        <time>2023-05-25T02:24:37Z</time>
      </trkpt>
      <trkpt lat="49.4875" lon="2.3417">
        <ele>143</ele>
        <time>2023-05-25T02:25:52Z</time>
      </trkpt>
      <trkpt lat="49.48734" lon="2.34211">
        <ele>143</ele>
        <time>2023-05-25T02:25:57Z</time>
      </trkpt>
      <trkpt lat="49.48658" lon="2.34325">
        <ele>145</ele>
        <time>2023-05-25T02:26:16Z</time>
      </trkpt>
      <trkpt lat="49.48633" lon="2.344">
        <ele>146</ele>
        <time>2023-05-25T02:26:26Z</time>
      </trkpt>
      <trkpt lat="49.48603" lon="2.3448">
        <ele>147</ele>
        <time>2023-05-25T02:26:37Z</time>
      </trkpt>
      <trkpt lat="49.48553" lon="2.34551">
        <ele>146</ele>
        <time>2023-05-25T02:26:49Z</time>
      </trkpt>
      <trkpt lat="49.48533" lon="2.34591">
        <ele>146</ele>
        <time>2023-05-25T02:26:55Z</time>
      </trkpt>
      <trkpt lat="49.48483" lon="2.34706">
        <ele>143</ele>
        <time>2023-05-25T02:27:11Z</time>
      </trkpt>
      <trkpt lat="49.48462" lon="2.34735">
        <ele>142</ele>
        <time>2023-05-25T02:27:16Z</time>
      </trkpt>
      <trkpt lat="49.48433" lon="2.34779">
        <ele>139</ele>
        <time>2023-05-25T02:27:23Z</time>
      </trkpt>
      <trkpt lat="49.48394" lon="2.34844">
        <ele>136</ele>
        <time>2023-05-25T02:27:33Z</time>
      </trkpt>
      <trkpt lat="49.48376" lon="2.34893">
        <ele>133</ele>
        <time>2023-05-25T02:27:40Z</time>
      </trkpt>
      <trkpt lat="49.48363" lon="2.3495">
        <ele>131</ele>
        <time>2023-05-25T02:27:47Z</time>
      </trkpt>
      <trkpt lat="49.48355" lon="2.35026">
        <ele>128</ele>
        <time>2023-05-25T02:27:56Z</time>
      </trkpt>
      <trkpt lat="49.48348" lon="2.35065">
        <ele>126</ele>
        <time>2023-05-25T02:28:00Z</time>
      </trkpt>
      <trkpt lat="49.48339" lon="2.35104">
        <ele>124</ele>
        <time>2023-05-25T02:28:05Z</time>
      </trkpt>
      <trkpt lat="49.48291" lon="2.35244">
        <ele>117</ele>
        <time>2023-05-25T02:28:23Z</time>
      </trkpt>
      <trkpt lat="49.4827" lon="2.35317">
        <ele>114</ele>
        <time>2023-05-25T02:28:33Z</time>
      </trkpt>
      <trkpt lat="49.48242" lon="2.35474">
        <ele>109</ele>
        <time>2023-05-25T02:28:51Z</time>
      </trkpt>
      <trkpt lat="49.48186" lon="2.35654">
        <ele>109</ele>
        <time>2023-05-25T02:29:14Z</time>
      </trkpt>
      <trkpt lat="49.48111" lon="2.35877">
        <ele>106</ele>
        <time>2023-05-25T02:29:43Z</time>
      </trkpt>
      <trkpt lat="49.48055" lon="2.36008">
        <ele>108</ele>
        <time>2023-05-25T02:30:02Z</time>
      </trkpt>
      <trkpt lat="49.48051" lon="2.36021">
        <ele>108</ele>
        <time>2023-05-25T02:30:03Z</time>
      </trkpt>
      <trkpt lat="49.48017" lon="2.36104">
        <ele>108</ele>
        <time>2023-05-25T02:30:15Z</time>
      </trkpt>
      <trkpt lat="49.47986" lon="2.3618">
        <ele>109</ele>
        <time>2023-05-25T02:30:25Z</time>
      </trkpt>
      <trkpt lat="49.47973" lon="2.36196">
        <ele>111</ele>
        <time>2023-05-25T02:30:28Z</time>
      </trkpt>
      <trkpt lat="49.47955" lon="2.362">
        <ele>112</ele>
        <time>2023-05-25T02:30:31Z</time>
      </trkpt>
      <trkpt lat="49.47937" lon="2.36194">
        <ele>114</ele>
        <time>2023-05-25T02:30:34Z</time>
      </trkpt>
      <trkpt lat="49.47824" lon="2.36138">
        <ele>121</ele>
        <time>2023-05-25T02:30:56Z</time>
      </trkpt>
      <trkpt lat="49.47802" lon="2.36139">
        <ele>123</ele>
        <time>2023-05-25T02:30:59Z</time>
      </trkpt>
      <trkpt lat="49.47782" lon="2.36152">
        <ele>127</ele>
        <time>2023-05-25T02:31:03Z</time>
      </trkpt>
      <trkpt lat="49.47773" lon="2.36173">
        <ele>130</ele>
        <time>2023-05-25T02:31:06Z</time>
      </trkpt>
      <trkpt lat="49.4777" lon="2.36204">
        <ele>133</ele>
        <time>2023-05-25T02:31:10Z</time>
      </trkpt>
      <trkpt lat="49.47818" lon="2.36341">
        <ele>136</ele>
        <time>2023-05-25T02:31:28Z</time>
      </trkpt>
      <trkpt lat="49.47819" lon="2.36373">
        <ele>138</ele>
        <time>2023-05-25T02:31:32Z</time>
      </trkpt>
      <trkpt lat="49.47809" lon="2.36397">
        <ele>140</ele>
        <time>2023-05-25T02:31:35Z</time>
      </trkpt>
      <trkpt lat="49.47797" lon="2.36409">
        <ele>142</ele>
        <time>2023-05-25T02:31:37Z</time>
      </trkpt>
      <trkpt lat="49.47771" lon="2.36425">
        <ele>144</ele>
        <time>2023-05-25T02:31:42Z</time>
      </trkpt>
      <trkpt lat="49.47734" lon="2.36456">
        <ele>145</ele>
        <time>2023-05-25T02:31:50Z</time>
      </trkpt>
      <trkpt lat="49.47691" lon="2.36509">
        <ele>145</ele>
        <time>2023-05-25T02:32:00Z</time>
      </trkpt>
      <trkpt lat="49.47464" lon="2.36903">
        <ele>147</ele>
        <time>2023-05-25T02:33:01Z</time>
      </trkpt>
      <trkpt lat="49.4731" lon="2.37326">
        <ele>141</ele>
        <time>2023-05-25T02:33:57Z</time>
      </trkpt>
      <trkpt lat="49.47236" lon="2.37436">
        <ele>140</ele>
        <time>2023-05-25T02:34:15Z</time>
      </trkpt>
      <trkpt lat="49.47208" lon="2.37466">
        <ele>140</ele>
        <time>2023-05-25T02:34:21Z</time>
      </trkpt>
      <trkpt lat="49.47061" lon="2.37706">
        <ele>138</ele>
        <time>2023-05-25T02:34:59Z</time>
      </trkpt>
      <trkpt lat="49.47024" lon="2.37784">
        <ele>137</ele>
        <time>2023-05-25T02:35:10Z</time>
      </trkpt>
      <trkpt lat="49.46993" lon="2.37856">
        <ele>137</ele>
        <time>2023-05-25T02:35:20Z</time>
      </trkpt>
      <trkpt lat="49.46965" lon="2.37887">
        <ele>138</ele>
        <time>2023-05-25T02:35:26Z</time>
      </trkpt>
      <trkpt lat="49.46911" lon="2.37931">
        <ele>138</ele>
        <time>2023-05-25T02:35:37Z</time>
      </trkpt>
      <trkpt lat="49.46878" lon="2.3797">
        <ele>137</ele>
        <time>2023-05-25T02:35:45Z</time>
      </trkpt>
      <trkpt lat="49.4685" lon="2.38017">
        <ele>136</ele>
        <time>2023-05-25T02:35:52Z</time>
      </trkpt>
      <trkpt lat="49.46837" lon="2.38049">
        <ele>135</ele>
        <time>2023-05-25T02:35:56Z</time>
      </trkpt>
      <trkpt lat="49.46826" lon="2.38081">
        <ele>134</ele>
        <time>2023-05-25T02:36:01Z</time>
      </trkpt>
      <trkpt lat="49.46817" lon="2.3811">
        <ele>134</ele>
        <time>2023-05-25T02:36:04Z</time>
      </trkpt>
      <trkpt lat="49.46808" lon="2.38181">
        <ele>132</ele>
        <time>2023-05-25T02:36:13Z</time>
      </trkpt>
      <trkpt lat="49.46883" lon="2.38191">
        <ele>132</ele>
        <time>2023-05-25T02:36:26Z</time>
      </trkpt>
      <trkpt lat="49.46922" lon="2.38193">
        <ele>132</ele>
        <time>2023-05-25T02:36:33Z</time>
      </trkpt>
      <trkpt lat="49.46947" lon="2.38204">
        <ele>132</ele>
        <time>2023-05-25T02:36:38Z</time>
      </trkpt>
      <trkpt lat="49.4703" lon="2.38314">
        <ele>129</ele>
        <time>2023-05-25T02:36:57Z</time>
      </trkpt>
      <trkpt lat="49.4705" lon="2.38352">
        <ele>127</ele>
        <time>2023-05-25T02:37:03Z</time>
      </trkpt>
      <trkpt lat="49.4707" lon="2.38427">
        <ele>123</ele>
        <time>2023-05-25T02:37:12Z</time>
      </trkpt>
      <trkpt lat="49.47097" lon="2.38479">
        <ele>120</ele>
        <time>2023-05-25T02:37:20Z</time>
      </trkpt>
      <trkpt lat="49.47146" lon="2.38544">
        <ele>119</ele>
        <time>2023-05-25T02:37:31Z</time>
      </trkpt>
      <trkpt lat="49.47162" lon="2.38558">
        <ele>119</ele>
        <time>2023-05-25T02:37:35Z</time>
      </trkpt>
      <trkpt lat="49.47191" lon="2.3859">
        <ele>121</ele>
        <time>2023-05-25T02:37:41Z</time>
      </trkpt>
      <trkpt lat="49.47217" lon="2.38609">
        <ele>122</ele>
        <time>2023-05-25T02:37:46Z</time>
      </trkpt>
      <trkpt lat="49.47261" lon="2.38628">
        <ele>124</ele>
        <time>2023-05-25T02:37:54Z</time>
      </trkpt>
      <trkpt lat="49.47268" lon="2.38636">
        <ele>125</ele>
        <time>2023-05-25T02:37:56Z</time>
      </trkpt>
      <trkpt lat="49.47285" lon="2.38632">
        <ele>127</ele>
        <time>2023-05-25T02:37:59Z</time>
      </trkpt>
      <trkpt lat="49.4734" lon="2.38637">
        <ele>132</ele>
        <time>2023-05-25T02:38:09Z</time>
      </trkpt>
      <trkpt lat="49.47367" lon="2.38644">
        <ele>134</ele>
        <time>2023-05-25T02:38:14Z</time>
      </trkpt>
      <trkpt lat="49.47406" lon="2.38649">
        <ele>138</ele>
        <time>2023-05-25T02:38:21Z</time>
      </trkpt>
      <trkpt lat="49.47478" lon="2.38653">
        <ele>143</ele>
        <time>2023-05-25T02:38:33Z</time>
      </trkpt>
      <trkpt lat="49.47502" lon="2.3867">
        <ele>145</ele>
        <time>2023-05-25T02:38:38Z</time>
      </trkpt>
      <trkpt lat="49.47558" lon="2.387">
        <ele>147</ele>
        <time>2023-05-25T02:38:49Z</time>
      </trkpt>
      <trkpt lat="49.47592" lon="2.38743">
        <ele>149</ele>
        <time>2023-05-25T02:38:56Z</time>
      </trkpt>
      <trkpt lat="49.47616" lon="2.38784">
        <ele>149</ele>
        <time>2023-05-25T02:39:03Z</time>
      </trkpt>
      <trkpt lat="49.47684" lon="2.38861">
        <ele>151</ele>
        <time>2023-05-25T02:39:18Z</time>
      </trkpt>
      <trkpt lat="49.47766" lon="2.38939">
        <ele>152</ele>
        <time>2023-05-25T02:39:35Z</time>
      </trkpt>
      <trkpt lat="49.47869" lon="2.39049">
        <ele>154</ele>
        <time>2023-05-25T02:39:57Z</time>
      </trkpt>
      <trkpt lat="49.47894" lon="2.39083">
        <ele>155</ele>
        <time>2023-05-25T02:40:03Z</time>
      </trkpt>
      <trkpt lat="49.47916" lon="2.39142">
        <ele>155</ele>
        <time>2023-05-25T02:40:11Z</time>
      </trkpt>
      <trkpt lat="49.4816" lon="2.39735">
        <ele>160</ele>
        <time>2023-05-25T02:41:32Z</time>
      </trkpt>
      <trkpt lat="49.48179" lon="2.39775">
        <ele>160</ele>
        <time>2023-05-25T02:41:38Z</time>
      </trkpt>
      <trkpt lat="49.48192" lon="2.39792">
        <ele>159</ele>
        <time>2023-05-25T02:41:41Z</time>
      </trkpt>
      <trkpt lat="49.48209" lon="2.39801">
        <ele>160</ele>
        <time>2023-05-25T02:41:44Z</time>
      </trkpt>
      <trkpt lat="49.48236" lon="2.39803">
        <ele>161</ele>
        <time>2023-05-25T02:41:49Z</time>
      </trkpt>
      <trkpt lat="49.48289" lon="2.39799">
        <ele>164</ele>
        <time>2023-05-25T02:41:58Z</time>
      </trkpt>
      <trkpt lat="49.48334" lon="2.3981">
        <ele>164</ele>
        <time>2023-05-25T02:42:07Z</time>
      </trkpt>
      <trkpt lat="49.48539" lon="2.39875">
        <ele>170</ele>
        <time>2023-05-25T02:42:44Z</time>
      </trkpt>
      <trkpt lat="49.48569" lon="2.3989">
        <ele>170</ele>
        <time>2023-05-25T02:42:49Z</time>
      </trkpt>
      <trkpt lat="49.48612" lon="2.39922">
        <ele>172</ele>
        <time>2023-05-25T02:42:58Z</time>
      </trkpt>
      <trkpt lat="49.48676" lon="2.39983">
        <ele>172</ele>
        <time>2023-05-25T02:43:11Z</time>
      </trkpt>
      <trkpt lat="49.4872" lon="2.40018">
        <ele>176</ele>
        <time>2023-05-25T02:43:20Z</time>
      </trkpt>
      <trkpt lat="49.48741" lon="2.40037">
        <ele>178</ele>
        <time>2023-05-25T02:43:24Z</time>
      </trkpt>
      <trkpt lat="49.48845" lon="2.40124">
        <ele>178</ele>
        <time>2023-05-25T02:43:46Z</time>
      </trkpt>
      <trkpt lat="49.48939" lon="2.40196">
        <ele>178</ele>
        <time>2023-05-25T02:44:04Z</time>
      </trkpt>
      <trkpt lat="49.48978" lon="2.40207">
        <ele>176</ele>
        <time>2023-05-25T02:44:11Z</time>
      </trkpt>
      <trkpt lat="49.49015" lon="2.40228">
        <ele>175</ele>
        <time>2023-05-25T02:44:18Z</time>
      </trkpt>
      <trkpt lat="49.49025" lon="2.40236">
        <ele>175</ele>
        <time>2023-05-25T02:44:20Z</time>
      </trkpt>
      <trkpt lat="49.49136" lon="2.40353">
        <ele>170</ele>
        <time>2023-05-25T02:44:44Z</time>
      </trkpt>
      <trkpt lat="49.49163" lon="2.40387">
        <ele>169</ele>
        <time>2023-05-25T02:44:50Z</time>
      </trkpt>
      <trkpt lat="49.49261" lon="2.40576">
        <ele>167</ele>
        <time>2023-05-25T02:45:18Z</time>
      </trkpt>
      <trkpt lat="49.49309" lon="2.40676">
        <ele>166</ele>
        <time>2023-05-25T02:45:33Z</time>
      </trkpt>
      <trkpt lat="49.49337" lon="2.40714">
        <ele>165</ele>
        <time>2023-05-25T02:45:39Z</time>
      </trkpt>
      <trkpt lat="49.49424" lon="2.40793">
        <ele>162</ele>
        <time>2023-05-25T02:45:57Z</time>
      </trkpt>
      <trkpt lat="49.49438" lon="2.40811">
        <ele>162</ele>
        <time>2023-05-25T02:46:01Z</time>
      </trkpt>
      <trkpt lat="49.49454" lon="2.40854">
        <ele>161</ele>
        <time>2023-05-25T02:46:06Z</time>
      </trkpt>
      <trkpt lat="49.49466" lon="2.40872">
        <ele>160</ele>
        <time>2023-05-25T02:46:09Z</time>
      </trkpt>
      <trkpt lat="49.49498" lon="2.40894">
        <ele>159</ele>
        <time>2023-05-25T02:46:16Z</time>
      </trkpt>
      <trkpt lat="49.49544" lon="2.4093">
        <ele>159</ele>
        <time>2023-05-25T02:46:25Z</time>
      </trkpt>
      <trkpt lat="49.49614" lon="2.41002">
        <ele>155</ele>
        <time>2023-05-25T02:46:40Z</time>
      </trkpt>
      <trkpt lat="49.49626" lon="2.41025">
        <ele>154</ele>
        <time>2023-05-25T02:46:43Z</time>
      </trkpt>
      <trkpt lat="49.49655" lon="2.41073">
        <ele>150</ele>
        <time>2023-05-25T02:46:51Z</time>
      </trkpt>
      <trkpt lat="49.4981" lon="2.41172">
        <ele>144</ele>
        <time>2023-05-25T02:47:21Z</time>
      </trkpt>
      <trkpt lat="49.4984" lon="2.41189">
        <ele>143</ele>
        <time>2023-05-25T02:47:26Z</time>
      </trkpt>
      <trkpt lat="49.49856" lon="2.41205">
        <ele>143</ele>
        <time>2023-05-25T02:47:30Z</time>
      </trkpt>
      <trkpt lat="49.49864" lon="2.41226">
        <ele>142</ele>
        <time>2023-05-25T02:47:32Z</time>
      </trkpt>
      <trkpt lat="49.49906" lon="2.41347">
        <ele>139</ele>
        <time>2023-05-25T02:47:48Z</time>
      </trkpt>
      <trkpt lat="49.50021" lon="2.41587">
        <ele>135</ele>
        <time>2023-05-25T02:48:23Z</time>
      </trkpt>
      <trkpt lat="49.50136" lon="2.41818">
        <ele>128</ele>
        <time>2023-05-25T02:48:56Z</time>
      </trkpt>
      <trkpt lat="49.5016" lon="2.4186">
        <ele>126</ele>
        <time>2023-05-25T02:49:03Z</time>
      </trkpt>
      <trkpt lat="49.50253" lon="2.41977">
        <ele>117</ele>
        <time>2023-05-25T02:49:24Z</time>
      </trkpt>
      <trkpt lat="49.50311" lon="2.42036">
        <ele>115</ele>
        <time>2023-05-25T02:49:37Z</time>
      </trkpt>
      <trkpt lat="49.50332" lon="2.4206">
        <ele>115</ele>
        <time>2023-05-25T02:49:41Z</time>
      </trkpt>
      <trkpt lat="49.50336" lon="2.42062">
        <ele>115</ele>
        <time>2023-05-25T02:49:42Z</time>
      </trkpt>
      <trkpt lat="49.50354" lon="2.42136">
        <ele>118</ele>
        <time>2023-05-25T02:49:51Z</time>
      </trkpt>
      <trkpt lat="49.50376" lon="2.42225">
        <ele>126</ele>
        <time>2023-05-25T02:50:02Z</time>
      </trkpt>
      <trkpt lat="49.50384" lon="2.42264">
        <ele>128</ele>
        <time>2023-05-25T02:50:07Z</time>
      </trkpt>
      <trkpt lat="49.50396" lon="2.42361">
        <ele>127</ele>
        <time>2023-05-25T02:50:18Z</time>
      </trkpt>
      <trkpt lat="49.50403" lon="2.42406">
        <ele>125</ele>
        <time>2023-05-25T02:50:24Z</time>
      </trkpt>
      <trkpt lat="49.50462" lon="2.42679">
        <ele>114</ele>
        <time>2023-05-25T02:50:57Z</time>
      </trkpt>
      <trkpt lat="49.5053" lon="2.42647">
        <ele>116</ele>
        <time>2023-05-25T02:51:09Z</time>
      </trkpt>
      <trkpt lat="49.50544" lon="2.42633">
        <ele>117</ele>
        <time>2023-05-25T02:51:12Z</time>
      </trkpt>
      <trkpt lat="49.50557" lon="2.426">
        <ele>119</ele>
        <time>2023-05-25T02:51:17Z</time>
      </trkpt>
      <trkpt lat="49.50563" lon="2.42575">
        <ele>120</ele>
        <time>2023-05-25T02:51:20Z</time>
      </trkpt>
      <trkpt lat="49.50574" lon="2.42503">
        <ele>124</ele>
        <time>2023-05-25T02:51:29Z</time>
      </trkpt>
      <trkpt lat="49.50587" lon="2.42389">
        <ele>128</ele>
        <time>2023-05-25T02:51:42Z</time>
      </trkpt>
      <trkpt lat="49.50589" lon="2.4219">
        <ele>135</ele>
        <time>2023-05-25T02:52:05Z</time>
      </trkpt>
      <trkpt lat="49.50592" lon="2.42161">
        <ele>135</ele>
        <time>2023-05-25T02:52:08Z</time>
      </trkpt>
      <trkpt lat="49.50599" lon="2.42127">
        <ele>135</ele>
        <time>2023-05-25T02:52:12Z</time>
      </trkpt>
    </trkseg>
  </trk>
</gpx>